Darstellungsparameter: Aktuell verwendete Einstellungen:
Skalierung der Graphiken ... ?
xyx+y,   Skalierungsfaktor:      Skalierung: Modus: x, Faktor: 1
Darstellungszeitraum ... ?
Vom - - bis: - -   Zeitraum: 02.09.2010 - 29.09.2010
Min/Max/Avg-Anzeige ... ?
Zeige MMA aktuell
Zeige MMA Monat
Zeige MMA alles
Zeige --A aktuell
Zeige --A Monat
Zeige --A alles
Keine MMA-Anzeige
MMA:
Average (ber die Originaldaten)
MMA-Basis: 23.02.2003 - 30.09.2020
Quicknavigation für Darstellung... ?
Tage:      1T, 2T, 3T, 5T -1T -2T -3T -5T +1T +2T +3T +5T
Wochen: 1W, 2W, 3W -1W -2W -3W +1W +2W +3W
Monate: 1M, 3M, 6M -1M -3M -6M +1M +3M +6M
Jahre:    1J, 3J, 5J, 10J -1J -3J -5J -10J +1J +3J +5J +10J
Nutze für die Darstellung ... ?
Originaldaten oder Mittelwerte auf ...
Stundenbasis Tagesbasis Wochenbasis
Monatsbasis Jahresbasis      Datenbasis: Original-Daten
Darstellen als:
Statistik (Auto) Statistik J:M      Darstellung:
Zur Graphik,    zurück zur Übersicht aller Sensoren.
 
Tabellarische Datenbersicht: ?
 
Sensor: Nr:Datum:Temp:Abs-Feuchte:Windchill:Wind:
Aussen-T/F 1 02-09-2010 00:00:04 13.3 C 8.2 g/m*3 13.3 C 0 km/h
2 02-09-2010 00:12:04 13.1 C 8.1 g/m*3 13.1 C 0 km/h
3 02-09-2010 00:24:04 13 C 8.17 g/m*3 13 C 0 km/h
4 02-09-2010 00:36:04 12.9 C 8.34 g/m*3 12.9 C 0 km/h
5 02-09-2010 00:48:04 12.8 C 8.29 g/m*3 12.8 C 0 km/h
6 02-09-2010 01:00:04 12.6 C 8.3 g/m*3 12.6 C 0 km/h
7 02-09-2010 01:12:04 12.5 C 8.36 g/m*3 12.5 C 0 km/h
8 02-09-2010 01:24:04 12.3 C 8.36 g/m*3 12.3 C 0 km/h
9 02-09-2010 01:36:04 12.1 C 8.26 g/m*3 12.1 C 0 km/h
10 02-09-2010 01:48:04 12.1 C 8.58 g/m*3 12.1 C 0 km/h
11 02-09-2010 02:00:04 11.9 C 8.58 g/m*3 11.9 C 0 km/h
12 02-09-2010 02:12:04 11.7 C 8.58 g/m*3 11.7 C 0 km/h
13 02-09-2010 02:24:04 11.6 C 8.63 g/m*3 11.6 C 0 km/h
14 02-09-2010 02:36:04 11.5 C 8.57 g/m*3 11.5 C 0 km/h
15 02-09-2010 02:48:04 11.3 C 8.47 g/m*3 11.3 C 0 km/h
16 02-09-2010 03:00:04 11.2 C 8.41 g/m*3 11.2 C 0 km/h
17 02-09-2010 03:12:04 11.1 C 8.36 g/m*3 11.1 C 0 km/h
18 02-09-2010 03:24:04 11 C 8.31 g/m*3 11 C 0 km/h
19 02-09-2010 03:36:04 10.9 C 8.26 g/m*3 10.9 C 0 km/h
20 02-09-2010 03:48:04 10.8 C 8.2 g/m*3 10.8 C 0 km/h
21 02-09-2010 04:00:04 10.7 C 8.25 g/m*3 10.7 C 0 km/h
22 02-09-2010 04:12:05 10.5 C 8.24 g/m*3 10.5 C 0 km/h
23 02-09-2010 04:24:05 10.4 C 8.29 g/m*3 10.4 C 0 km/h
24 02-09-2010 04:36:05 10.3 C 8.33 g/m*3 10.3 C 0 km/h
25 02-09-2010 04:48:05 10.3 C 8.33 g/m*3 10.3 C 0 km/h
Sensor: Nr:Datum:Temp:Abs-Feuchte:Windchill:Wind:
Aussen-T/F 26 02-09-2010 05:00:05 10.3 C 8.43 g/m*3 10.3 C 0 km/h
27 02-09-2010 05:12:05 10.3 C 8.43 g/m*3 10.3 C 0 km/h
28 02-09-2010 05:24:05 10.3 C 8.52 g/m*3 10.3 C 0 km/h
29 02-09-2010 05:36:05 10.3 C 8.52 g/m*3 10.3 C 0 km/h
30 02-09-2010 05:48:05 10.4 C 8.58 g/m*3 10.4 C 0 km/h
31 02-09-2010 06:00:05 10.3 C 8.52 g/m*3 10.3 C 0 km/h
32 02-09-2010 06:12:05 10.3 C 8.52 g/m*3 10.3 C 0 km/h
33 02-09-2010 06:24:05 10.3 C 8.62 g/m*3 10.3 C 0 km/h
34 02-09-2010 06:36:03 10.4 C 8.67 g/m*3 10.4 C 0 km/h
35 02-09-2010 06:48:01 10.4 C 8.67 g/m*3 10.4 C 0 km/h
36 02-09-2010 07:00:01 10.4 C 8.67 g/m*3 10.4 C 0 km/h
37 02-09-2010 07:12:02 10.5 C 8.73 g/m*3 10.5 C 0 km/h
38 02-09-2010 07:24:01 10.7 C 8.84 g/m*3 10.7 C 0 km/h
39 02-09-2010 07:36:01 10.9 C 8.95 g/m*3 10.9 C 0 km/h
40 02-09-2010 07:48:01 10.9 C 8.85 g/m*3 10.9 C 0 km/h
41 02-09-2010 08:00:01 11 C 8.81 g/m*3 11 C 0 km/h
42 02-09-2010 08:12:02 11.3 C 8.98 g/m*3 11.3 C 0 km/h
43 02-09-2010 08:24:02 11.3 C 8.98 g/m*3 11.3 C 0 km/h
44 02-09-2010 08:36:01 11.4 C 8.93 g/m*3 11.4 C 0 km/h
45 02-09-2010 08:48:02 11.7 C 9.1 g/m*3 11.7 C 0 km/h
46 02-09-2010 09:00:03 11.7 C 8.99 g/m*3 11.7 C 0 km/h
47 02-09-2010 09:12:02 12 C 8.95 g/m*3 12 C 0 km/h
48 02-09-2010 09:24:02 12.5 C 9.13 g/m*3 12.5 C 0 km/h
49 02-09-2010 09:36:02 12.8 C 9.07 g/m*3 12.8 C 0 km/h
50 02-09-2010 09:48:01 13 C 8.73 g/m*3 13 C 0 km/h
Sensor: Nr:Datum:Temp:Abs-Feuchte:Windchill:Wind:
Aussen-T/F 51 02-09-2010 10:00:01 13.5 C 8.77 g/m*3 13.5 C 0 km/h
52 02-09-2010 10:12:02 13.9 C 8.75 g/m*3 13.9 C 0 km/h
53 02-09-2010 10:24:01 14.1 C 8.62 g/m*3 14.1 C 0 km/h
54 02-09-2010 10:36:01 14.3 C 8.6 g/m*3 14.3 C 0 km/h
55 02-09-2010 10:48:02 14.3 C 8.48 g/m*3 14.3 C 0 km/h
56 02-09-2010 11:00:02 14.4 C 8.65 g/m*3 14.4 C 0 km/h
57 02-09-2010 11:12:02 14.8 C 9.12 g/m*3 14.8 C 0 km/h
58 02-09-2010 11:24:01 15.3 C 9.14 g/m*3 15.3 C 0 km/h
59 02-09-2010 11:36:02 16 C 8.99 g/m*3 16 C 0 km/h
60 02-09-2010 11:48:01 16.8 C 9.15 g/m*3 16.8 C 0 km/h
61 02-09-2010 12:00:01 17.5 C 9.24 g/m*3 17.5 C 0 km/h
62 02-09-2010 12:12:02 18.1 C 9.12 g/m*3 18.1 C 0 km/h
63 02-09-2010 12:24:02 18.5 C 8.86 g/m*3 18.5 C 0 km/h
64 02-09-2010 12:36:01 19.2 C 8.41 g/m*3 19.2 C 0 km/h
65 02-09-2010 12:48:02 20 C 7.95 g/m*3 20 C 0 km/h
66 02-09-2010 13:00:02 20.2 C 7.34 g/m*3 20.2 C 0 km/h
67 02-09-2010 13:12:01 20.1 C 7.3 g/m*3 20.1 C 0 km/h
68 02-09-2010 13:24:01 21 C 7.51 g/m*3 21 C 0 km/h
69 02-09-2010 13:36:02 21.6 C 7.21 g/m*3 21.6 C 0 km/h
70 02-09-2010 13:48:02 21.3 C 7.46 g/m*3 21.3 C 0 km/h
71 02-09-2010 14:00:02 21.7 C 7.63 g/m*3 21.7 C 0 km/h
72 02-09-2010 14:12:01 22 C 7.38 g/m*3 22 C 0 km/h
73 02-09-2010 14:24:02 21.7 C 7.06 g/m*3 21.7 C 0 km/h
74 02-09-2010 14:36:02 22.9 C 6.95 g/m*3 22.9 C 0 km/h
75 02-09-2010 14:48:02 22.7 C 7.07 g/m*3 22.7 C 0 km/h
Sensor: Nr:Datum:Temp:Abs-Feuchte:Windchill:Wind:
Aussen-T/F 76 02-09-2010 15:00:02 22.6 C 7.03 g/m*3 22.6 C 0 km/h
77 02-09-2010 15:12:02 21.8 C 6.72 g/m*3 21.8 C 0 km/h
78 02-09-2010 15:24:02 20.3 C 6.68 g/m*3 20.3 C 0 km/h
79 02-09-2010 15:36:02 20.9 C 7.1 g/m*3 20.9 C 0 km/h
80 02-09-2010 15:48:02 21.5 C 6.98 g/m*3 21.5 C 0 km/h
81 02-09-2010 16:00:02 20.9 C 6.74 g/m*3 20.9 C 0 km/h
82 02-09-2010 16:12:02 20.2 C 6.82 g/m*3 20.2 C 0 km/h
83 02-09-2010 16:24:02 20.3 C 7.03 g/m*3 20.3 C 0 km/h
84 02-09-2010 16:36:02 20.8 C 7.24 g/m*3 20.8 C 0 km/h
85 02-09-2010 16:48:02 20.8 C 6.7 g/m*3 20.8 C 0 km/h
86 02-09-2010 17:00:02 20 C 6.91 g/m*3 20 C 0 km/h
87 02-09-2010 17:12:02 19.3 C 7.13 g/m*3 19.3 C 0 km/h
88 02-09-2010 17:24:02 19.6 C 7.26 g/m*3 19.6 C 0 km/h
89 02-09-2010 17:36:02 19.6 C 7.26 g/m*3 19.6 C 0 km/h
90 02-09-2010 17:48:02 19.2 C 7.09 g/m*3 19.2 C 0 km/h
91 02-09-2010 18:00:02 18.9 C 7.13 g/m*3 18.9 C 0 km/h
92 02-09-2010 18:12:01 18.7 C 7.36 g/m*3 18.7 C 0 km/h
93 02-09-2010 18:24:02 18.7 C 7.52 g/m*3 18.7 C 0 km/h
94 02-09-2010 18:36:02 18.6 C 7.48 g/m*3 18.6 C 0 km/h
95 02-09-2010 18:48:01 18.4 C 7.55 g/m*3 18.4 C 0 km/h
96 02-09-2010 19:00:01 18.5 C 8.07 g/m*3 18.5 C 0 km/h
97 02-09-2010 19:12:02 18.3 C 8.6 g/m*3 18.3 C 0 km/h
98 02-09-2010 19:24:01 17.8 C 8.95 g/m*3 17.8 C 0 km/h
99 02-09-2010 19:36:02 17.2 C 9.23 g/m*3 17.2 C 0 km/h
100 02-09-2010 19:48:02 16.4 C 9.63 g/m*3 16.4 C 0 km/h
Sensor: Nr:Datum:Temp:Abs-Feuchte:Windchill:Wind:
Aussen-T/F 101 02-09-2010 20:00:02 15.8 C 9.96 g/m*3 15.8 C 0 km/h
102 02-09-2010 20:12:02 15.5 C 9.91 g/m*3 15.5 C 0 km/h
103 02-09-2010 20:24:02 15 C 9.87 g/m*3 15 C 0 km/h
104 02-09-2010 20:36:02 14.7 C 10.07 g/m*3 14.7 C 0 km/h
105 02-09-2010 20:48:01 14.7 C 10.2 g/m*3 14.7 C 0 km/h
106 02-09-2010 21:00:01 14.5 C 10.07 g/m*3 14.5 C 0 km/h
107 02-09-2010 21:12:02 14.4 C 9.89 g/m*3 14.4 C 0 km/h
108 02-09-2010 21:24:01 14.5 C 9.95 g/m*3 14.5 C 0 km/h
109 02-09-2010 21:36:02 14.4 C 9.77 g/m*3 14.4 C 0 km/h
110 02-09-2010 21:49:02 14.3 C 9.58 g/m*3 14.3 C 0 km/h
111 02-09-2010 22:01:02 14.4 C 9.52 g/m*3 14.4 C 0 km/h
112 02-09-2010 22:13:02 14 C 9.29 g/m*3 14 C 0 km/h
113 02-09-2010 22:25:02 13.7 C 9.24 g/m*3 13.7 C 0 km/h
114 02-09-2010 22:37:02 13.6 C 9.3 g/m*3 13.6 C 0 km/h
115 02-09-2010 22:49:03 13.5 C 9.36 g/m*3 13.5 C 0 km/h
116 02-09-2010 23:01:03 13 C 9.07 g/m*3 13 C 0 km/h
117 02-09-2010 23:13:03 13.2 C 9.3 g/m*3 13.2 C 0 km/h
118 02-09-2010 23:25:03 13.1 C 9.24 g/m*3 13.1 C 0 km/h
119 02-09-2010 23:37:03 12.9 C 9.24 g/m*3 12.9 C 0 km/h
120 02-09-2010 23:49:03 12.7 C 9.13 g/m*3 12.7 C 0 km/h
121 03-09-2010 00:01:03 12.7 C 9.13 g/m*3 12.7 C 0 km/h
122 03-09-2010 00:13:03 12.5 C 9.13 g/m*3 12.5 C 0 km/h
123 03-09-2010 00:25:03 12.4 C 9.07 g/m*3 12.4 C 0 km/h
124 03-09-2010 00:37:03 12.3 C 9.12 g/m*3 12.3 C 0 km/h
125 03-09-2010 00:49:03 12.2 C 9.06 g/m*3 12.2 C 0 km/h
Sensor: Nr:Datum:Temp:Abs-Feuchte:Windchill:Wind:
Aussen-T/F 126 03-09-2010 01:01:03 12.1 C 9.01 g/m*3 12.1 C 0 km/h
127 03-09-2010 01:13:03 11.9 C 8.9 g/m*3 11.9 C 0 km/h
128 03-09-2010 01:25:03 11.9 C 9 g/m*3 11.9 C 0 km/h
129 03-09-2010 01:37:03 11.7 C 8.89 g/m*3 11.7 C 0 km/h
130 03-09-2010 01:49:03 11.5 C 8.78 g/m*3 11.5 C 0 km/h
131 03-09-2010 02:01:03 11.5 C 8.88 g/m*3 11.5 C 0 km/h
132 03-09-2010 02:13:03 11.4 C 8.83 g/m*3 11.4 C 0 km/h
133 03-09-2010 02:25:03 11.1 C 8.66 g/m*3 11.1 C 0 km/h
134 03-09-2010 02:37:03 11.1 C 8.66 g/m*3 11.1 C 0 km/h
135 03-09-2010 02:49:03 11.1 C 8.76 g/m*3 11.1 C 0 km/h
136 03-09-2010 03:01:04 11 C 8.71 g/m*3 11 C 0 km/h
137 03-09-2010 03:13:04 10.8 C 8.7 g/m*3 10.8 C 0 km/h
138 03-09-2010 03:25:04 10.7 C 8.64 g/m*3 10.7 C 0 km/h
139 03-09-2010 03:37:04 10.6 C 8.59 g/m*3 10.6 C 0 km/h
140 03-09-2010 03:49:04 10.5 C 8.53 g/m*3 10.5 C 0 km/h
141 03-09-2010 04:01:04 10.4 C 8.58 g/m*3 10.4 C 0 km/h
142 03-09-2010 04:13:04 10.4 C 8.58 g/m*3 10.4 C 0 km/h
143 03-09-2010 04:25:04 10.4 C 8.67 g/m*3 10.4 C 0 km/h
144 03-09-2010 04:37:04 10.3 C 8.62 g/m*3 10.3 C 0 km/h
145 03-09-2010 04:49:04 10.2 C 8.56 g/m*3 10.2 C 0 km/h
146 03-09-2010 05:01:04 10.2 C 8.56 g/m*3 10.2 C 0 km/h
147 03-09-2010 05:13:04 10.3 C 8.62 g/m*3 10.3 C 0 km/h
148 03-09-2010 05:25:04 10.4 C 8.77 g/m*3 10.4 C 0 km/h
149 03-09-2010 05:37:04 10.4 C 8.77 g/m*3 10.4 C 0 km/h
150 03-09-2010 05:49:04 10.7 C 9.04 g/m*3 10.7 C 0 km/h
Sensor: Nr:Datum:Temp:Abs-Feuchte:Windchill:Wind:
Aussen-T/F 151 03-09-2010 06:01:04 10.9 C 9.15 g/m*3 10.9 C 0 km/h
152 03-09-2010 06:13:04 11 C 9.21 g/m*3 11 C 0 km/h
153 03-09-2010 06:25:04 11.1 C 9.27 g/m*3 11.1 C 0 km/h
154 03-09-2010 06:37:04 11.1 C 9.27 g/m*3 11.1 C 0 km/h
155 03-09-2010 06:49:04 11.3 C 9.28 g/m*3 11.3 C 0 km/h
156 03-09-2010 07:01:02 11.4 C 9.34 g/m*3 11.4 C 0 km/h
157 03-09-2010 07:13:02 11.2 C 9.22 g/m*3 11.2 C 0 km/h
158 03-09-2010 07:25:02 11.2 C 9.22 g/m*3 11.2 C 0 km/h
159 03-09-2010 07:37:03 11.5 C 9.4 g/m*3 11.5 C 0 km/h
160 03-09-2010 07:49:02 11.5 C 9.4 g/m*3 11.5 C 0 km/h
161 03-09-2010 08:01:03 11.6 C 9.46 g/m*3 11.6 C 0 km/h
162 03-09-2010 08:13:03 11.7 C 9.41 g/m*3 11.7 C 0 km/h
163 03-09-2010 08:25:02 11.7 C 9.41 g/m*3 11.7 C 0 km/h
164 03-09-2010 08:37:03 11.6 C 9.25 g/m*3 11.6 C 0 km/h
165 03-09-2010 08:49:02 11.6 C 9.15 g/m*3 11.6 C 0 km/h
166 03-09-2010 09:01:02 12 C 9.27 g/m*3 12 C 0 km/h
167 03-09-2010 09:13:02 12.1 C 9.22 g/m*3 12.1 C 0 km/h
168 03-09-2010 09:25:02 12.3 C 9.23 g/m*3 12.3 C 0 km/h
169 03-09-2010 09:37:02 12.7 C 9.35 g/m*3 12.7 C 0 km/h
170 03-09-2010 09:49:02 13.1 C 9.36 g/m*3 13.1 C 0 km/h
171 03-09-2010 10:01:02 12.9 C 9.13 g/m*3 12.9 C 0 km/h
172 03-09-2010 10:13:02 12.8 C 9.18 g/m*3 12.8 C 0 km/h
173 03-09-2010 10:25:02 13.5 C 9.36 g/m*3 13.5 C 0 km/h
174 03-09-2010 10:37:03 14 C 9.05 g/m*3 14 C 0 km/h
175 03-09-2010 10:49:02 14.7 C 9.32 g/m*3 14.7 C 0 km/h
Sensor: Nr:Datum:Temp:Abs-Feuchte:Windchill:Wind:
Aussen-T/F 176 03-09-2010 11:01:02 15.3 C 9.14 g/m*3 15.3 C 0 km/h
177 03-09-2010 11:13:02 15.4 C 8.93 g/m*3 15.4 C 0 km/h
178 03-09-2010 11:25:02 15.8 C 9.02 g/m*3 15.8 C 0 km/h
179 03-09-2010 11:37:02 16.4 C 8.93 g/m*3 16.4 C 0 km/h
180 03-09-2010 11:49:02 16.6 C 8.62 g/m*3 16.6 C 0 km/h
181 03-09-2010 12:01:02 17.4 C 8.45 g/m*3 17.4 C 0 km/h
182 03-09-2010 12:13:02 17.7 C 8.6 g/m*3 17.7 C 0 km/h
183 03-09-2010 12:25:02 17.8 C 8.35 g/m*3 17.8 C 0 km/h
184 03-09-2010 12:37:02 18.1 C 8.34 g/m*3 18.1 C 0 km/h
185 03-09-2010 12:49:01 18.3 C 8.6 g/m*3 18.3 C 0 km/h
186 03-09-2010 13:01:01 18.8 C 8.37 g/m*3 18.8 C 0 km/h
187 03-09-2010 13:13:01 19.4 C 8.18 g/m*3 19.4 C 0 km/h
188 03-09-2010 13:25:01 20.1 C 8.17 g/m*3 20.1 C 0 km/h
189 03-09-2010 13:37:01 19.9 C 7.9 g/m*3 19.9 C 0 km/h
190 03-09-2010 13:49:01 20.2 C 8.22 g/m*3 20.2 C 0 km/h
191 03-09-2010 14:01:01 20 C 7.6 g/m*3 20 C 0 km/h
192 03-09-2010 14:13:01 20.5 C 7.65 g/m*3 20.5 C 0 km/h
193 03-09-2010 14:25:01 19.7 C 7.64 g/m*3 19.7 C 0 km/h
194 03-09-2010 14:37:01 20.4 C 7.96 g/m*3 20.4 C 0 km/h
195 03-09-2010 14:49:01 21.4 C 7.31 g/m*3 21.4 C 0 km/h
196 03-09-2010 15:01:02 21.8 C 7.1 g/m*3 21.8 C 0 km/h
197 03-09-2010 15:13:02 22.7 C 7.27 g/m*3 22.7 C 0 km/h
198 03-09-2010 15:25:01 23.3 C 6.9 g/m*3 23.3 C 0 km/h
199 03-09-2010 15:37:01 22.7 C 6.87 g/m*3 22.7 C 0 km/h
200 03-09-2010 15:49:01 23.4 C 6.94 g/m*3 23.4 C 0 km/h
Sensor: Nr:Datum:Temp:Abs-Feuchte:Windchill:Wind:
Aussen-T/F 201 03-09-2010 16:01:01 24.8 C 6.83 g/m*3 24.8 C 0 km/h
202 03-09-2010 16:13:01 25.5 C 6.63 g/m*3 25.5 C 0 km/h
203 03-09-2010 16:25:02 25.7 C 6.46 g/m*3 25.7 C 0 km/h
204 03-09-2010 16:37:01 25.7 C 6.46 g/m*3 25.7 C 0 km/h
205 03-09-2010 16:49:02 23.9 C 6.49 g/m*3 23.9 C 0 km/h
206 03-09-2010 17:01:01 25.3 C 6.32 g/m*3 25.3 C 0 km/h
207 03-09-2010 17:13:01 24.8 C 6.6 g/m*3 24.8 C 0 km/h
208 03-09-2010 17:25:01 23.9 C 6.49 g/m*3 23.9 C 0 km/h
209 03-09-2010 17:37:01 23.4 C 6.52 g/m*3 23.4 C 0 km/h
210 03-09-2010 17:49:02 23.2 C 6.65 g/m*3 23.2 C 0 km/h
211 03-09-2010 18:01:02 23 C 7.6 g/m*3 23 C 0 km/h
212 03-09-2010 18:13:02 23.1 C 8.06 g/m*3 23.1 C 0 km/h
213 03-09-2010 18:25:02 23.2 C 8.11 g/m*3 23.2 C 0 km/h
214 03-09-2010 18:37:02 22.5 C 7.99 g/m*3 22.5 C 0 km/h
215 03-09-2010 18:49:01 21.7 C 8.77 g/m*3 21.7 C 0 km/h
216 03-09-2010 19:01:02 21.2 C 8.9 g/m*3 21.2 C 0 km/h
217 03-09-2010 19:13:02 20.6 C 8.95 g/m*3 20.6 C 0 km/h
218 03-09-2010 19:25:01 20.6 C 8.77 g/m*3 20.6 C 0 km/h
219 03-09-2010 19:37:02 20.7 C 8.82 g/m*3 20.7 C 0 km/h
220 03-09-2010 19:49:02 20.4 C 8.85 g/m*3 20.4 C 0 km/h
221 03-09-2010 20:01:02 19.7 C 8.66 g/m*3 19.7 C 0 km/h
222 03-09-2010 20:13:02 19.2 C 8.08 g/m*3 19.2 C 0 km/h
223 03-09-2010 20:25:01 18.3 C 8.6 g/m*3 18.3 C 0 km/h
224 03-09-2010 20:37:02 18.1 C 7.88 g/m*3 18.1 C 0 km/h
225 03-09-2010 20:49:02 17.8 C 8.04 g/m*3 17.8 C 0 km/h
Sensor: Nr:Datum:Temp:Abs-Feuchte:Windchill:Wind:
Aussen-T/F 226 03-09-2010 21:01:02 17 C 8.39 g/m*3 17 C 0 km/h
227 03-09-2010 21:13:02 16.5 C 8.57 g/m*3 16.5 C 0 km/h
228 03-09-2010 21:25:02 16.2 C 8.55 g/m*3 16.2 C 0 km/h
229 03-09-2010 21:37:02 16.1 C 8.64 g/m*3 16.1 C 0 km/h
230 03-09-2010 21:49:01 15.8 C 8.62 g/m*3 15.8 C 0 km/h
231 03-09-2010 22:01:01 15.6 C 8.78 g/m*3 15.6 C 0 km/h
232 03-09-2010 22:13:01 15.3 C 8.75 g/m*3 15.3 C 0 km/h
233 03-09-2010 22:25:02 15.2 C 8.7 g/m*3 15.2 C 0 km/h
234 03-09-2010 22:37:01 15.2 C 8.96 g/m*3 15.2 C 0 km/h
235 03-09-2010 22:50:03 15.5 C 9.12 g/m*3 15.5 C 0 km/h
236 03-09-2010 23:02:03 15.5 C 9.25 g/m*3 15.5 C 0 km/h
237 03-09-2010 23:14:03 15.4 C 9.2 g/m*3 15.4 C 0 km/h
238 03-09-2010 23:26:03 15.4 C 9.2 g/m*3 15.4 C 0 km/h
239 03-09-2010 23:38:03 15.2 C 9.22 g/m*3 15.2 C 0 km/h
240 03-09-2010 23:50:03 15.2 C 9.22 g/m*3 15.2 C 0 km/h
241 04-09-2010 00:02:03 15.2 C 9.22 g/m*3 15.2 C 0 km/h
242 04-09-2010 00:14:03 15.1 C 9.29 g/m*3 15.1 C 0 km/h
243 04-09-2010 00:26:03 15.1 C 9.29 g/m*3 15.1 C 0 km/h
244 04-09-2010 00:38:03 15.1 C 9.29 g/m*3 15.1 C 0 km/h
245 04-09-2010 00:50:03 15 C 9.36 g/m*3 15 C 0 km/h
246 04-09-2010 01:02:03 15 C 9.36 g/m*3 15 C 0 km/h
247 04-09-2010 01:14:03 15 C 9.36 g/m*3 15 C 0 km/h
248 04-09-2010 01:26:04 14.7 C 9.44 g/m*3 14.7 C 0 km/h
249 04-09-2010 01:38:04 14.7 C 9.44 g/m*3 14.7 C 0 km/h
250 04-09-2010 01:50:04 14.7 C 9.44 g/m*3 14.7 C 0 km/h
Sensor: Nr:Datum:Temp:Abs-Feuchte:Windchill:Wind:
Aussen-T/F 251 04-09-2010 02:02:04 14.5 C 9.45 g/m*3 14.5 C 0 km/h
252 04-09-2010 02:14:04 14.4 C 9.39 g/m*3 14.4 C 0 km/h
253 04-09-2010 02:26:04 14.2 C 9.4 g/m*3 14.2 C 0 km/h
254 04-09-2010 02:38:04 14.2 C 9.4 g/m*3 14.2 C 0 km/h
255 04-09-2010 02:50:04 14.1 C 9.34 g/m*3 14.1 C 0 km/h
256 04-09-2010 03:02:04 14 C 9.29 g/m*3 14 C 0 km/h
257 04-09-2010 03:14:04 13.7 C 9.35 g/m*3 13.7 C 0 km/h
258 04-09-2010 03:26:04 13.7 C 9.35 g/m*3 13.7 C 0 km/h
259 04-09-2010 03:38:04 13.6 C 9.53 g/m*3 13.6 C 0 km/h
260 04-09-2010 03:50:04 13.6 C 9.53 g/m*3 13.6 C 0 km/h
261 04-09-2010 04:02:04 13.4 C 9.42 g/m*3 13.4 C 0 km/h
262 04-09-2010 04:14:04 13.3 C 9.47 g/m*3 13.3 C 0 km/h
263 04-09-2010 04:26:04 13.1 C 9.36 g/m*3 13.1 C 0 km/h
264 04-09-2010 04:38:04 13.2 C 9.64 g/m*3 13.2 C 0 km/h
265 04-09-2010 04:50:04 13 C 9.53 g/m*3 13 C 0 km/h
266 04-09-2010 05:02:04 13.1 C 9.59 g/m*3 13.1 C 0 km/h
267 04-09-2010 05:14:04 13.2 C 9.64 g/m*3 13.2 C 0 km/h
268 04-09-2010 05:26:04 13.2 C 9.64 g/m*3 13.2 C 0 km/h
269 04-09-2010 05:38:05 13.1 C 9.59 g/m*3 13.1 C 0 km/h
270 04-09-2010 05:50:05 12.9 C 9.47 g/m*3 12.9 C 0 km/h
271 04-09-2010 06:02:05 12.9 C 9.47 g/m*3 12.9 C 0 km/h
272 04-09-2010 06:14:05 12.7 C 9.35 g/m*3 12.7 C 0 km/h
273 04-09-2010 06:26:05 12.5 C 9.24 g/m*3 12.5 C 0 km/h
274 04-09-2010 06:38:05 12.4 C 9.29 g/m*3 12.4 C 0 km/h
275 04-09-2010 06:50:05 12.2 C 9.17 g/m*3 12.2 C 0 km/h
Sensor: Nr:Datum:Temp:Abs-Feuchte:Windchill:Wind:
Aussen-T/F 276 04-09-2010 07:02:05 12 C 9.17 g/m*3 12 C 0 km/h
277 04-09-2010 07:14:05 12 C 9.17 g/m*3 12 C 0 km/h
278 04-09-2010 07:26:05 12 C 9.17 g/m*3 12 C 0 km/h
279 04-09-2010 07:38:05 12.2 C 9.39 g/m*3 12.2 C 0 km/h
280 04-09-2010 07:50:02 12.2 C 9.39 g/m*3 12.2 C 0 km/h
281 04-09-2010 08:02:02 12.5 C 9.68 g/m*3 12.5 C 0 km/h
282 04-09-2010 08:14:02 12.7 C 9.8 g/m*3 12.7 C 0 km/h
283 04-09-2010 08:26:03 12.7 C 9.68 g/m*3 12.7 C 0 km/h
284 04-09-2010 08:38:02 12.9 C 9.81 g/m*3 12.9 C 0 km/h
285 04-09-2010 08:50:02 13.2 C 9.87 g/m*3 13.2 C 0 km/h
286 04-09-2010 09:02:02 13.7 C 10.07 g/m*3 13.7 C 0 km/h
287 04-09-2010 09:14:02 14.3 C 10.2 g/m*3 14.3 C 0 km/h
288 04-09-2010 09:26:02 14.6 C 10.01 g/m*3 14.6 C 0 km/h
289 04-09-2010 09:38:02 14.7 C 9.82 g/m*3 14.7 C 0 km/h
290 04-09-2010 09:50:02 14.9 C 9.69 g/m*3 14.9 C 0 km/h
291 04-09-2010 10:02:02 15.2 C 9.61 g/m*3 15.2 C 0 km/h
292 04-09-2010 10:14:02 15.6 C 9.58 g/m*3 15.6 C 0 km/h
293 04-09-2010 10:26:02 15.9 C 9.62 g/m*3 15.9 C 0 km/h
294 04-09-2010 10:38:02 17 C 9.41 g/m*3 17 C 0 km/h
295 04-09-2010 10:50:02 17.8 C 9.11 g/m*3 17.8 C 0 km/h
296 04-09-2010 11:02:02 17.8 C 9.11 g/m*3 17.8 C 0 km/h
297 04-09-2010 11:14:02 18.1 C 8.96 g/m*3 18.1 C 0 km/h
298 04-09-2010 11:26:03 18.9 C 8.75 g/m*3 18.9 C 0 km/h
299 04-09-2010 11:38:02 19.6 C 8.61 g/m*3 19.6 C 0 km/h
300 04-09-2010 11:50:02 20 C 8.3 g/m*3 20 C 0 km/h
Sensor: Nr:Datum:Temp:Abs-Feuchte:Windchill:Wind:
Aussen-T/F 301 04-09-2010 12:02:02 18.3 C 8.13 g/m*3 18.3 C 0 km/h
302 04-09-2010 12:14:02 19.7 C 8.49 g/m*3 19.7 C 0 km/h
303 04-09-2010 12:26:02 19 C 7.33 g/m*3 19 C 0 km/h
304 04-09-2010 12:38:02 18.5 C 7.59 g/m*3 18.5 C 0 km/h
305 04-09-2010 12:50:02 18.8 C 7.89 g/m*3 18.8 C 0 km/h
306 04-09-2010 13:02:02 19.2 C 7.42 g/m*3 19.2 C 0 km/h
307 04-09-2010 13:14:02 19.9 C 7.9 g/m*3 19.9 C 0 km/h
308 04-09-2010 13:26:02 19.9 C 7.56 g/m*3 19.9 C 0 km/h
309 04-09-2010 13:38:01 18.8 C 7.73 g/m*3 18.8 C 0 km/h
310 04-09-2010 13:50:02 20.1 C 7.47 g/m*3 20.1 C 0 km/h
311 04-09-2010 14:02:01 21.5 C 6.98 g/m*3 21.5 C 0 km/h
312 04-09-2010 14:14:01 22 C 6.79 g/m*3 22 C 0 km/h
313 04-09-2010 14:26:02 22.2 C 6.68 g/m*3 22.2 C 0 km/h
314 04-09-2010 14:38:02 22.1 C 6.83 g/m*3 22.1 C 0 km/h
315 04-09-2010 14:50:02 23.2 C 6.24 g/m*3 23.2 C 0 km/h
316 04-09-2010 15:02:02 23.4 C 6.1 g/m*3 23.4 C 0 km/h
317 04-09-2010 15:14:02 24.3 C 6.64 g/m*3 24.3 C 0 km/h
318 04-09-2010 15:26:02 24.1 C 5.91 g/m*3 24.1 C 0 km/h
319 04-09-2010 15:38:02 21.8 C 6.14 g/m*3 21.8 C 0 km/h
320 04-09-2010 15:50:01 20.8 C 6.52 g/m*3 20.8 C 0 km/h
321 04-09-2010 16:02:02 22.8 C 5.69 g/m*3 22.8 C 0 km/h
322 04-09-2010 16:14:02 24.7 C 5.21 g/m*3 24.7 C 0 km/h
323 04-09-2010 16:26:01 22.2 C 5.5 g/m*3 22.2 C 0 km/h
324 04-09-2010 16:38:01 21.3 C 5.59 g/m*3 21.3 C 0 km/h
325 04-09-2010 16:50:01 21.1 C 5.53 g/m*3 21.1 C 0 km/h
Sensor: Nr:Datum:Temp:Abs-Feuchte:Windchill:Wind:
Aussen-T/F 326 04-09-2010 17:02:02 22.4 C 5.76 g/m*3 22.4 C 0 km/h
327 04-09-2010 17:14:02 23.3 C 5.23 g/m*3 23.3 C 0 km/h
328 04-09-2010 17:26:01 23.5 C 5.08 g/m*3 23.5 C 0 km/h
329 04-09-2010 17:38:01 22.9 C 4.09 g/m*3 22.9 C 0 km/h
330 04-09-2010 17:50:01 23.5 C 4.23 g/m*3 23.5 C 0 km/h
331 04-09-2010 18:02:01 22.9 C 4.29 g/m*3 22.9 C 0 km/h
332 04-09-2010 18:14:01 23.2 C 4.57 g/m*3 23.2 C 0 km/h
333 04-09-2010 18:26:02 23.1 C 4.13 g/m*3 23.1 C 0 km/h
334 04-09-2010 18:38:01 22.9 C 4.29 g/m*3 22.9 C 0 km/h
335 04-09-2010 18:50:02 21.6 C 4.55 g/m*3 21.6 C 0 km/h
336 04-09-2010 19:02:01 21.2 C 5.19 g/m*3 21.2 C 0 km/h
337 04-09-2010 19:14:01 20.7 C 5.04 g/m*3 20.7 C 0 km/h
338 04-09-2010 19:26:02 19.4 C 5.34 g/m*3 19.4 C 0 km/h
339 04-09-2010 19:38:01 19 C 5.7 g/m*3 19 C 0 km/h
340 04-09-2010 19:50:03 18.4 C 6.29 g/m*3 18.4 C 0 km/h
341 04-09-2010 20:02:02 17.5 C 6.41 g/m*3 17.5 C 0 km/h
342 04-09-2010 20:14:02 16.6 C 6.36 g/m*3 16.6 C 0 km/h
343 04-09-2010 20:26:03 15.9 C 6.5 g/m*3 15.9 C 0 km/h
344 04-09-2010 20:38:02 15.5 C 6.61 g/m*3 15.5 C 0 km/h
345 04-09-2010 20:50:02 15.2 C 6.75 g/m*3 15.2 C 0 km/h
346 04-09-2010 21:02:02 15.2 C 6.88 g/m*3 15.2 C 0 km/h
347 04-09-2010 21:14:02 14.8 C 6.84 g/m*3 14.8 C 0 km/h
348 04-09-2010 21:26:02 14.8 C 6.97 g/m*3 14.8 C 0 km/h
349 04-09-2010 21:38:01 15 C 6.92 g/m*3 15 C 0 km/h
350 04-09-2010 21:50:02 14.8 C 7.09 g/m*3 14.8 C 0 km/h
Sensor: Nr:Datum:Temp:Abs-Feuchte:Windchill:Wind:
Aussen-T/F 351 04-09-2010 22:02:02 14.8 C 7.22 g/m*3 14.8 C 0 km/h
352 04-09-2010 22:14:03 14.4 C 7.17 g/m*3 14.4 C 0 km/h
353 04-09-2010 22:26:01 14.1 C 7.28 g/m*3 14.1 C 0 km/h
354 04-09-2010 22:38:02 14 C 7.36 g/m*3 14 C 0 km/h
355 04-09-2010 22:50:02 13.5 C 7.25 g/m*3 13.5 C 0 km/h
356 04-09-2010 23:03:03 13.5 C 7.49 g/m*3 13.5 C 0 km/h
357 04-09-2010 23:15:03 13.2 C 7.46 g/m*3 13.2 C 0 km/h
358 04-09-2010 23:27:03 13.1 C 7.53 g/m*3 13.1 C 0 km/h
359 04-09-2010 23:39:03 13 C 7.71 g/m*3 13 C 0 km/h
360 04-09-2010 23:51:03 12.8 C 7.73 g/m*3 12.8 C 0 km/h
361 05-09-2010 00:03:03 12.7 C 7.68 g/m*3 12.7 C 0 km/h
362 05-09-2010 00:15:03 12.3 C 7.49 g/m*3 12.3 C 0 km/h
363 05-09-2010 00:27:03 12.1 C 7.61 g/m*3 12.1 C 0 km/h
364 05-09-2010 00:39:03 11.9 C 7.63 g/m*3 11.9 C 0 km/h
365 05-09-2010 00:51:03 11.8 C 7.68 g/m*3 11.8 C 0 km/h
366 05-09-2010 01:03:03 11.6 C 7.59 g/m*3 11.6 C 0 km/h
367 05-09-2010 01:15:03 11.4 C 7.49 g/m*3 11.4 C 0 km/h
368 05-09-2010 01:27:03 11.2 C 7.6 g/m*3 11.2 C 0 km/h
369 05-09-2010 01:39:03 11 C 7.51 g/m*3 11 C 0 km/h
370 05-09-2010 01:51:03 10.9 C 7.46 g/m*3 10.9 C 0 km/h
371 05-09-2010 02:03:03 10.8 C 7.61 g/m*3 10.8 C 0 km/h
372 05-09-2010 02:15:03 10.6 C 7.52 g/m*3 10.6 C 0 km/h
373 05-09-2010 02:27:04 10.4 C 7.52 g/m*3 10.4 C 0 km/h
374 05-09-2010 02:39:04 10.3 C 7.47 g/m*3 10.3 C 0 km/h
375 05-09-2010 02:51:04 10.1 C 7.47 g/m*3 10.1 C 0 km/h
Sensor: Nr:Datum:Temp:Abs-Feuchte:Windchill:Wind:
Aussen-T/F 376 05-09-2010 03:03:04 10 C 7.33 g/m*3 10 C 0 km/h
377 05-09-2010 03:15:04 9.8 C 7.42 g/m*3 9.8 C 0 km/h
378 05-09-2010 03:27:04 9.7 C 7.47 g/m*3 9.7 C 0 km/h
379 05-09-2010 03:39:04 9.6 C 7.42 g/m*3 9.6 C 0 km/h
380 05-09-2010 03:51:04 9.5 C 7.37 g/m*3 9.5 C 0 km/h
381 05-09-2010 04:03:04 9.2 C 7.23 g/m*3 9.2 C 0 km/h
382 05-09-2010 04:15:04 9.2 C 7.23 g/m*3 9.2 C 0 km/h
383 05-09-2010 04:27:04 9.2 C 7.32 g/m*3 9.2 C 0 km/h
384 05-09-2010 04:39:04 9.1 C 7.28 g/m*3 9.1 C 0 km/h
385 05-09-2010 04:51:04 8.9 C 7.27 g/m*3 8.9 C 0 km/h
386 05-09-2010 05:03:04 8.9 C 7.27 g/m*3 8.9 C 0 km/h
387 05-09-2010 05:15:04 8.8 C 7.31 g/m*3 8.8 C 0 km/h
388 05-09-2010 05:27:04 8.5 C 7.17 g/m*3 8.5 C 0 km/h
389 05-09-2010 05:39:04 8.5 C 7.26 g/m*3 8.5 C 0 km/h
390 05-09-2010 05:51:04 8.5 C 7.34 g/m*3 8.5 C 0 km/h
391 05-09-2010 06:03:04 8.3 C 7.33 g/m*3 8.3 C 0 km/h
392 05-09-2010 06:15:04 8.1 C 7.24 g/m*3 8.1 C 0 km/h
393 05-09-2010 06:27:04 8.1 C 7.24 g/m*3 8.1 C 0 km/h
394 05-09-2010 06:39:04 8 C 7.19 g/m*3 8 C 0 km/h
395 05-09-2010 06:51:05 7.9 C 7.23 g/m*3 7.9 C 0 km/h
396 05-09-2010 07:03:05 7.9 C 7.23 g/m*3 7.9 C 0 km/h
397 05-09-2010 07:15:05 8.2 C 7.37 g/m*3 8.2 C 0 km/h
398 05-09-2010 07:27:05 8.5 C 7.6 g/m*3 8.5 C 0 km/h
399 05-09-2010 07:39:02 8.6 C 7.65 g/m*3 8.6 C 0 km/h
400 05-09-2010 07:51:02 8.8 C 7.75 g/m*3 8.8 C 0 km/h
Sensor: Nr:Datum:Temp:Abs-Feuchte:Windchill:Wind:
Aussen-T/F 401 05-09-2010 08:03:02 9.2 C 7.86 g/m*3 9.2 C 0 km/h
402 05-09-2010 08:15:01 9.5 C 7.92 g/m*3 9.5 C 0 km/h
403 05-09-2010 08:27:01 9.9 C 8.03 g/m*3 9.9 C 0 km/h
404 05-09-2010 08:39:02 10 C 7.8 g/m*3 10 C 0 km/h
405 05-09-2010 08:51:01 10.5 C 7.95 g/m*3 10.5 C 0 km/h
406 05-09-2010 09:03:01 10.7 C 7.96 g/m*3 10.7 C 0 km/h
407 05-09-2010 09:15:01 11.1 C 7.86 g/m*3 11.1 C 0 km/h
408 05-09-2010 09:27:01 11.2 C 7.8 g/m*3 11.2 C 0 km/h
409 05-09-2010 09:39:01 11.3 C 7.85 g/m*3 11.3 C 0 km/h
410 05-09-2010 09:51:01 11.2 C 7.91 g/m*3 11.2 C 0 km/h
411 05-09-2010 10:03:02 11.2 C 8.01 g/m*3 11.2 C 0 km/h
412 05-09-2010 10:15:01 11.8 C 8.42 g/m*3 11.8 C 0 km/h
413 05-09-2010 10:27:01 12.3 C 8.47 g/m*3 12.3 C 0 km/h
414 05-09-2010 10:39:01 12.9 C 8.68 g/m*3 12.9 C 0 km/h
415 05-09-2010 10:51:02 13.6 C 8.59 g/m*3 13.6 C 0 km/h
416 05-09-2010 11:03:02 14.3 C 8.48 g/m*3 14.3 C 0 km/h
417 05-09-2010 11:15:01 15.1 C 8.51 g/m*3 15.1 C 0 km/h
418 05-09-2010 11:27:01 15.4 C 8.41 g/m*3 15.4 C 0 km/h
419 05-09-2010 11:39:02 15.9 C 8.13 g/m*3 15.9 C 0 km/h
420 05-09-2010 11:51:02 16.4 C 7.12 g/m*3 16.4 C 0 km/h
421 05-09-2010 12:03:02 17.2 C 7.18 g/m*3 17.2 C 0 km/h
422 05-09-2010 12:15:02 17.6 C 6.6 g/m*3 17.6 C 0 km/h
423 05-09-2010 12:27:02 18.2 C 6.53 g/m*3 18.2 C 0 km/h
424 05-09-2010 12:39:02 18.5 C 6.33 g/m*3 18.5 C 0 km/h
425 05-09-2010 12:51:01 18.6 C 5.89 g/m*3 18.6 C 0 km/h
Sensor: Nr:Datum:Temp:Abs-Feuchte:Windchill:Wind:
Aussen-T/F 426 05-09-2010 13:03:02 19.3 C 6.47 g/m*3 19.3 C 0 km/h
427 05-09-2010 13:15:02 19.4 C 6.01 g/m*3 19.4 C 0 km/h
428 05-09-2010 13:27:02 20 C 5.88 g/m*3 20 C 0 km/h
429 05-09-2010 13:39:01 20.6 C 5.55 g/m*3 20.6 C 0 km/h
430 05-09-2010 13:51:01 21.4 C 5.62 g/m*3 21.4 C 0 km/h
431 05-09-2010 14:03:01 22.3 C 5.53 g/m*3 22.3 C 0 km/h
432 05-09-2010 14:15:02 22.9 C 5.31 g/m*3 22.9 C 0 km/h
433 05-09-2010 14:27:02 23.3 C 5.02 g/m*3 23.3 C 0 km/h
434 05-09-2010 14:39:01 24.2 C 5.06 g/m*3 24.2 C 0 km/h
435 05-09-2010 14:51:03 24.8 C 5.01 g/m*3 24.8 C 0 km/h
436 05-09-2010 15:03:02 24.8 C 5.46 g/m*3 24.8 C 0 km/h
437 05-09-2010 15:15:02 23.7 C 4.92 g/m*3 23.7 C 0 km/h
438 05-09-2010 15:27:02 24 C 4.79 g/m*3 24 C 0 km/h
439 05-09-2010 15:39:02 24.4 C 4.45 g/m*3 24.4 C 0 km/h
440 05-09-2010 15:51:02 23.9 C 4.54 g/m*3 23.9 C 0 km/h
441 05-09-2010 16:03:01 24.1 C 4.38 g/m*3 24.1 C 0 km/h
442 05-09-2010 16:15:02 24.4 C 4.67 g/m*3 24.4 C 0 km/h
443 05-09-2010 16:27:02 25 C 4.83 g/m*3 25 C 0 km/h
444 05-09-2010 16:39:02 25 C 4.83 g/m*3 25 C 0 km/h
445 05-09-2010 16:51:01 23.5 C 4.65 g/m*3 23.5 C 0 km/h
446 05-09-2010 17:03:02 24.7 C 4.75 g/m*3 24.7 C 0 km/h
447 05-09-2010 17:15:01 24.7 C 5.21 g/m*3 24.7 C 0 km/h
448 05-09-2010 17:27:01 24 C 5.44 g/m*3 24 C 0 km/h
449 05-09-2010 17:39:02 24.6 C 5.18 g/m*3 24.6 C 0 km/h
450 05-09-2010 17:51:01 25 C 4.6 g/m*3 25 C 0 km/h
Sensor: Nr:Datum:Temp:Abs-Feuchte:Windchill:Wind:
Aussen-T/F 451 05-09-2010 18:03:02 25.7 C 5.51 g/m*3 25.7 C 0 km/h
452 05-09-2010 18:15:01 26 C 4.87 g/m*3 26 C 0 km/h
453 05-09-2010 18:27:01 25.4 C 4.71 g/m*3 25.4 C 0 km/h
454 05-09-2010 18:39:02 24.1 C 5.03 g/m*3 24.1 C 0 km/h
455 05-09-2010 18:51:01 23 C 6.17 g/m*3 23 C 0 km/h
456 05-09-2010 19:03:02 21.9 C 6.37 g/m*3 21.9 C 0 km/h
457 05-09-2010 19:15:02 20.1 C 6.26 g/m*3 20.1 C 0 km/h
458 05-09-2010 19:27:02 19.2 C 6.43 g/m*3 19.2 C 0 km/h
459 05-09-2010 19:39:02 18.2 C 6.37 g/m*3 18.2 C 0 km/h
460 05-09-2010 19:51:02 17.5 C 6.41 g/m*3 17.5 C 0 km/h
461 05-09-2010 20:03:01 17 C 6.37 g/m*3 17 C 0 km/h
462 05-09-2010 20:15:02 16.6 C 6.36 g/m*3 16.6 C 0 km/h
463 05-09-2010 20:27:03 16.6 C 6.36 g/m*3 16.6 C 0 km/h
464 05-09-2010 20:39:01 16.2 C 6.34 g/m*3 16.2 C 0 km/h
465 05-09-2010 20:51:02 15.8 C 6.46 g/m*3 15.8 C 0 km/h
466 05-09-2010 21:03:01 15.3 C 6.66 g/m*3 15.3 C 0 km/h
467 05-09-2010 21:15:01 15.1 C 6.71 g/m*3 15.1 C 0 km/h
468 05-09-2010 21:27:01 14.9 C 6.75 g/m*3 14.9 C 0 km/h
469 05-09-2010 21:39:02 14.7 C 6.92 g/m*3 14.7 C 0 km/h
470 05-09-2010 21:51:02 14.5 C 6.96 g/m*3 14.5 C 0 km/h
471 05-09-2010 22:03:02 14.4 C 7.05 g/m*3 14.4 C 0 km/h
472 05-09-2010 22:15:02 14.2 C 7.08 g/m*3 14.2 C 0 km/h
473 05-09-2010 22:27:02 14 C 7.12 g/m*3 14 C 0 km/h
474 05-09-2010 22:40:03 14 C 7.12 g/m*3 14 C 0 km/h
475 05-09-2010 22:52:03 14 C 7.12 g/m*3 14 C 0 km/h
Sensor: Nr:Datum:Temp:Abs-Feuchte:Windchill:Wind:
Aussen-T/F 476 05-09-2010 23:04:03 14 C 7 g/m*3 14 C 0 km/h
477 05-09-2010 23:16:03 14.1 C 6.92 g/m*3 14.1 C 0 km/h
478 05-09-2010 23:28:03 14.1 C 6.92 g/m*3 14.1 C 0 km/h
479 05-09-2010 23:40:03 13.7 C 6.87 g/m*3 13.7 C 0 km/h
480 05-09-2010 23:52:03 13.8 C 6.91 g/m*3 13.8 C 0 km/h
481 06-09-2010 00:04:03 13.6 C 7.06 g/m*3 13.6 C 0 km/h
482 06-09-2010 00:16:03 13.4 C 7.09 g/m*3 13.4 C 0 km/h
483 06-09-2010 00:28:03 13.2 C 7.12 g/m*3 13.2 C 0 km/h
484 06-09-2010 00:40:03 13.1 C 7.07 g/m*3 13.1 C 0 km/h
485 06-09-2010 00:52:03 12.8 C 7.06 g/m*3 12.8 C 0 km/h
486 06-09-2010 01:04:03 12.7 C 7.12 g/m*3 12.7 C 0 km/h
487 06-09-2010 01:16:03 12.5 C 7.15 g/m*3 12.5 C 0 km/h
488 06-09-2010 01:28:03 12.3 C 7.06 g/m*3 12.3 C 0 km/h
489 06-09-2010 01:40:03 12.2 C 7.12 g/m*3 12.2 C 0 km/h
490 06-09-2010 01:52:03 12.1 C 7.08 g/m*3 12.1 C 0 km/h
491 06-09-2010 02:04:03 12 C 7.14 g/m*3 12 C 0 km/h
492 06-09-2010 02:16:04 11.8 C 7.26 g/m*3 11.8 C 0 km/h
493 06-09-2010 02:28:04 11.6 C 7.17 g/m*3 11.6 C 0 km/h
494 06-09-2010 02:40:04 11.5 C 7.23 g/m*3 11.5 C 0 km/h
495 06-09-2010 02:52:04 11.2 C 7.2 g/m*3 11.2 C 0 km/h
496 06-09-2010 03:04:04 11.2 C 7.2 g/m*3 11.2 C 0 km/h
497 06-09-2010 03:16:04 11.2 C 7.2 g/m*3 11.2 C 0 km/h
498 06-09-2010 03:28:04 11.1 C 7.15 g/m*3 11.1 C 0 km/h
499 06-09-2010 03:40:04 11 C 7.11 g/m*3 11 C 0 km/h
500 06-09-2010 03:52:04 11 C 7.11 g/m*3 11 C 0 km/h
Sensor: Nr:Datum:Temp:Abs-Feuchte:Windchill:Wind:
Aussen-T/F 501 06-09-2010 04:04:04 11 C 7.11 g/m*3 11 C 0 km/h
502 06-09-2010 04:16:04 10.8 C 7.12 g/m*3 10.8 C 0 km/h
503 06-09-2010 04:28:04 10.7 C 7.07 g/m*3 10.7 C 0 km/h
504 06-09-2010 04:40:04 10.6 C 7.12 g/m*3 10.6 C 0 km/h
505 06-09-2010 04:52:04 10.4 C 7.04 g/m*3 10.4 C 0 km/h
506 06-09-2010 05:04:04 10.3 C 7.09 g/m*3 10.3 C 0 km/h
507 06-09-2010 05:16:04 10.4 C 7.13 g/m*3 10.4 C 0 km/h
508 06-09-2010 05:28:04 10.2 C 6.95 g/m*3 10.2 C 0 km/h
509 06-09-2010 05:40:04 10.2 C 6.95 g/m*3 10.2 C 0 km/h
510 06-09-2010 05:52:04 10.1 C 7 g/m*3 10.1 C 0 km/h
511 06-09-2010 06:04:04 9.8 C 6.96 g/m*3 9.8 C 0 km/h
512 06-09-2010 06:16:04 9.7 C 7.01 g/m*3 9.7 C 0 km/h
513 06-09-2010 06:28:04 9.5 C 7.01 g/m*3 9.5 C 0 km/h
514 06-09-2010 06:40:05 9.5 C 7.01 g/m*3 9.5 C 0 km/h
515 06-09-2010 06:52:05 9.3 C 7.01 g/m*3 9.3 C 0 km/h
516 06-09-2010 07:04:05 9.2 C 6.97 g/m*3 9.2 C 0 km/h
517 06-09-2010 07:16:03 9.3 C 7.1 g/m*3 9.3 C 0 km/h
518 06-09-2010 07:28:03 9.3 C 7.1 g/m*3 9.3 C 0 km/h
519 06-09-2010 07:40:03 9.3 C 7.1 g/m*3 9.3 C 0 km/h
520 06-09-2010 07:52:01 9.3 C 7.1 g/m*3 9.3 C 0 km/h
521 06-09-2010 08:04:02 9.4 C 7.15 g/m*3 9.4 C 0 km/h
522 06-09-2010 08:16:01 9.6 C 7.24 g/m*3 9.6 C 0 km/h
523 06-09-2010 08:28:01 9.6 C 7.24 g/m*3 9.6 C 0 km/h
524 06-09-2010 08:40:02 9.8 C 7.24 g/m*3 9.8 C 0 km/h
525 06-09-2010 08:52:02 10 C 7.24 g/m*3 10 C 0 km/h
Sensor: Nr:Datum:Temp:Abs-Feuchte:Windchill:Wind:
Aussen-T/F 526 06-09-2010 09:04:02 10.2 C 7.33 g/m*3 10.2 C 0 km/h
527 06-09-2010 09:16:01 10.5 C 7.47 g/m*3 10.5 C 0 km/h
528 06-09-2010 09:28:01 10.8 C 7.51 g/m*3 10.8 C 0 km/h
529 06-09-2010 09:40:02 11.3 C 7.55 g/m*3 11.3 C 0 km/h
530 06-09-2010 09:52:02 11.9 C 7.73 g/m*3 11.9 C 0 km/h
531 06-09-2010 10:04:02 12.5 C 7.59 g/m*3 12.5 C 0 km/h
532 06-09-2010 10:16:02 13.1 C 7.53 g/m*3 13.1 C 0 km/h
533 06-09-2010 10:28:02 13.5 C 7.37 g/m*3 13.5 C 0 km/h
534 06-09-2010 10:40:02 13.9 C 7.67 g/m*3 13.9 C 0 km/h
535 06-09-2010 10:52:02 14.4 C 7.42 g/m*3 14.4 C 0 km/h
536 06-09-2010 11:04:02 15.2 C 7.4 g/m*3 15.2 C 0 km/h
537 06-09-2010 11:16:02 15.8 C 7.27 g/m*3 15.8 C 0 km/h
538 06-09-2010 11:28:02 16.2 C 7.45 g/m*3 16.2 C 0 km/h
539 06-09-2010 11:40:01 16.9 C 6.76 g/m*3 16.9 C 0 km/h
540 06-09-2010 11:52:02 17.5 C 6.71 g/m*3 17.5 C 0 km/h
541 06-09-2010 12:04:01 18.1 C 5.87 g/m*3 18.1 C 0 km/h
542 06-09-2010 12:16:02 18.5 C 5.7 g/m*3 18.5 C 0 km/h
543 06-09-2010 12:28:02 18.7 C 5.6 g/m*3 18.7 C 0 km/h
544 06-09-2010 12:40:02 18.9 C 5.35 g/m*3 18.9 C 0 km/h
545 06-09-2010 12:52:02 19 C 5.38 g/m*3 19 C 0 km/h
546 06-09-2010 13:04:03 19.3 C 5.31 g/m*3 19.3 C 0 km/h
547 06-09-2010 13:16:02 19.7 C 5.6 g/m*3 19.7 C 0 km/h
548 06-09-2010 13:28:02 20.1 C 5.56 g/m*3 20.1 C 0 km/h
549 06-09-2010 13:40:02 20.8 C 5.43 g/m*3 20.8 C 0 km/h
550 06-09-2010 13:52:01 21.3 C 5.03 g/m*3 21.3 C 0 km/h
Sensor: Nr:Datum:Temp:Abs-Feuchte:Windchill:Wind:
Aussen-T/F 551 06-09-2010 14:04:02 21.6 C 4.74 g/m*3 21.6 C 0 km/h
552 06-09-2010 14:16:01 21.9 C 4.82 g/m*3 21.9 C 0 km/h
553 06-09-2010 14:28:01 22.3 C 4.54 g/m*3 22.3 C 0 km/h
554 06-09-2010 14:40:02 22.7 C 4.24 g/m*3 22.7 C 0 km/h
555 06-09-2010 14:52:01 23.2 C 4.16 g/m*3 23.2 C 0 km/h
556 06-09-2010 15:04:02 23.6 C 4.25 g/m*3 23.6 C 0 km/h
557 06-09-2010 15:16:02 23.9 C 4.33 g/m*3 23.9 C 0 km/h
558 06-09-2010 15:28:02 24.1 C 4.38 g/m*3 24.1 C 0 km/h
559 06-09-2010 15:40:01 24.3 C 4.43 g/m*3 24.3 C 0 km/h
560 06-09-2010 15:52:01 24.1 C 4.38 g/m*3 24.1 C 0 km/h
561 06-09-2010 16:04:01 24 C 4.35 g/m*3 24 C 0 km/h
562 06-09-2010 16:16:02 23.8 C 4.3 g/m*3 23.8 C 0 km/h
563 06-09-2010 16:28:02 23.7 C 4.28 g/m*3 23.7 C 0 km/h
564 06-09-2010 16:40:01 23.9 C 4.33 g/m*3 23.9 C 0 km/h
565 06-09-2010 16:52:02 24 C 4.35 g/m*3 24 C 0 km/h
566 06-09-2010 17:04:01 24.5 C 4.48 g/m*3 24.5 C 0 km/h
567 06-09-2010 17:16:01 24.7 C 4.53 g/m*3 24.7 C 0 km/h
568 06-09-2010 17:28:01 25.4 C 4.71 g/m*3 25.4 C 0 km/h
569 06-09-2010 17:40:01 24.2 C 4.4 g/m*3 24.2 C 0 km/h
570 06-09-2010 17:52:02 23.3 C 4.18 g/m*3 23.3 C 0 km/h
571 06-09-2010 18:04:02 22.6 C 4.82 g/m*3 22.6 C 0 km/h
572 06-09-2010 18:16:02 21.5 C 4.9 g/m*3 21.5 C 0 km/h
573 06-09-2010 18:28:02 21.1 C 5.53 g/m*3 21.1 C 0 km/h
574 06-09-2010 18:40:02 21.2 C 5.37 g/m*3 21.2 C 0 km/h
575 06-09-2010 18:52:01 20.8 C 5.98 g/m*3 20.8 C 0 km/h
Sensor: Nr:Datum:Temp:Abs-Feuchte:Windchill:Wind:
Aussen-T/F 576 06-09-2010 19:04:02 20 C 6.05 g/m*3 20 C 0 km/h
577 06-09-2010 19:16:01 19.1 C 5.9 g/m*3 19.1 C 0 km/h
578 06-09-2010 19:28:01 18.7 C 5.76 g/m*3 18.7 C 0 km/h
579 06-09-2010 19:40:02 18.1 C 5.87 g/m*3 18.1 C 0 km/h
580 06-09-2010 19:52:01 17.7 C 5.73 g/m*3 17.7 C 0 km/h
581 06-09-2010 20:04:02 17.6 C 5.55 g/m*3 17.6 C 0 km/h
582 06-09-2010 20:16:01 17.3 C 5.6 g/m*3 17.3 C 0 km/h
583 06-09-2010 20:28:01 17.1 C 5.68 g/m*3 17.1 C 0 km/h
584 06-09-2010 20:40:02 16.9 C 5.61 g/m*3 16.9 C 0 km/h
585 06-09-2010 20:52:01 16.6 C 5.65 g/m*3 16.6 C 0 km/h
586 06-09-2010 21:04:02 16.5 C 5.2 g/m*3 16.5 C 0 km/h
587 06-09-2010 21:16:02 16.4 C 5.44 g/m*3 16.4 C 0 km/h
588 06-09-2010 21:28:02 16.2 C 5.52 g/m*3 16.2 C 0 km/h
589 06-09-2010 21:41:03 16.1 C 5.48 g/m*3 16.1 C 0 km/h
590 06-09-2010 21:53:03 15.9 C 5.55 g/m*3 15.9 C 0 km/h
591 06-09-2010 22:05:03 15.7 C 5.62 g/m*3 15.7 C 0 km/h
592 06-09-2010 22:17:03 15.6 C 5.59 g/m*3 15.6 C 0 km/h
593 06-09-2010 22:29:03 15.6 C 5.59 g/m*3 15.6 C 0 km/h
594 06-09-2010 22:41:03 15.3 C 5.62 g/m*3 15.3 C 0 km/h
595 06-09-2010 22:53:03 15.3 C 5.62 g/m*3 15.3 C 0 km/h
596 06-09-2010 23:05:03 15.2 C 5.71 g/m*3 15.2 C 0 km/h
597 06-09-2010 23:17:03 15.1 C 5.68 g/m*3 15.1 C 0 km/h
598 06-09-2010 23:29:03 15.2 C 5.58 g/m*3 15.2 C 0 km/h
599 06-09-2010 23:41:03 15.3 C 5.48 g/m*3 15.3 C 0 km/h
600 06-09-2010 23:53:03 15.2 C 5.71 g/m*3 15.2 C 0 km/h
Sensor: Nr:Datum:Temp:Abs-Feuchte:Windchill:Wind:
Aussen-T/F 601 07-09-2010 00:05:03 15.2 C 5.71 g/m*3 15.2 C 0 km/h
602 07-09-2010 00:17:03 15.4 C 5.52 g/m*3 15.4 C 0 km/h
603 07-09-2010 00:29:03 15.4 C 5.52 g/m*3 15.4 C 0 km/h
604 07-09-2010 00:41:03 15.5 C 5.42 g/m*3 15.5 C 0 km/h
605 07-09-2010 00:53:03 15.4 C 5.39 g/m*3 15.4 C 0 km/h
606 07-09-2010 01:05:03 15.4 C 5.52 g/m*3 15.4 C 0 km/h
607 07-09-2010 01:17:04 15.4 C 5.39 g/m*3 15.4 C 0 km/h
608 07-09-2010 01:29:04 15.4 C 5.39 g/m*3 15.4 C 0 km/h
609 07-09-2010 01:41:04 15.4 C 5.39 g/m*3 15.4 C 0 km/h
610 07-09-2010 01:53:04 15.5 C 5.29 g/m*3 15.5 C 0 km/h
611 07-09-2010 02:05:04 15.5 C 5.29 g/m*3 15.5 C 0 km/h
612 07-09-2010 02:17:04 15.5 C 5.29 g/m*3 15.5 C 0 km/h
613 07-09-2010 02:29:04 15.5 C 5.55 g/m*3 15.5 C 0 km/h
614 07-09-2010 02:41:04 15.4 C 5.39 g/m*3 15.4 C 0 km/h
615 07-09-2010 02:53:04 15.4 C 5.39 g/m*3 15.4 C 0 km/h
616 07-09-2010 03:05:04 15.4 C 5.52 g/m*3 15.4 C 0 km/h
617 07-09-2010 03:17:04 15.4 C 5.26 g/m*3 15.4 C 0 km/h
618 07-09-2010 03:29:04 14.8 C 5.7 g/m*3 14.8 C 0 km/h
619 07-09-2010 03:41:04 13.3 C 6.47 g/m*3 13.3 C 0 km/h
620 07-09-2010 03:53:04 12.8 C 6.94 g/m*3 12.8 C 0 km/h
621 07-09-2010 04:05:04 13.1 C 6.85 g/m*3 13.1 C 0 km/h
622 07-09-2010 04:17:04 13.4 C 6.97 g/m*3 13.4 C 0 km/h
623 07-09-2010 04:29:04 13.1 C 6.62 g/m*3 13.1 C 0 km/h
624 07-09-2010 04:41:04 12.8 C 7.28 g/m*3 12.8 C 0 km/h
625 07-09-2010 04:53:04 12.9 C 7.33 g/m*3 12.9 C 0 km/h
Sensor: Nr:Datum:Temp:Abs-Feuchte:Windchill:Wind:
Aussen-T/F 626 07-09-2010 05:05:04 12.9 C 7.21 g/m*3 12.9 C 0 km/h
627 07-09-2010 05:17:04 13 C 7.26 g/m*3 13 C 0 km/h
628 07-09-2010 05:29:05 13 C 7.03 g/m*3 13 C 0 km/h
629 07-09-2010 05:41:05 13.2 C 6.77 g/m*3 13.2 C 0 km/h
630 07-09-2010 05:53:05 12.8 C 7.28 g/m*3 12.8 C 0 km/h
631 07-09-2010 06:05:05 12.5 C 7.26 g/m*3 12.5 C 0 km/h
632 07-09-2010 06:17:05 12.3 C 7.38 g/m*3 12.3 C 0 km/h
633 07-09-2010 06:29:05 12.4 C 7.1 g/m*3 12.4 C 0 km/h
634 07-09-2010 06:41:05 12.6 C 6.75 g/m*3 12.6 C 0 km/h
635 07-09-2010 06:53:05 12.7 C 6.68 g/m*3 12.7 C 0 km/h
636 07-09-2010 07:05:05 12.4 C 6.66 g/m*3 12.4 C 0 km/h
637 07-09-2010 07:17:05 12.2 C 7.01 g/m*3 12.2 C 0 km/h
638 07-09-2010 07:29:05 12.1 C 6.97 g/m*3 12.1 C 0 km/h
639 07-09-2010 07:41:05 12 C 7.35 g/m*3 12 C 0 km/h
640 07-09-2010 07:53:01 11.9 C 7.41 g/m*3 11.9 C 0 km/h
641 07-09-2010 08:05:02 11.7 C 7.74 g/m*3 11.7 C 0 km/h
642 07-09-2010 08:17:02 11.6 C 8.11 g/m*3 11.6 C 0 km/h
643 07-09-2010 08:29:02 11.7 C 8.37 g/m*3 11.7 C 0 km/h
644 07-09-2010 08:41:02 11.4 C 8.11 g/m*3 11.4 C 0 km/h
645 07-09-2010 08:53:01 11.4 C 8.21 g/m*3 11.4 C 0 km/h
646 07-09-2010 09:05:02 11.4 C 8.21 g/m*3 11.4 C 0 km/h
647 07-09-2010 09:17:02 11.4 C 8.21 g/m*3 11.4 C 0 km/h
648 07-09-2010 09:29:02 11.5 C 8.47 g/m*3 11.5 C 0 km/h
649 07-09-2010 09:41:01 11.5 C 8.47 g/m*3 11.5 C 0 km/h
650 07-09-2010 09:53:02 11.5 C 8.68 g/m*3 11.5 C 0 km/h
Sensor: Nr:Datum:Temp:Abs-Feuchte:Windchill:Wind:
Aussen-T/F 651 07-09-2010 10:05:01 11.4 C 8.72 g/m*3 11.4 C 0 km/h
652 07-09-2010 10:17:02 11.4 C 8.83 g/m*3 11.4 C 0 km/h
653 07-09-2010 10:29:02 11.5 C 8.88 g/m*3 11.5 C 0 km/h
654 07-09-2010 10:41:01 11.4 C 8.93 g/m*3 11.4 C 0 km/h
655 07-09-2010 10:53:02 11.6 C 9.04 g/m*3 11.6 C 0 km/h
656 07-09-2010 11:05:01 11.6 C 9.15 g/m*3 11.6 C 0 km/h
657 07-09-2010 11:17:01 11.5 C 9.09 g/m*3 11.5 C 0 km/h
658 07-09-2010 11:29:01 11.2 C 8.92 g/m*3 11.2 C 0 km/h
659 07-09-2010 11:41:02 11.7 C 9.41 g/m*3 11.7 C 0 km/h
660 07-09-2010 11:53:02 12.2 C 9.5 g/m*3 12.2 C 0 km/h
661 07-09-2010 12:05:02 12 C 9.38 g/m*3 12 C 0 km/h
662 07-09-2010 12:17:02 12.4 C 9.62 g/m*3 12.4 C 0 km/h
663 07-09-2010 12:29:02 12.4 C 9.4 g/m*3 12.4 C 0 km/h
664 07-09-2010 12:41:02 12.5 C 9.46 g/m*3 12.5 C 0 km/h
665 07-09-2010 12:53:02 12.8 C 9.63 g/m*3 12.8 C 0 km/h
666 07-09-2010 13:05:02 12.7 C 9.35 g/m*3 12.7 C 0 km/h
667 07-09-2010 13:17:02 12.8 C 9.41 g/m*3 12.8 C 0 km/h
668 07-09-2010 13:29:02 12.8 C 9.3 g/m*3 12.8 C 0 km/h
669 07-09-2010 13:41:02 12.7 C 9.13 g/m*3 12.7 C 0 km/h
670 07-09-2010 13:53:01 12.9 C 9.35 g/m*3 12.9 C 0 km/h
671 07-09-2010 14:05:01 12.9 C 9.35 g/m*3 12.9 C 0 km/h
672 07-09-2010 14:17:01 13.1 C 9.36 g/m*3 13.1 C 0 km/h
673 07-09-2010 14:29:01 13.3 C 9.47 g/m*3 13.3 C 0 km/h
674 07-09-2010 14:41:01 13.4 C 9.3 g/m*3 13.4 C 0 km/h
675 07-09-2010 14:53:01 14.1 C 9.34 g/m*3 14.1 C 0 km/h
Sensor: Nr:Datum:Temp:Abs-Feuchte:Windchill:Wind:
Aussen-T/F 676 07-09-2010 15:05:01 14.4 C 9.39 g/m*3 14.4 C 0 km/h
677 07-09-2010 15:17:02 14.4 C 8.9 g/m*3 14.4 C 0 km/h
678 07-09-2010 15:29:02 14.7 C 9.07 g/m*3 14.7 C 0 km/h
679 07-09-2010 15:41:01 14.7 C 9.07 g/m*3 14.7 C 0 km/h
680 07-09-2010 15:53:03 14.7 C 9.19 g/m*3 14.7 C 0 km/h
681 07-09-2010 16:05:02 15.3 C 9.27 g/m*3 15.3 C 0 km/h
682 07-09-2010 16:17:02 15.6 C 9.04 g/m*3 15.6 C 0 km/h
683 07-09-2010 16:29:02 15.7 C 9.1 g/m*3 15.7 C 0 km/h
684 07-09-2010 16:41:02 15.6 C 9.04 g/m*3 15.6 C 0 km/h
685 07-09-2010 16:53:02 15.4 C 9.07 g/m*3 15.4 C 0 km/h
686 07-09-2010 17:05:02 15.2 C 8.96 g/m*3 15.2 C 0 km/h
687 07-09-2010 17:17:02 14.9 C 8.92 g/m*3 14.9 C 0 km/h
688 07-09-2010 17:29:02 14.8 C 9.12 g/m*3 14.8 C 0 km/h
689 07-09-2010 17:41:02 14.8 C 9.12 g/m*3 14.8 C 0 km/h
690 07-09-2010 17:53:02 14.7 C 9.19 g/m*3 14.7 C 0 km/h
691 07-09-2010 18:05:02 14.1 C 8.86 g/m*3 14.1 C 0 km/h
692 07-09-2010 18:17:01 14 C 9.05 g/m*3 14 C 0 km/h
693 07-09-2010 18:29:01 14 C 9.05 g/m*3 14 C 0 km/h
694 07-09-2010 18:41:02 13.9 C 9.23 g/m*3 13.9 C 0 km/h
695 07-09-2010 18:53:02 13.9 C 9.23 g/m*3 13.9 C 0 km/h
696 07-09-2010 19:05:02 13.9 C 9.35 g/m*3 13.9 C 0 km/h
697 07-09-2010 19:17:01 13.8 C 9.29 g/m*3 13.8 C 0 km/h
698 07-09-2010 19:29:01 13.8 C 9.41 g/m*3 13.8 C 0 km/h
699 07-09-2010 19:41:02 13.7 C 9.35 g/m*3 13.7 C 0 km/h
700 07-09-2010 19:53:02 13.7 C 9.47 g/m*3 13.7 C 0 km/h
Sensor: Nr:Datum:Temp:Abs-Feuchte:Windchill:Wind:
Aussen-T/F 701 07-09-2010 20:05:02 13.5 C 9.47 g/m*3 13.5 C 0 km/h
702 07-09-2010 20:17:02 13.3 C 9.47 g/m*3 13.3 C 0 km/h
703 07-09-2010 20:29:02 13.2 C 9.53 g/m*3 13.2 C 0 km/h
704 07-09-2010 20:41:02 13.1 C 9.59 g/m*3 13.1 C 0 km/h
705 07-09-2010 20:53:02 13.1 C 9.7 g/m*3 13.1 C 0 km/h
706 07-09-2010 21:05:02 13 C 9.75 g/m*3 13 C 0 km/h
707 07-09-2010 21:17:02 13 C 9.87 g/m*3 13 C 0 km/h
708 07-09-2010 21:29:02 13 C 9.87 g/m*3 13 C 0 km/h
709 07-09-2010 21:41:02 13 C 9.98 g/m*3 13 C 0 km/h
710 07-09-2010 21:53:02 12.8 C 9.97 g/m*3 12.8 C 0 km/h
711 07-09-2010 22:05:02 12.9 C 10.03 g/m*3 12.9 C 0 km/h
712 07-09-2010 22:18:05 12.9 C 10.03 g/m*3 12.9 C 0 km/h
713 07-09-2010 22:30:05 12.9 C 10.03 g/m*3 12.9 C 0 km/h
714 07-09-2010 22:42:05 12.8 C 9.97 g/m*3 12.8 C 0 km/h
715 07-09-2010 22:54:05 12.8 C 10.08 g/m*3 12.8 C 0 km/h
716 07-09-2010 23:06:05 12.9 C 10.14 g/m*3 12.9 C 0 km/h
717 07-09-2010 23:18:05 12.9 C 10.14 g/m*3 12.9 C 0 km/h
718 07-09-2010 23:30:05 12.8 C 10.08 g/m*3 12.8 C 0 km/h
719 07-09-2010 23:42:05 13 C 10.21 g/m*3 13 C 0 km/h
720 07-09-2010 23:54:05 13 C 10.21 g/m*3 13 C 0 km/h
721 08-09-2010 00:06:05 12.9 C 10.26 g/m*3 12.9 C 0 km/h
722 08-09-2010 00:18:05 12.8 C 10.19 g/m*3 12.8 C 0 km/h
723 08-09-2010 00:30:05 12.9 C 10.26 g/m*3 12.9 C 0 km/h
724 08-09-2010 00:42:06 12.9 C 10.26 g/m*3 12.9 C 0 km/h
725 08-09-2010 00:54:06 12.9 C 10.26 g/m*3 12.9 C 0 km/h
Sensor: Nr:Datum:Temp:Abs-Feuchte:Windchill:Wind:
Aussen-T/F 726 08-09-2010 01:06:06 13 C 10.32 g/m*3 13 C 0 km/h
727 08-09-2010 01:18:06 13 C 10.32 g/m*3 13 C 0 km/h
728 08-09-2010 01:30:06 13 C 10.32 g/m*3 13 C 0 km/h
729 08-09-2010 01:42:06 13 C 10.43 g/m*3 13 C 0 km/h
730 08-09-2010 01:54:06 13 C 10.43 g/m*3 13 C 0 km/h
731 08-09-2010 02:06:06 13.1 C 10.5 g/m*3 13.1 C 0 km/h
732 08-09-2010 02:18:06 13.1 C 10.5 g/m*3 13.1 C 0 km/h
733 08-09-2010 02:30:06 13.2 C 10.56 g/m*3 13.2 C 0 km/h
734 08-09-2010 02:42:06 13.2 C 10.68 g/m*3 13.2 C 0 km/h
735 08-09-2010 02:54:06 13.4 C 10.81 g/m*3 13.4 C 0 km/h
736 08-09-2010 03:06:06 13.4 C 10.81 g/m*3 13.4 C 0 km/h
737 08-09-2010 03:18:06 13.5 C 10.88 g/m*3 13.5 C 0 km/h
738 08-09-2010 03:30:06 13.6 C 10.95 g/m*3 13.6 C 0 km/h
739 08-09-2010 03:42:06 13.7 C 11.01 g/m*3 13.7 C 0 km/h
740 08-09-2010 03:54:06 13.6 C 10.95 g/m*3 13.6 C 0 km/h
741 08-09-2010 04:06:06 13.5 C 10.88 g/m*3 13.5 C 0 km/h
742 08-09-2010 04:18:06 13.5 C 10.88 g/m*3 13.5 C 0 km/h
743 08-09-2010 04:30:06 13.6 C 10.95 g/m*3 13.6 C 0 km/h
744 08-09-2010 04:42:06 13.5 C 10.88 g/m*3 13.5 C 0 km/h
745 08-09-2010 04:54:07 13.7 C 11.01 g/m*3 13.7 C 0 km/h
746 08-09-2010 05:06:07 14.1 C 11.29 g/m*3 14.1 C 0 km/h
747 08-09-2010 05:18:07 14 C 11.34 g/m*3 14 C 0 km/h
748 08-09-2010 05:30:07 14.1 C 11.41 g/m*3 14.1 C 0 km/h
749 08-09-2010 05:42:07 14.4 C 11.62 g/m*3 14.4 C 0 km/h
750 08-09-2010 05:54:07 14.2 C 11.36 g/m*3 14.2 C 0 km/h
Sensor: Nr:Datum:Temp:Abs-Feuchte:Windchill:Wind:
Aussen-T/F 751 08-09-2010 06:06:07 14.4 C 11.5 g/m*3 14.4 C 0 km/h
752 08-09-2010 06:18:07 14.4 C 11.5 g/m*3 14.4 C 0 km/h
753 08-09-2010 06:30:07 14.3 C 11.43 g/m*3 14.3 C 0 km/h
754 08-09-2010 06:42:07 14.3 C 11.43 g/m*3 14.3 C 0 km/h
755 08-09-2010 06:54:07 14.4 C 11.37 g/m*3 14.4 C 0 km/h
756 08-09-2010 07:06:07 14.3 C 11.3 g/m*3 14.3 C 0 km/h
757 08-09-2010 07:18:04 14.3 C 11.3 g/m*3 14.3 C 0 km/h
758 08-09-2010 07:30:04 14.3 C 11.3 g/m*3 14.3 C 0 km/h
759 08-09-2010 07:42:04 14.1 C 11.17 g/m*3 14.1 C 0 km/h
760 08-09-2010 07:54:02 14.1 C 11.17 g/m*3 14.1 C 0 km/h
761 08-09-2010 08:06:02 14.1 C 11.17 g/m*3 14.1 C 0 km/h
762 08-09-2010 08:18:02 14.1 C 11.17 g/m*3 14.1 C 0 km/h
763 08-09-2010 08:30:02 14.2 C 11.23 g/m*3 14.2 C 0 km/h
764 08-09-2010 08:42:02 14.3 C 11.3 g/m*3 14.3 C 0 km/h
765 08-09-2010 08:54:02 14.4 C 11.37 g/m*3 14.4 C 0 km/h
766 08-09-2010 09:06:01 14.8 C 11.65 g/m*3 14.8 C 0 km/h
767 08-09-2010 09:18:02 15 C 11.54 g/m*3 15 C 0 km/h
768 08-09-2010 09:30:02 15.3 C 11.62 g/m*3 15.3 C 0 km/h
769 08-09-2010 09:42:02 15.5 C 11.76 g/m*3 15.5 C 0 km/h
770 08-09-2010 09:54:02 15.5 C 11.5 g/m*3 15.5 C 0 km/h
771 08-09-2010 10:06:02 15.5 C 11.5 g/m*3 15.5 C 0 km/h
772 08-09-2010 10:18:02 15.3 C 11.36 g/m*3 15.3 C 0 km/h
773 08-09-2010 10:30:02 15.5 C 11.37 g/m*3 15.5 C 0 km/h
774 08-09-2010 10:42:02 15.6 C 11.44 g/m*3 15.6 C 0 km/h
775 08-09-2010 10:54:02 15.7 C 11.37 g/m*3 15.7 C 0 km/h
Sensor: Nr:Datum:Temp:Abs-Feuchte:Windchill:Wind:
Aussen-T/F 776 08-09-2010 11:06:02 15.7 C 11.11 g/m*3 15.7 C 0 km/h
777 08-09-2010 11:18:02 15.4 C 10.9 g/m*3 15.4 C 0 km/h
778 08-09-2010 11:30:02 15.1 C 10.97 g/m*3 15.1 C 0 km/h
779 08-09-2010 11:42:02 15 C 11.03 g/m*3 15 C 0 km/h
780 08-09-2010 11:54:02 15 C 11.16 g/m*3 15 C 0 km/h
781 08-09-2010 12:06:02 14.6 C 11.01 g/m*3 14.6 C 0 km/h
782 08-09-2010 12:18:03 14.6 C 11.14 g/m*3 14.6 C 0 km/h
783 08-09-2010 12:30:03 14.7 C 11.21 g/m*3 14.7 C 0 km/h
784 08-09-2010 12:42:02 14.8 C 11.4 g/m*3 14.8 C 0 km/h
785 08-09-2010 12:54:01 15 C 11.54 g/m*3 15 C 0 km/h
786 08-09-2010 13:06:01 15.5 C 11.9 g/m*3 15.5 C 0 km/h
787 08-09-2010 13:18:02 15.8 C 12.11 g/m*3 15.8 C 0 km/h
788 08-09-2010 13:30:02 16.3 C 12.35 g/m*3 16.3 C 0 km/h
789 08-09-2010 13:42:01 16.8 C 12.44 g/m*3 16.8 C 0 km/h
790 08-09-2010 13:54:02 16.7 C 11.8 g/m*3 16.7 C 0 km/h
791 08-09-2010 14:06:02 17.4 C 12 g/m*3 17.4 C 0 km/h
792 08-09-2010 14:18:02 17.2 C 11.42 g/m*3 17.2 C 0 km/h
793 08-09-2010 14:30:02 17 C 11.29 g/m*3 17 C 0 km/h
794 08-09-2010 14:42:02 17.9 C 11.6 g/m*3 17.9 C 0 km/h
795 08-09-2010 14:54:02 18.4 C 11.48 g/m*3 18.4 C 0 km/h
796 08-09-2010 15:06:01 18.2 C 11.04 g/m*3 18.2 C 0 km/h
797 08-09-2010 15:18:01 17.8 C 11.08 g/m*3 17.8 C 0 km/h
798 08-09-2010 15:30:02 17.6 C 11.1 g/m*3 17.6 C 0 km/h
799 08-09-2010 15:42:01 17.8 C 11.23 g/m*3 17.8 C 0 km/h
800 08-09-2010 15:54:02 18.3 C 11.41 g/m*3 18.3 C 0 km/h
Sensor: Nr:Datum:Temp:Abs-Feuchte:Windchill:Wind:
Aussen-T/F 801 08-09-2010 16:06:01 19 C 10.92 g/m*3 19 C 0 km/h
802 08-09-2010 16:18:01 18.7 C 10.89 g/m*3 18.7 C 0 km/h
803 08-09-2010 16:30:01 18.5 C 10.6 g/m*3 18.5 C 0 km/h
804 08-09-2010 16:42:02 18.5 C 10.6 g/m*3 18.5 C 0 km/h
805 08-09-2010 16:54:02 18 C 10.44 g/m*3 18 C 0 km/h
806 08-09-2010 17:06:02 19.3 C 10.45 g/m*3 19.3 C 0 km/h
807 08-09-2010 17:18:02 20.4 C 10.08 g/m*3 20.4 C 0 km/h
808 08-09-2010 17:30:02 20.5 C 10.14 g/m*3 20.5 C 0 km/h
809 08-09-2010 17:42:02 19.5 C 10.07 g/m*3 19.5 C 0 km/h
810 08-09-2010 17:54:02 19.7 C 10.36 g/m*3 19.7 C 0 km/h
811 08-09-2010 18:06:02 19.3 C 10.28 g/m*3 19.3 C 0 km/h
812 08-09-2010 18:18:01 20.2 C 9.97 g/m*3 20.2 C 0 km/h
813 08-09-2010 18:30:01 19.3 C 10.12 g/m*3 19.3 C 0 km/h
814 08-09-2010 18:42:02 18.3 C 10.16 g/m*3 18.3 C 0 km/h
815 08-09-2010 18:54:02 18.2 C 10.57 g/m*3 18.2 C 0 km/h
816 08-09-2010 19:06:02 18.6 C 10.66 g/m*3 18.6 C 0 km/h
817 08-09-2010 19:18:01 18.7 C 10.57 g/m*3 18.7 C 0 km/h
818 08-09-2010 19:30:01 18.3 C 10.48 g/m*3 18.3 C 0 km/h
819 08-09-2010 19:42:02 17.9 C 10.69 g/m*3 17.9 C 0 km/h
820 08-09-2010 19:54:02 17.5 C 10.29 g/m*3 17.5 C 0 km/h
821 08-09-2010 20:06:03 17.4 C 10.52 g/m*3 17.4 C 0 km/h
822 08-09-2010 20:18:02 17 C 10.42 g/m*3 17 C 0 km/h
823 08-09-2010 20:30:02 16.7 C 10.66 g/m*3 16.7 C 0 km/h
824 08-09-2010 20:42:02 16.6 C 10.74 g/m*3 16.6 C 0 km/h
825 08-09-2010 20:54:01 16.3 C 10.27 g/m*3 16.3 C 0 km/h
Sensor: Nr:Datum:Temp:Abs-Feuchte:Windchill:Wind:
Aussen-T/F 826 08-09-2010 21:06:01 15.9 C 10.02 g/m*3 15.9 C 0 km/h
827 08-09-2010 21:18:01 15.8 C 9.69 g/m*3 15.8 C 0 km/h
828 08-09-2010 21:30:01 15.7 C 9.63 g/m*3 15.7 C 0 km/h
829 08-09-2010 21:42:01 15.7 C 9.63 g/m*3 15.7 C 0 km/h
830 08-09-2010 21:54:01 15.5 C 9.52 g/m*3 15.5 C 0 km/h
831 08-09-2010 22:06:01 15.2 C 9.48 g/m*3 15.2 C 0 km/h
832 08-09-2010 22:18:02 14.9 C 9.56 g/m*3 14.9 C 0 km/h
833 08-09-2010 22:30:02 14.6 C 9.76 g/m*3 14.6 C 0 km/h
834 08-09-2010 22:42:02 14.5 C 9.95 g/m*3 14.5 C 0 km/h
835 08-09-2010 22:55:02 14.7 C 10.2 g/m*3 14.7 C 0 km/h
836 08-09-2010 23:07:02 14.5 C 9.95 g/m*3 14.5 C 0 km/h
837 08-09-2010 23:19:02 14.5 C 10.07 g/m*3 14.5 C 0 km/h
838 08-09-2010 23:31:02 14.6 C 10.01 g/m*3 14.6 C 0 km/h
839 08-09-2010 23:43:02 14.5 C 10.07 g/m*3 14.5 C 0 km/h
840 08-09-2010 23:55:03 14.3 C 9.95 g/m*3 14.3 C 0 km/h
841 09-09-2010 00:07:03 14.4 C 10.14 g/m*3 14.4 C 0 km/h
842 09-09-2010 00:19:03 14.4 C 10.14 g/m*3 14.4 C 0 km/h
843 09-09-2010 00:31:03 14.1 C 10.07 g/m*3 14.1 C 0 km/h
844 09-09-2010 00:43:03 14.5 C 10.32 g/m*3 14.5 C 0 km/h
845 09-09-2010 00:55:03 14.5 C 10.32 g/m*3 14.5 C 0 km/h
846 09-09-2010 01:07:03 14.8 C 10.39 g/m*3 14.8 C 0 km/h
847 09-09-2010 01:19:03 15 C 10 g/m*3 15 C 0 km/h
848 09-09-2010 01:31:03 15.1 C 10.06 g/m*3 15.1 C 0 km/h
849 09-09-2010 01:43:03 15.2 C 9.99 g/m*3 15.2 C 0 km/h
850 09-09-2010 01:55:03 15.1 C 9.93 g/m*3 15.1 C 0 km/h
Sensor: Nr:Datum:Temp:Abs-Feuchte:Windchill:Wind:
Aussen-T/F 851 09-09-2010 02:07:03 15.2 C 9.99 g/m*3 15.2 C 0 km/h
852 09-09-2010 02:19:03 15.1 C 9.93 g/m*3 15.1 C 0 km/h
853 09-09-2010 02:31:03 15.1 C 9.93 g/m*3 15.1 C 0 km/h
854 09-09-2010 02:43:03 15.1 C 9.93 g/m*3 15.1 C 0 km/h
855 09-09-2010 02:55:03 15.2 C 9.86 g/m*3 15.2 C 0 km/h
856 09-09-2010 03:07:03 15.2 C 9.86 g/m*3 15.2 C 0 km/h
857 09-09-2010 03:19:03 15.3 C 9.79 g/m*3 15.3 C 0 km/h
858 09-09-2010 03:31:03 15.3 C 9.79 g/m*3 15.3 C 0 km/h
859 09-09-2010 03:43:03 15.4 C 9.72 g/m*3 15.4 C 0 km/h
860 09-09-2010 03:55:04 15.4 C 9.72 g/m*3 15.4 C 0 km/h
861 09-09-2010 04:07:04 15.4 C 9.59 g/m*3 15.4 C 0 km/h
862 09-09-2010 04:19:04 15.2 C 9.48 g/m*3 15.2 C 0 km/h
863 09-09-2010 04:31:04 15.2 C 9.35 g/m*3 15.2 C 0 km/h
864 09-09-2010 04:43:04 15.2 C 9.22 g/m*3 15.2 C 0 km/h
865 09-09-2010 04:55:04 15.1 C 9.03 g/m*3 15.1 C 0 km/h
866 09-09-2010 05:07:04 14.9 C 9.05 g/m*3 14.9 C 0 km/h
867 09-09-2010 05:19:04 14.9 C 9.05 g/m*3 14.9 C 0 km/h
868 09-09-2010 05:31:04 14.9 C 9.05 g/m*3 14.9 C 0 km/h
869 09-09-2010 05:43:04 14.9 C 9.05 g/m*3 14.9 C 0 km/h
870 09-09-2010 05:55:04 14.9 C 8.92 g/m*3 14.9 C 0 km/h
871 09-09-2010 06:07:04 14.8 C 8.87 g/m*3 14.8 C 0 km/h
872 09-09-2010 06:19:04 14.8 C 8.87 g/m*3 14.8 C 0 km/h
873 09-09-2010 06:31:04 14.8 C 8.87 g/m*3 14.8 C 0 km/h
874 09-09-2010 06:43:04 14.8 C 8.87 g/m*3 14.8 C 0 km/h
875 09-09-2010 06:55:04 14.7 C 8.94 g/m*3 14.7 C 0 km/h
Sensor: Nr:Datum:Temp:Abs-Feuchte:Windchill:Wind:
Aussen-T/F 876 09-09-2010 07:07:04 14.5 C 9.08 g/m*3 14.5 C 0 km/h
877 09-09-2010 07:19:04 14.5 C 9.08 g/m*3 14.5 C 0 km/h
878 09-09-2010 07:31:04 14.6 C 9.13 g/m*3 14.6 C 0 km/h
879 09-09-2010 07:43:04 14.6 C 9.01 g/m*3 14.6 C 0 km/h
880 09-09-2010 07:55:04 14.7 C 9.07 g/m*3 14.7 C 0 km/h
881 09-09-2010 08:07:02 14.7 C 9.07 g/m*3 14.7 C 0 km/h
882 09-09-2010 08:19:02 14.8 C 9.12 g/m*3 14.8 C 0 km/h
883 09-09-2010 08:31:02 14.8 C 9.12 g/m*3 14.8 C 0 km/h
884 09-09-2010 08:43:02 14.8 C 9.12 g/m*3 14.8 C 0 km/h
885 09-09-2010 08:55:02 14.9 C 9.05 g/m*3 14.9 C 0 km/h
886 09-09-2010 09:07:02 14.9 C 9.05 g/m*3 14.9 C 0 km/h
887 09-09-2010 09:19:03 14.9 C 9.05 g/m*3 14.9 C 0 km/h
888 09-09-2010 09:31:02 15.2 C 9.09 g/m*3 15.2 C 0 km/h
889 09-09-2010 09:43:02 15.5 C 9.12 g/m*3 15.5 C 0 km/h
890 09-09-2010 09:55:01 15.8 C 9.15 g/m*3 15.8 C 0 km/h
891 09-09-2010 10:07:02 16 C 8.99 g/m*3 16 C 0 km/h
892 09-09-2010 10:19:02 16.4 C 9.07 g/m*3 16.4 C 0 km/h
893 09-09-2010 10:31:01 16.8 C 9.15 g/m*3 16.8 C 0 km/h
894 09-09-2010 10:43:01 17.2 C 9.08 g/m*3 17.2 C 0 km/h
895 09-09-2010 10:55:02 17.4 C 9.19 g/m*3 17.4 C 0 km/h
896 09-09-2010 11:07:01 17.5 C 9.09 g/m*3 17.5 C 0 km/h
897 09-09-2010 11:19:02 17.5 C 9.09 g/m*3 17.5 C 0 km/h
898 09-09-2010 11:31:02 17.8 C 8.8 g/m*3 17.8 C 0 km/h
899 09-09-2010 11:43:02 17.8 C 8.65 g/m*3 17.8 C 0 km/h
900 09-09-2010 11:55:02 18.3 C 8.76 g/m*3 18.3 C 0 km/h
Sensor: Nr:Datum:Temp:Abs-Feuchte:Windchill:Wind:
Aussen-T/F 901 09-09-2010 12:07:01 18.5 C 8.23 g/m*3 18.5 C 0 km/h
902 09-09-2010 12:19:02 18.6 C 8.28 g/m*3 18.6 C 0 km/h
903 09-09-2010 12:31:02 18.6 C 8.12 g/m*3 18.6 C 0 km/h
904 09-09-2010 12:43:02 19 C 8.15 g/m*3 19 C 0 km/h
905 09-09-2010 12:55:02 18.5 C 8.07 g/m*3 18.5 C 0 km/h
906 09-09-2010 13:07:02 18.6 C 8.28 g/m*3 18.6 C 0 km/h
907 09-09-2010 13:19:02 18.7 C 8.17 g/m*3 18.7 C 0 km/h
908 09-09-2010 13:31:02 18.7 C 8.01 g/m*3 18.7 C 0 km/h
909 09-09-2010 13:43:02 19 C 8.15 g/m*3 19 C 0 km/h
910 09-09-2010 13:55:02 19 C 8.47 g/m*3 19 C 0 km/h
911 09-09-2010 14:07:02 18.6 C 8.12 g/m*3 18.6 C 0 km/h
912 09-09-2010 14:19:02 18.4 C 8.18 g/m*3 18.4 C 0 km/h
913 09-09-2010 14:31:02 18.8 C 8.86 g/m*3 18.8 C 0 km/h
914 09-09-2010 14:43:02 19.3 C 8.79 g/m*3 19.3 C 0 km/h
915 09-09-2010 14:55:02 19.8 C 9.05 g/m*3 19.8 C 0 km/h
916 09-09-2010 15:07:02 20.3 C 8.97 g/m*3 20.3 C 0 km/h
917 09-09-2010 15:19:02 20.3 C 8.97 g/m*3 20.3 C 0 km/h
918 09-09-2010 15:31:02 19.5 C 8.89 g/m*3 19.5 C 0 km/h
919 09-09-2010 15:43:02 18.7 C 9.29 g/m*3 18.7 C 0 km/h
920 09-09-2010 15:55:02 18.1 C 9.43 g/m*3 18.1 C 0 km/h
921 09-09-2010 16:07:01 17.7 C 9.51 g/m*3 17.7 C 0 km/h
922 09-09-2010 16:19:02 16.1 C 10.14 g/m*3 16.1 C 0 km/h
923 09-09-2010 16:31:01 16.1 C 10.42 g/m*3 16.1 C 0 km/h
924 09-09-2010 16:43:01 17.1 C 11.79 g/m*3 17.1 C 0 km/h
925 09-09-2010 16:55:02 18.5 C 12.82 g/m*3 18.5 C 0 km/h
Sensor: Nr:Datum:Temp:Abs-Feuchte:Windchill:Wind:
Aussen-T/F 926 09-09-2010 17:07:02 18.2 C 12.28 g/m*3 18.2 C 0 km/h
927 09-09-2010 17:19:02 18 C 12.13 g/m*3 18 C 0 km/h
928 09-09-2010 17:31:02 17.9 C 11.45 g/m*3 17.9 C 0 km/h
929 09-09-2010 17:43:02 17.8 C 11.08 g/m*3 17.8 C 0 km/h
930 09-09-2010 17:55:02 17.7 C 11.16 g/m*3 17.7 C 0 km/h
931 09-09-2010 18:07:02 17.7 C 11.32 g/m*3 17.7 C 0 km/h
932 09-09-2010 18:19:01 17.7 C 10.86 g/m*3 17.7 C 0 km/h
933 09-09-2010 18:31:02 17.7 C 10.41 g/m*3 17.7 C 0 km/h
934 09-09-2010 18:43:03 17.9 C 10.38 g/m*3 17.9 C 0 km/h
935 09-09-2010 18:55:02 17.5 C 9.39 g/m*3 17.5 C 0 km/h
936 09-09-2010 19:07:02 17.2 C 9.37 g/m*3 17.2 C 0 km/h
937 09-09-2010 19:19:01 16.8 C 9.44 g/m*3 16.8 C 0 km/h
938 09-09-2010 19:31:02 16.5 C 9.55 g/m*3 16.5 C 0 km/h
939 09-09-2010 19:43:02 16.2 C 9.52 g/m*3 16.2 C 0 km/h
940 09-09-2010 19:55:01 16 C 9.4 g/m*3 16 C 0 km/h
941 09-09-2010 20:07:02 15.9 C 9.48 g/m*3 15.9 C 0 km/h
942 09-09-2010 20:19:02 15.8 C 9.42 g/m*3 15.8 C 0 km/h
943 09-09-2010 20:31:01 15.4 C 9.72 g/m*3 15.4 C 0 km/h
944 09-09-2010 20:43:01 15 C 10 g/m*3 15 C 0 km/h
945 09-09-2010 20:55:01 14.9 C 10.2 g/m*3 14.9 C 0 km/h
946 09-09-2010 21:07:01 14.9 C 10.32 g/m*3 14.9 C 0 km/h
947 09-09-2010 21:19:02 14.9 C 10.32 g/m*3 14.9 C 0 km/h
948 09-09-2010 21:31:01 14.8 C 10.26 g/m*3 14.8 C 0 km/h
949 09-09-2010 21:43:01 14.7 C 10.2 g/m*3 14.7 C 0 km/h
950 09-09-2010 21:55:02 14.7 C 10.2 g/m*3 14.7 C 0 km/h
Sensor: Nr:Datum:Temp:Abs-Feuchte:Windchill:Wind:
Aussen-T/F 951 09-09-2010 22:07:02 14.7 C 10.2 g/m*3 14.7 C 0 km/h
952 09-09-2010 22:19:01 14.8 C 10.13 g/m*3 14.8 C 0 km/h
953 09-09-2010 22:31:01 14.8 C 10.26 g/m*3 14.8 C 0 km/h
954 09-09-2010 22:43:01 14.7 C 10.2 g/m*3 14.7 C 0 km/h
955 09-09-2010 22:56:02 14.7 C 10.07 g/m*3 14.7 C 0 km/h
956 09-09-2010 23:08:02 14.8 C 10.01 g/m*3 14.8 C 0 km/h
957 09-09-2010 23:20:03 15 C 9.75 g/m*3 15 C 0 km/h
958 09-09-2010 23:32:03 15 C 9.62 g/m*3 15 C 0 km/h
959 09-09-2010 23:44:03 15.1 C 9.68 g/m*3 15.1 C 0 km/h
960 09-09-2010 23:56:03 15 C 9.49 g/m*3 15 C 0 km/h
961 10-09-2010 00:08:03 14.9 C 9.81 g/m*3 14.9 C 0 km/h
962 10-09-2010 00:20:03 14.8 C 9.88 g/m*3 14.8 C 0 km/h
963 10-09-2010 00:32:03 14.6 C 10.01 g/m*3 14.6 C 0 km/h
964 10-09-2010 00:44:03 14.6 C 10.01 g/m*3 14.6 C 0 km/h
965 10-09-2010 00:56:03 14.4 C 9.89 g/m*3 14.4 C 0 km/h
966 10-09-2010 01:08:03 14.3 C 9.83 g/m*3 14.3 C 0 km/h
967 10-09-2010 01:20:03 14.1 C 9.71 g/m*3 14.1 C 0 km/h
968 10-09-2010 01:32:03 13.9 C 9.71 g/m*3 13.9 C 0 km/h
969 10-09-2010 01:44:03 13.8 C 9.77 g/m*3 13.8 C 0 km/h
970 10-09-2010 01:56:03 13.9 C 9.83 g/m*3 13.9 C 0 km/h
971 10-09-2010 02:08:03 13.8 C 9.89 g/m*3 13.8 C 0 km/h
972 10-09-2010 02:20:03 13.8 C 9.89 g/m*3 13.8 C 0 km/h
973 10-09-2010 02:32:03 13.9 C 10.07 g/m*3 13.9 C 0 km/h
974 10-09-2010 02:44:03 14 C 10.01 g/m*3 14 C 0 km/h
975 10-09-2010 02:56:03 14 C 9.89 g/m*3 14 C 0 km/h
Sensor: Nr:Datum:Temp:Abs-Feuchte:Windchill:Wind:
Aussen-T/F 976 10-09-2010 03:08:03 14 C 10.01 g/m*3 14 C 0 km/h
977 10-09-2010 03:20:03 14 C 10.01 g/m*3 14 C 0 km/h
978 10-09-2010 03:32:04 13.9 C 10.07 g/m*3 13.9 C 0 km/h
979 10-09-2010 03:44:04 13.8 C 10.13 g/m*3 13.8 C 0 km/h
980 10-09-2010 03:56:04 13.8 C 10.13 g/m*3 13.8 C 0 km/h
981 10-09-2010 04:08:04 13.9 C 10.31 g/m*3 13.9 C 0 km/h
982 10-09-2010 04:20:04 14 C 10.25 g/m*3 14 C 0 km/h
983 10-09-2010 04:32:04 13.9 C 10.31 g/m*3 13.9 C 0 km/h
984 10-09-2010 04:44:04 13.8 C 10.25 g/m*3 13.8 C 0 km/h
985 10-09-2010 04:56:04 13.6 C 10.12 g/m*3 13.6 C 0 km/h
986 10-09-2010 05:08:04 13.4 C 10 g/m*3 13.4 C 0 km/h
987 10-09-2010 05:20:04 13.2 C 9.99 g/m*3 13.2 C 0 km/h
988 10-09-2010 05:32:04 13.1 C 10.04 g/m*3 13.1 C 0 km/h
989 10-09-2010 05:44:04 12.8 C 9.97 g/m*3 12.8 C 0 km/h
990 10-09-2010 05:56:04 12.8 C 9.97 g/m*3 12.8 C 0 km/h
991 10-09-2010 06:08:04 13.2 C 10.33 g/m*3 13.2 C 0 km/h
992 10-09-2010 06:20:04 13 C 10.09 g/m*3 13 C 0 km/h
993 10-09-2010 06:32:04 13.1 C 10.27 g/m*3 13.1 C 0 km/h
994 10-09-2010 06:44:04 13.1 C 10.27 g/m*3 13.1 C 0 km/h
995 10-09-2010 06:56:04 13.2 C 10.22 g/m*3 13.2 C 0 km/h
996 10-09-2010 07:08:04 13.1 C 10.16 g/m*3 13.1 C 0 km/h
997 10-09-2010 07:20:04 13.2 C 9.99 g/m*3 13.2 C 0 km/h
998 10-09-2010 07:32:05 13.3 C 9.7 g/m*3 13.3 C 0 km/h
999 10-09-2010 07:44:05 13.2 C 9.64 g/m*3 13.2 C 0 km/h
1000 10-09-2010 07:56:02 13.1 C 9.7 g/m*3 13.1 C 0 km/h
Sensor: Nr:Datum:Temp:Abs-Feuchte:Windchill:Wind:
Aussen-T/F 1001 10-09-2010 08:08:02 13.1 C 9.81 g/m*3 13.1 C 0 km/h
1002 10-09-2010 08:20:02 13.1 C 9.93 g/m*3 13.1 C 0 km/h
1003 10-09-2010 08:32:02 13.2 C 9.99 g/m*3 13.2 C 0 km/h
1004 10-09-2010 08:44:03 13.5 C 10.06 g/m*3 13.5 C 0 km/h
1005 10-09-2010 08:56:02 13.7 C 9.95 g/m*3 13.7 C 0 km/h
1006 10-09-2010 09:08:02 14 C 9.77 g/m*3 14 C 0 km/h
1007 10-09-2010 09:20:02 14.4 C 9.64 g/m*3 14.4 C 0 km/h
1008 10-09-2010 09:32:02 14.5 C 9.58 g/m*3 14.5 C 0 km/h
1009 10-09-2010 09:44:02 14.9 C 9.43 g/m*3 14.9 C 0 km/h
1010 10-09-2010 09:56:02 15.2 C 9.22 g/m*3 15.2 C 0 km/h
1011 10-09-2010 10:08:02 15.5 C 9.39 g/m*3 15.5 C 0 km/h
1012 10-09-2010 10:20:03 15.7 C 9.23 g/m*3 15.7 C 0 km/h
1013 10-09-2010 10:32:02 16.2 C 9.38 g/m*3 16.2 C 0 km/h
1014 10-09-2010 10:44:02 16.6 C 9.46 g/m*3 16.6 C 0 km/h
1015 10-09-2010 10:56:02 16.8 C 9.29 g/m*3 16.8 C 0 km/h
1016 10-09-2010 11:08:02 17.2 C 9.37 g/m*3 17.2 C 0 km/h
1017 10-09-2010 11:20:02 17.7 C 9.51 g/m*3 17.7 C 0 km/h
1018 10-09-2010 11:32:02 18.1 C 9.12 g/m*3 18.1 C 0 km/h
1019 10-09-2010 11:44:02 18.1 C 8.96 g/m*3 18.1 C 0 km/h
1020 10-09-2010 11:56:02 18.3 C 9.07 g/m*3 18.3 C 0 km/h
1021 10-09-2010 12:08:01 18.6 C 9.07 g/m*3 18.6 C 0 km/h
1022 10-09-2010 12:20:02 18.7 C 9.13 g/m*3 18.7 C 0 km/h
1023 10-09-2010 12:32:02 18.4 C 9.12 g/m*3 18.4 C 0 km/h
1024 10-09-2010 12:44:02 18.8 C 9.34 g/m*3 18.8 C 0 km/h
1025 10-09-2010 12:56:02 19.2 C 9.23 g/m*3 19.2 C 0 km/h
Sensor: Nr:Datum:Temp:Abs-Feuchte:Windchill:Wind:
Aussen-T/F 1026 10-09-2010 13:08:03 19.5 C 8.89 g/m*3 19.5 C 0 km/h
1027 10-09-2010 13:20:02 19.4 C 8.84 g/m*3 19.4 C 0 km/h
1028 10-09-2010 13:32:02 19 C 8.47 g/m*3 19 C 0 km/h
1029 10-09-2010 13:44:02 19 C 8.47 g/m*3 19 C 0 km/h
1030 10-09-2010 13:56:01 19 C 8.64 g/m*3 19 C 0 km/h
1031 10-09-2010 14:08:02 19.3 C 8.79 g/m*3 19.3 C 0 km/h
1032 10-09-2010 14:20:01 19.9 C 8.76 g/m*3 19.9 C 0 km/h
1033 10-09-2010 14:32:01 20.4 C 8.67 g/m*3 20.4 C 0 km/h
1034 10-09-2010 14:44:01 20.2 C 8.74 g/m*3 20.2 C 0 km/h
1035 10-09-2010 14:56:01 19.9 C 8.76 g/m*3 19.9 C 0 km/h
1036 10-09-2010 15:08:02 20 C 8.64 g/m*3 20 C 0 km/h
1037 10-09-2010 15:20:02 20.6 C 8.95 g/m*3 20.6 C 0 km/h
1038 10-09-2010 15:32:01 20.9 C 8.38 g/m*3 20.9 C 0 km/h
1039 10-09-2010 15:44:01 21.2 C 8.34 g/m*3 21.2 C 0 km/h
1040 10-09-2010 15:56:02 21.4 C 8.62 g/m*3 21.4 C 0 km/h
1041 10-09-2010 16:08:01 21.2 C 8.34 g/m*3 21.2 C 0 km/h
1042 10-09-2010 16:20:02 20.8 C 8.33 g/m*3 20.8 C 0 km/h
1043 10-09-2010 16:32:01 21.1 C 8.48 g/m*3 21.1 C 0 km/h
1044 10-09-2010 16:44:01 21.2 C 8.71 g/m*3 21.2 C 0 km/h
1045 10-09-2010 16:56:02 21.2 C 8.34 g/m*3 21.2 C 0 km/h
1046 10-09-2010 17:08:02 20.9 C 8.56 g/m*3 20.9 C 0 km/h
1047 10-09-2010 17:20:02 20.5 C 8.9 g/m*3 20.5 C 0 km/h
1048 10-09-2010 17:32:03 20.1 C 9.04 g/m*3 20.1 C 0 km/h
1049 10-09-2010 17:44:03 19.8 C 9.39 g/m*3 19.8 C 0 km/h
1050 10-09-2010 17:56:02 19.6 C 8.95 g/m*3 19.6 C 0 km/h
Sensor: Nr:Datum:Temp:Abs-Feuchte:Windchill:Wind:
Aussen-T/F 1051 10-09-2010 18:08:02 19.4 C 9.18 g/m*3 19.4 C 0 km/h
1052 10-09-2010 18:20:02 18.9 C 9.56 g/m*3 18.9 C 0 km/h
1053 10-09-2010 18:32:02 17.8 C 10.17 g/m*3 17.8 C 0 km/h
1054 10-09-2010 18:44:02 16.8 C 10.72 g/m*3 16.8 C 0 km/h
1055 10-09-2010 18:56:02 16.4 C 11.03 g/m*3 16.4 C 0 km/h
1056 10-09-2010 19:08:02 16.4 C 11.31 g/m*3 16.4 C 0 km/h
1057 10-09-2010 19:20:02 16.8 C 11.72 g/m*3 16.8 C 0 km/h
1058 10-09-2010 19:32:02 16.3 C 11.38 g/m*3 16.3 C 0 km/h
1059 10-09-2010 19:44:02 16 C 11.31 g/m*3 16 C 0 km/h
1060 10-09-2010 19:56:02 15.8 C 11.44 g/m*3 15.8 C 0 km/h
1061 10-09-2010 20:08:03 15.8 C 11.58 g/m*3 15.8 C 0 km/h
1062 10-09-2010 20:20:02 15.7 C 11.51 g/m*3 15.7 C 0 km/h
1063 10-09-2010 20:32:03 15.6 C 11.57 g/m*3 15.6 C 0 km/h
1064 10-09-2010 20:44:03 15.6 C 11.57 g/m*3 15.6 C 0 km/h
1065 10-09-2010 20:56:02 15.7 C 11.64 g/m*3 15.7 C 0 km/h
1066 10-09-2010 21:08:01 15.8 C 11.71 g/m*3 15.8 C 0 km/h
1067 10-09-2010 21:20:02 15.8 C 11.71 g/m*3 15.8 C 0 km/h
1068 10-09-2010 21:32:02 15.8 C 11.71 g/m*3 15.8 C 0 km/h
1069 10-09-2010 21:44:02 15.8 C 11.71 g/m*3 15.8 C 0 km/h
1070 10-09-2010 21:56:02 15.8 C 11.58 g/m*3 15.8 C 0 km/h
1071 10-09-2010 22:08:01 15.8 C 11.58 g/m*3 15.8 C 0 km/h
1072 10-09-2010 22:20:02 15.8 C 11.58 g/m*3 15.8 C 0 km/h
1073 10-09-2010 22:32:01 15.7 C 11.51 g/m*3 15.7 C 0 km/h
1074 10-09-2010 22:44:01 15.6 C 11.3 g/m*3 15.6 C 0 km/h
1075 10-09-2010 22:57:03 15.5 C 11.24 g/m*3 15.5 C 0 km/h
Sensor: Nr:Datum:Temp:Abs-Feuchte:Windchill:Wind:
Aussen-T/F 1076 10-09-2010 23:09:03 15.6 C 11.3 g/m*3 15.6 C 0 km/h
1077 10-09-2010 23:21:03 15.5 C 11.24 g/m*3 15.5 C 0 km/h
1078 10-09-2010 23:33:03 15.5 C 11.24 g/m*3 15.5 C 0 km/h
1079 10-09-2010 23:45:03 15.4 C 11.17 g/m*3 15.4 C 0 km/h
1080 10-09-2010 23:57:03 15.3 C 10.97 g/m*3 15.3 C 0 km/h
1081 11-09-2010 00:09:03 15.2 C 10.9 g/m*3 15.2 C 0 km/h
1082 11-09-2010 00:21:03 15.2 C 10.9 g/m*3 15.2 C 0 km/h
1083 11-09-2010 00:33:03 15.1 C 10.84 g/m*3 15.1 C 0 km/h
1084 11-09-2010 00:45:03 15.1 C 10.84 g/m*3 15.1 C 0 km/h
1085 11-09-2010 00:57:03 15.1 C 10.84 g/m*3 15.1 C 0 km/h
1086 11-09-2010 01:09:03 15.1 C 10.84 g/m*3 15.1 C 0 km/h
1087 11-09-2010 01:21:03 15 C 10.77 g/m*3 15 C 0 km/h
1088 11-09-2010 01:33:03 15 C 10.77 g/m*3 15 C 0 km/h
1089 11-09-2010 01:45:04 15 C 10.77 g/m*3 15 C 0 km/h
1090 11-09-2010 01:57:04 14.9 C 10.83 g/m*3 14.9 C 0 km/h
1091 11-09-2010 02:09:04 14.9 C 10.83 g/m*3 14.9 C 0 km/h
1092 11-09-2010 02:21:04 14.8 C 10.77 g/m*3 14.8 C 0 km/h
1093 11-09-2010 02:33:04 14.7 C 10.58 g/m*3 14.7 C 0 km/h
1094 11-09-2010 02:45:04 14.7 C 10.7 g/m*3 14.7 C 0 km/h
1095 11-09-2010 02:57:04 14.6 C 10.76 g/m*3 14.6 C 0 km/h
1096 11-09-2010 03:09:04 14.4 C 10.63 g/m*3 14.4 C 0 km/h
1097 11-09-2010 03:21:04 14.3 C 10.57 g/m*3 14.3 C 0 km/h
1098 11-09-2010 03:33:04 14.1 C 10.44 g/m*3 14.1 C 0 km/h
1099 11-09-2010 03:45:04 14 C 10.37 g/m*3 14 C 0 km/h
1100 11-09-2010 03:57:04 13.6 C 10.12 g/m*3 13.6 C 0 km/h
Sensor: Nr:Datum:Temp:Abs-Feuchte:Windchill:Wind:
Aussen-T/F 1101 11-09-2010 04:09:04 13.5 C 10.06 g/m*3 13.5 C 0 km/h
1102 11-09-2010 04:21:04 13.3 C 9.94 g/m*3 13.3 C 0 km/h
1103 11-09-2010 04:33:04 13.1 C 9.81 g/m*3 13.1 C 0 km/h
1104 11-09-2010 04:45:04 13 C 9.75 g/m*3 13 C 0 km/h
1105 11-09-2010 04:57:04 12.8 C 9.74 g/m*3 12.8 C 0 km/h
1106 11-09-2010 05:09:04 12.6 C 9.62 g/m*3 12.6 C 0 km/h
1107 11-09-2010 05:21:04 12.5 C 9.68 g/m*3 12.5 C 0 km/h
1108 11-09-2010 05:33:04 12.6 C 9.74 g/m*3 12.6 C 0 km/h
1109 11-09-2010 05:45:05 12.7 C 9.91 g/m*3 12.7 C 0 km/h
1110 11-09-2010 05:57:05 12.8 C 9.97 g/m*3 12.8 C 0 km/h
1111 11-09-2010 06:09:05 13 C 10.09 g/m*3 13 C 0 km/h
1112 11-09-2010 06:21:05 13.1 C 10.16 g/m*3 13.1 C 0 km/h
1113 11-09-2010 06:33:05 12.8 C 9.97 g/m*3 12.8 C 0 km/h
1114 11-09-2010 06:45:05 12.5 C 9.78 g/m*3 12.5 C 0 km/h
1115 11-09-2010 06:57:05 12.3 C 9.56 g/m*3 12.3 C 0 km/h
1116 11-09-2010 07:09:05 12.1 C 9.44 g/m*3 12.1 C 0 km/h
1117 11-09-2010 07:21:05 12.1 C 9.44 g/m*3 12.1 C 0 km/h
1118 11-09-2010 07:33:05 12.1 C 9.54 g/m*3 12.1 C 0 km/h
1119 11-09-2010 07:45:05 12.1 C 9.54 g/m*3 12.1 C 0 km/h
1120 11-09-2010 07:57:05 12.4 C 9.72 g/m*3 12.4 C 0 km/h
1121 11-09-2010 08:09:05 12.7 C 10.02 g/m*3 12.7 C 0 km/h
1122 11-09-2010 08:21:03 13 C 10.21 g/m*3 13 C 0 km/h
1123 11-09-2010 08:33:02 13 C 10.21 g/m*3 13 C 0 km/h
1124 11-09-2010 08:45:02 13.1 C 10.27 g/m*3 13.1 C 0 km/h
1125 11-09-2010 08:57:02 13.4 C 10.46 g/m*3 13.4 C 0 km/h
Sensor: Nr:Datum:Temp:Abs-Feuchte:Windchill:Wind:
Aussen-T/F 1126 11-09-2010 09:09:02 13.4 C 10.35 g/m*3 13.4 C 0 km/h
1127 11-09-2010 09:21:02 13.5 C 10.41 g/m*3 13.5 C 0 km/h
1128 11-09-2010 09:33:02 13.7 C 10.54 g/m*3 13.7 C 0 km/h
1129 11-09-2010 09:45:01 13.9 C 10.67 g/m*3 13.9 C 0 km/h
1130 11-09-2010 09:57:01 14.3 C 10.81 g/m*3 14.3 C 0 km/h
1131 11-09-2010 10:09:02 14.7 C 11.08 g/m*3 14.7 C 0 km/h
1132 11-09-2010 10:21:01 15 C 11.03 g/m*3 15 C 0 km/h
1133 11-09-2010 10:33:01 15.6 C 11.3 g/m*3 15.6 C 0 km/h
1134 11-09-2010 10:45:01 16.2 C 11.45 g/m*3 16.2 C 0 km/h
1135 11-09-2010 10:57:01 16.8 C 11.72 g/m*3 16.8 C 0 km/h
1136 11-09-2010 11:09:01 17.1 C 11.5 g/m*3 17.1 C 0 km/h
1137 11-09-2010 11:21:02 17.5 C 11.18 g/m*3 17.5 C 0 km/h
1138 11-09-2010 11:33:01 18.2 C 11.35 g/m*3 18.2 C 0 km/h
1139 11-09-2010 11:45:03 19.1 C 11.31 g/m*3 19.1 C 0 km/h
1140 11-09-2010 11:57:03 19.3 C 11.44 g/m*3 19.3 C 0 km/h
1141 11-09-2010 12:09:02 19.2 C 9.89 g/m*3 19.2 C 0 km/h
1142 11-09-2010 12:21:02 19.6 C 9.96 g/m*3 19.6 C 0 km/h
1143 11-09-2010 12:33:02 19.9 C 9.45 g/m*3 19.9 C 0 km/h
1144 11-09-2010 12:45:02 20.2 C 9.27 g/m*3 20.2 C 0 km/h
1145 11-09-2010 12:57:02 20.6 C 9.31 g/m*3 20.6 C 0 km/h
1146 11-09-2010 13:09:02 20.9 C 9.11 g/m*3 20.9 C 0 km/h
1147 11-09-2010 13:21:02 21.3 C 8.76 g/m*3 21.3 C 0 km/h
1148 11-09-2010 13:33:01 21.7 C 8.97 g/m*3 21.7 C 0 km/h
1149 11-09-2010 13:45:02 22.2 C 8.44 g/m*3 22.2 C 0 km/h
1150 11-09-2010 13:57:03 22.7 C 8.69 g/m*3 22.7 C 0 km/h
Sensor: Nr:Datum:Temp:Abs-Feuchte:Windchill:Wind:
Aussen-T/F 1151 11-09-2010 14:09:01 23.3 C 8.15 g/m*3 23.3 C 0 km/h
1152 11-09-2010 14:21:01 23.9 C 8.44 g/m*3 23.9 C 0 km/h
1153 11-09-2010 14:33:02 24.3 C 8.19 g/m*3 24.3 C 0 km/h
1154 11-09-2010 14:45:02 24.5 C 7.83 g/m*3 24.5 C 0 km/h
1155 11-09-2010 14:57:02 25 C 8.06 g/m*3 25 C 0 km/h
1156 11-09-2010 15:09:02 25.6 C 8.09 g/m*3 25.6 C 0 km/h
1157 11-09-2010 15:21:02 25.7 C 7.9 g/m*3 25.7 C 0 km/h
1158 11-09-2010 15:33:02 25.6 C 8.57 g/m*3 25.6 C 0 km/h
1159 11-09-2010 15:45:02 26.5 C 7.51 g/m*3 26.5 C 0 km/h
1160 11-09-2010 15:57:02 26.8 C 7.13 g/m*3 26.8 C 0 km/h
1161 11-09-2010 16:09:02 25.7 C 7.66 g/m*3 25.7 C 0 km/h
1162 11-09-2010 16:21:02 25.3 C 9.13 g/m*3 25.3 C 0 km/h
1163 11-09-2010 16:33:02 26.5 C 8.01 g/m*3 26.5 C 0 km/h
1164 11-09-2010 16:45:02 26.4 C 7.72 g/m*3 26.4 C 0 km/h
1165 11-09-2010 16:57:02 27.8 C 8.34 g/m*3 27.8 C 0 km/h
1166 11-09-2010 17:09:02 28 C 7.61 g/m*3 28 C 0 km/h
1167 11-09-2010 17:21:02 27.3 C 7.85 g/m*3 27.3 C 0 km/h
1168 11-09-2010 17:33:02 27.5 C 8.47 g/m*3 27.5 C 0 km/h
1169 11-09-2010 17:45:02 27.6 C 8.78 g/m*3 27.6 C 0 km/h
1170 11-09-2010 17:57:02 27.7 C 8.83 g/m*3 27.7 C 0 km/h
1171 11-09-2010 18:09:02 27.5 C 9.26 g/m*3 27.5 C 0 km/h
1172 11-09-2010 18:21:02 26.8 C 9.16 g/m*3 26.8 C 0 km/h
1173 11-09-2010 18:33:01 26.3 C 8.91 g/m*3 26.3 C 0 km/h
1174 11-09-2010 18:45:02 25.3 C 9.36 g/m*3 25.3 C 0 km/h
1175 11-09-2010 18:57:02 24.4 C 9.57 g/m*3 24.4 C 0 km/h
Sensor: Nr:Datum:Temp:Abs-Feuchte:Windchill:Wind:
Aussen-T/F 1176 11-09-2010 19:09:01 23.7 C 9.63 g/m*3 23.7 C 0 km/h
1177 11-09-2010 19:21:02 22.6 C 9.64 g/m*3 22.6 C 0 km/h
1178 11-09-2010 19:33:02 21.6 C 10.05 g/m*3 21.6 C 0 km/h
1179 11-09-2010 19:45:02 20.7 C 9.72 g/m*3 20.7 C 0 km/h
1180 11-09-2010 19:57:02 20.2 C 9.44 g/m*3 20.2 C 0 km/h
1181 11-09-2010 20:09:02 20 C 9.33 g/m*3 20 C 0 km/h
1182 11-09-2010 20:21:02 19.5 C 9.4 g/m*3 19.5 C 0 km/h
1183 11-09-2010 20:33:02 19.3 C 9.45 g/m*3 19.3 C 0 km/h
1184 11-09-2010 20:45:01 19.1 C 9.67 g/m*3 19.1 C 0 km/h
1185 11-09-2010 20:57:01 18.8 C 9.66 g/m*3 18.8 C 0 km/h
1186 11-09-2010 21:09:02 18.6 C 9.71 g/m*3 18.6 C 0 km/h
1187 11-09-2010 21:21:01 18.4 C 9.91 g/m*3 18.4 C 0 km/h
1188 11-09-2010 21:33:01 18.2 C 10.1 g/m*3 18.2 C 0 km/h
1189 11-09-2010 21:45:01 17.7 C 10.11 g/m*3 17.7 C 0 km/h
1190 11-09-2010 21:57:01 17.6 C 10.2 g/m*3 17.6 C 0 km/h
1191 11-09-2010 22:09:02 17.6 C 10.2 g/m*3 17.6 C 0 km/h
1192 11-09-2010 22:21:01 17.4 C 10.23 g/m*3 17.4 C 0 km/h
1193 11-09-2010 22:34:03 17.2 C 10.1 g/m*3 17.2 C 0 km/h
1194 11-09-2010 22:46:03 16.9 C 10.36 g/m*3 16.9 C 0 km/h
1195 11-09-2010 22:58:03 16.9 C 10.5 g/m*3 16.9 C 0 km/h
1196 11-09-2010 23:10:03 17 C 10.42 g/m*3 17 C 0 km/h
1197 11-09-2010 23:22:03 16.6 C 10.45 g/m*3 16.6 C 0 km/h
1198 11-09-2010 23:34:03 16.5 C 10.39 g/m*3 16.5 C 0 km/h
1199 11-09-2010 23:46:03 16.4 C 10.33 g/m*3 16.4 C 0 km/h
1200 11-09-2010 23:58:03 16.3 C 10.41 g/m*3 16.3 C 0 km/h
Sensor: Nr:Datum:Temp:Abs-Feuchte:Windchill:Wind:
Aussen-T/F 1201 12-09-2010 00:10:03 16.2 C 10.48 g/m*3 16.2 C 0 km/h
1202 12-09-2010 00:22:03 16.2 C 10.48 g/m*3 16.2 C 0 km/h
1203 12-09-2010 00:34:03 16.1 C 10.42 g/m*3 16.1 C 0 km/h
1204 12-09-2010 00:46:03 16 C 10.35 g/m*3 16 C 0 km/h
1205 12-09-2010 00:58:03 15.8 C 10.36 g/m*3 15.8 C 0 km/h
1206 12-09-2010 01:10:03 15.6 C 10.37 g/m*3 15.6 C 0 km/h
1207 12-09-2010 01:22:04 15.5 C 10.31 g/m*3 15.5 C 0 km/h
1208 12-09-2010 01:34:04 15.2 C 10.25 g/m*3 15.2 C 0 km/h
1209 12-09-2010 01:46:04 15.2 C 10.38 g/m*3 15.2 C 0 km/h
1210 12-09-2010 01:58:04 15.2 C 10.38 g/m*3 15.2 C 0 km/h
1211 12-09-2010 02:10:04 15 C 10.26 g/m*3 15 C 0 km/h
1212 12-09-2010 02:22:04 15 C 10.39 g/m*3 15 C 0 km/h
1213 12-09-2010 02:34:04 14.9 C 10.45 g/m*3 14.9 C 0 km/h
1214 12-09-2010 02:46:04 14.8 C 10.51 g/m*3 14.8 C 0 km/h
1215 12-09-2010 02:58:04 14.7 C 10.32 g/m*3 14.7 C 0 km/h
1216 12-09-2010 03:10:04 14.7 C 10.32 g/m*3 14.7 C 0 km/h
1217 12-09-2010 03:22:04 14.6 C 10.26 g/m*3 14.6 C 0 km/h
1218 12-09-2010 03:34:04 14.4 C 10.14 g/m*3 14.4 C 0 km/h
1219 12-09-2010 03:46:04 14.3 C 10.07 g/m*3 14.3 C 0 km/h
1220 12-09-2010 03:58:04 14.3 C 10.2 g/m*3 14.3 C 0 km/h
1221 12-09-2010 04:10:04 14.2 C 10.14 g/m*3 14.2 C 0 km/h
1222 12-09-2010 04:22:04 14.1 C 10.07 g/m*3 14.1 C 0 km/h
1223 12-09-2010 04:34:05 14.1 C 10.07 g/m*3 14.1 C 0 km/h
1224 12-09-2010 04:46:05 14.1 C 10.07 g/m*3 14.1 C 0 km/h
1225 12-09-2010 04:58:05 14 C 10.01 g/m*3 14 C 0 km/h
Sensor: Nr:Datum:Temp:Abs-Feuchte:Windchill:Wind:
Aussen-T/F 1226 12-09-2010 05:10:05 13.9 C 10.07 g/m*3 13.9 C 0 km/h
1227 12-09-2010 05:22:05 13.7 C 9.95 g/m*3 13.7 C 0 km/h
1228 12-09-2010 05:34:05 13.8 C 10.01 g/m*3 13.8 C 0 km/h
1229 12-09-2010 05:46:05 13.7 C 9.95 g/m*3 13.7 C 0 km/h
1230 12-09-2010 05:58:05 13.7 C 9.95 g/m*3 13.7 C 0 km/h
1231 12-09-2010 06:10:05 13.7 C 9.95 g/m*3 13.7 C 0 km/h
1232 12-09-2010 06:22:05 13.5 C 9.94 g/m*3 13.5 C 0 km/h
1233 12-09-2010 06:34:05 13.5 C 9.94 g/m*3 13.5 C 0 km/h
1234 12-09-2010 06:46:05 13.5 C 9.94 g/m*3 13.5 C 0 km/h
1235 12-09-2010 06:58:05 13.4 C 9.88 g/m*3 13.4 C 0 km/h
1236 12-09-2010 07:10:05 13.5 C 9.94 g/m*3 13.5 C 0 km/h
1237 12-09-2010 07:22:05 13.5 C 10.06 g/m*3 13.5 C 0 km/h
1238 12-09-2010 07:34:05 13.6 C 10.12 g/m*3 13.6 C 0 km/h
1239 12-09-2010 07:46:02 13.8 C 10.25 g/m*3 13.8 C 0 km/h
1240 12-09-2010 07:58:02 14.1 C 10.32 g/m*3 14.1 C 0 km/h
1241 12-09-2010 08:10:02 14.1 C 10.32 g/m*3 14.1 C 0 km/h
1242 12-09-2010 08:22:01 14.4 C 10.38 g/m*3 14.4 C 0 km/h
1243 12-09-2010 08:34:02 14.5 C 10.32 g/m*3 14.5 C 0 km/h
1244 12-09-2010 08:46:02 14 C 10.13 g/m*3 14 C 0 km/h
1245 12-09-2010 08:58:02 14.3 C 10.32 g/m*3 14.3 C 0 km/h
1246 12-09-2010 09:10:02 14.8 C 10.64 g/m*3 14.8 C 0 km/h
1247 12-09-2010 09:22:02 14.8 C 10.39 g/m*3 14.8 C 0 km/h
1248 12-09-2010 09:34:02 14.8 C 10.51 g/m*3 14.8 C 0 km/h
1249 12-09-2010 09:46:02 15 C 10.51 g/m*3 15 C 0 km/h
1250 12-09-2010 09:58:02 14.8 C 10.51 g/m*3 14.8 C 0 km/h
Sensor: Nr:Datum:Temp:Abs-Feuchte:Windchill:Wind:
Aussen-T/F 1251 12-09-2010 10:10:02 15.3 C 10.84 g/m*3 15.3 C 0 km/h
1252 12-09-2010 10:22:03 15.9 C 11.1 g/m*3 15.9 C 0 km/h
1253 12-09-2010 10:34:02 16.8 C 11.29 g/m*3 16.8 C 0 km/h
1254 12-09-2010 10:46:02 18 C 11.37 g/m*3 18 C 0 km/h
1255 12-09-2010 10:58:02 18.7 C 11.05 g/m*3 18.7 C 0 km/h
1256 12-09-2010 11:10:02 19.5 C 10.41 g/m*3 19.5 C 0 km/h
1257 12-09-2010 11:22:02 20.2 C 10.67 g/m*3 20.2 C 0 km/h
1258 12-09-2010 11:34:02 20.1 C 10.6 g/m*3 20.1 C 0 km/h
1259 12-09-2010 11:46:02 20 C 10.89 g/m*3 20 C 0 km/h
1260 12-09-2010 11:58:02 20.3 C 10.9 g/m*3 20.3 C 0 km/h
1261 12-09-2010 12:10:01 20.5 C 10.85 g/m*3 20.5 C 0 km/h
1262 12-09-2010 12:22:02 20.9 C 11.11 g/m*3 20.9 C 0 km/h
1263 12-09-2010 12:34:01 21.4 C 11.06 g/m*3 21.4 C 0 km/h
1264 12-09-2010 12:46:01 22.4 C 10.33 g/m*3 22.4 C 0 km/h
1265 12-09-2010 12:58:02 22.9 C 10.22 g/m*3 22.9 C 0 km/h
1266 12-09-2010 13:10:01 23.1 C 10.34 g/m*3 23.1 C 0 km/h
1267 12-09-2010 13:22:01 23.7 C 10.48 g/m*3 23.7 C 0 km/h
1268 12-09-2010 13:34:02 24.3 C 9.74 g/m*3 24.3 C 0 km/h
1269 12-09-2010 13:46:02 25 C 8.98 g/m*3 25 C 0 km/h
1270 12-09-2010 13:58:02 25.9 C 9.44 g/m*3 25.9 C 0 km/h
1271 12-09-2010 14:10:02 25.7 C 9.34 g/m*3 25.7 C 0 km/h
1272 12-09-2010 14:22:01 25 C 8.06 g/m*3 25 C 0 km/h
1273 12-09-2010 14:34:02 24.7 C 8.15 g/m*3 24.7 C 0 km/h
1274 12-09-2010 14:46:02 23.1 C 9.72 g/m*3 23.1 C 0 km/h
1275 12-09-2010 14:58:02 20.8 C 10.14 g/m*3 20.8 C 0 km/h
Sensor: Nr:Datum:Temp:Abs-Feuchte:Windchill:Wind:
Aussen-T/F 1276 12-09-2010 15:10:02 19.5 C 9.23 g/m*3 19.5 C 0 km/h
1277 12-09-2010 15:22:02 19.1 C 8.69 g/m*3 19.1 C 0 km/h
1278 12-09-2010 15:34:02 19.4 C 8.84 g/m*3 19.4 C 0 km/h
1279 12-09-2010 15:46:02 19.4 C 8.84 g/m*3 19.4 C 0 km/h
1280 12-09-2010 15:58:02 19.2 C 8.74 g/m*3 19.2 C 0 km/h
1281 12-09-2010 16:10:02 17.9 C 8.86 g/m*3 17.9 C 0 km/h
1282 12-09-2010 16:22:02 18.1 C 9.12 g/m*3 18.1 C 0 km/h
1283 12-09-2010 16:34:02 18.1 C 9.27 g/m*3 18.1 C 0 km/h
1284 12-09-2010 16:46:02 17.6 C 9.3 g/m*3 17.6 C 0 km/h
1285 12-09-2010 16:58:02 17.2 C 9.37 g/m*3 17.2 C 0 km/h
1286 12-09-2010 17:10:02 17.2 C 9.52 g/m*3 17.2 C 0 km/h
1287 12-09-2010 17:22:02 16.6 C 9.04 g/m*3 16.6 C 0 km/h
1288 12-09-2010 17:34:01 16.1 C 9.46 g/m*3 16.1 C 0 km/h
1289 12-09-2010 17:46:02 15.6 C 9.97 g/m*3 15.6 C 0 km/h
1290 12-09-2010 17:58:02 15.5 C 10.31 g/m*3 15.5 C 0 km/h
1291 12-09-2010 18:10:01 15.2 C 10.25 g/m*3 15.2 C 0 km/h
1292 12-09-2010 18:22:02 15.2 C 10.51 g/m*3 15.2 C 0 km/h
1293 12-09-2010 18:34:02 14.9 C 10.58 g/m*3 14.9 C 0 km/h
1294 12-09-2010 18:46:02 14.7 C 10.7 g/m*3 14.7 C 0 km/h
1295 12-09-2010 18:58:02 14.6 C 10.89 g/m*3 14.6 C 0 km/h
1296 12-09-2010 19:10:02 14.5 C 10.82 g/m*3 14.5 C 0 km/h
1297 12-09-2010 19:22:02 14.3 C 10.69 g/m*3 14.3 C 0 km/h
1298 12-09-2010 19:34:02 14.1 C 10.68 g/m*3 14.1 C 0 km/h
1299 12-09-2010 19:46:01 14.3 C 10.93 g/m*3 14.3 C 0 km/h
1300 12-09-2010 19:58:01 14.1 C 10.8 g/m*3 14.1 C 0 km/h
Sensor: Nr:Datum:Temp:Abs-Feuchte:Windchill:Wind:
Aussen-T/F 1301 12-09-2010 20:10:02 14 C 10.74 g/m*3 14 C 0 km/h
1302 12-09-2010 20:22:01 13.9 C 10.79 g/m*3 13.9 C 0 km/h
1303 12-09-2010 20:34:01 13.8 C 10.84 g/m*3 13.8 C 0 km/h
1304 12-09-2010 20:46:01 13.7 C 10.78 g/m*3 13.7 C 0 km/h
1305 12-09-2010 20:58:01 13.7 C 10.89 g/m*3 13.7 C 0 km/h
1306 12-09-2010 21:10:02 13.6 C 10.83 g/m*3 13.6 C 0 km/h
1307 12-09-2010 21:22:01 13.7 C 10.89 g/m*3 13.7 C 0 km/h
1308 12-09-2010 21:34:01 13.7 C 10.89 g/m*3 13.7 C 0 km/h
1309 12-09-2010 21:46:01 13.9 C 11.15 g/m*3 13.9 C 0 km/h
1310 12-09-2010 21:58:01 14 C 11.1 g/m*3 14 C 0 km/h
1311 12-09-2010 22:10:02 13.9 C 11.15 g/m*3 13.9 C 0 km/h
1312 12-09-2010 22:22:01 13.9 C 11.15 g/m*3 13.9 C 0 km/h
1313 12-09-2010 22:34:02 13.8 C 11.08 g/m*3 13.8 C 0 km/h
1314 12-09-2010 22:46:02 13.7 C 11.01 g/m*3 13.7 C 0 km/h
1315 12-09-2010 22:58:02 13.6 C 10.95 g/m*3 13.6 C 0 km/h
1316 12-09-2010 23:10:01 13.5 C 10.88 g/m*3 13.5 C 0 km/h
1317 12-09-2010 23:22:02 13.5 C 10.88 g/m*3 13.5 C 0 km/h
1318 12-09-2010 23:34:02 13.5 C 10.88 g/m*3 13.5 C 0 km/h
1319 12-09-2010 23:46:02 13.7 C 11.01 g/m*3 13.7 C 0 km/h
1320 12-09-2010 23:58:02 13.7 C 11.01 g/m*3 13.7 C 0 km/h
1321 13-09-2010 00:10:03 13.7 C 11.01 g/m*3 13.7 C 0 km/h
1322 13-09-2010 00:22:02 13.6 C 10.95 g/m*3 13.6 C 0 km/h
1323 13-09-2010 00:34:02 13.7 C 11.01 g/m*3 13.7 C 0 km/h
1324 13-09-2010 00:46:02 13.7 C 11.01 g/m*3 13.7 C 0 km/h
1325 13-09-2010 00:58:02 13.7 C 11.01 g/m*3 13.7 C 0 km/h
Sensor: Nr:Datum:Temp:Abs-Feuchte:Windchill:Wind:
Aussen-T/F 1326 13-09-2010 01:10:02 13.6 C 10.95 g/m*3 13.6 C 0 km/h
1327 13-09-2010 01:22:03 13.7 C 11.01 g/m*3 13.7 C 0 km/h
1328 13-09-2010 01:34:02 13.8 C 11.08 g/m*3 13.8 C 0 km/h
1329 13-09-2010 01:46:02 13.7 C 11.01 g/m*3 13.7 C 0 km/h
1330 13-09-2010 01:58:02 13.7 C 11.01 g/m*3 13.7 C 0 km/h
1331 13-09-2010 02:10:02 13.7 C 11.01 g/m*3 13.7 C 0 km/h
1332 13-09-2010 02:22:02 13.5 C 10.88 g/m*3 13.5 C 0 km/h
1333 13-09-2010 02:34:02 13.4 C 10.81 g/m*3 13.4 C 0 km/h
1334 13-09-2010 02:46:02 13.4 C 10.81 g/m*3 13.4 C 0 km/h
1335 13-09-2010 02:58:02 13.6 C 10.95 g/m*3 13.6 C 0 km/h
1336 13-09-2010 03:10:01 13.5 C 10.88 g/m*3 13.5 C 0 km/h
1337 13-09-2010 03:22:01 13.3 C 10.63 g/m*3 13.3 C 0 km/h
1338 13-09-2010 03:34:02 13.2 C 10.56 g/m*3 13.2 C 0 km/h
1339 13-09-2010 03:46:02 13.2 C 10.45 g/m*3 13.2 C 0 km/h
1340 13-09-2010 03:58:02 13.1 C 10.38 g/m*3 13.1 C 0 km/h
1341 13-09-2010 04:10:01 13 C 10.21 g/m*3 13 C 0 km/h
1342 13-09-2010 04:22:02 12.8 C 10.19 g/m*3 12.8 C 0 km/h
1343 13-09-2010 04:34:01 12.9 C 10.26 g/m*3 12.9 C 0 km/h
1344 13-09-2010 04:46:01 13.1 C 10.16 g/m*3 13.1 C 0 km/h
1345 13-09-2010 04:58:02 13.2 C 10.22 g/m*3 13.2 C 0 km/h
1346 13-09-2010 05:10:01 13.3 C 10.05 g/m*3 13.3 C 0 km/h
1347 13-09-2010 05:22:01 13.3 C 9.82 g/m*3 13.3 C 0 km/h
1348 13-09-2010 05:34:02 13.2 C 9.64 g/m*3 13.2 C 0 km/h
1349 13-09-2010 05:46:01 13.2 C 9.64 g/m*3 13.2 C 0 km/h
1350 13-09-2010 05:58:01 13.3 C 9.7 g/m*3 13.3 C 0 km/h
Sensor: Nr:Datum:Temp:Abs-Feuchte:Windchill:Wind:
Aussen-T/F 1351 13-09-2010 06:10:02 13.4 C 9.76 g/m*3 13.4 C 0 km/h
1352 13-09-2010 06:22:01 13.4 C 9.65 g/m*3 13.4 C 0 km/h
1353 13-09-2010 06:34:01 13.3 C 9.59 g/m*3 13.3 C 0 km/h
1354 13-09-2010 06:46:01 13.2 C 9.42 g/m*3 13.2 C 0 km/h
1355 13-09-2010 06:58:01 13.2 C 9.42 g/m*3 13.2 C 0 km/h
1356 13-09-2010 07:10:02 13 C 9.19 g/m*3 13 C 0 km/h
1357 13-09-2010 07:22:01 13 C 9.3 g/m*3 13 C 0 km/h
1358 13-09-2010 07:34:01 12.7 C 9.13 g/m*3 12.7 C 0 km/h
1359 13-09-2010 07:46:01 12.5 C 9.13 g/m*3 12.5 C 0 km/h
1360 13-09-2010 07:58:01 12.4 C 9.18 g/m*3 12.4 C 0 km/h
1361 13-09-2010 08:10:01 12.5 C 9.35 g/m*3 12.5 C 0 km/h
1362 13-09-2010 08:22:01 13 C 9.64 g/m*3 13 C 0 km/h
1363 13-09-2010 08:34:01 13.1 C 9.7 g/m*3 13.1 C 0 km/h
1364 13-09-2010 08:46:02 13.2 C 9.64 g/m*3 13.2 C 0 km/h
1365 13-09-2010 08:58:02 13.4 C 9.76 g/m*3 13.4 C 0 km/h
1366 13-09-2010 09:10:01 13.5 C 9.71 g/m*3 13.5 C 0 km/h
1367 13-09-2010 09:22:02 13.7 C 9.71 g/m*3 13.7 C 0 km/h
1368 13-09-2010 09:34:01 14 C 9.41 g/m*3 14 C 0 km/h
1369 13-09-2010 09:46:02 14.2 C 9.28 g/m*3 14.2 C 0 km/h
1370 13-09-2010 09:58:02 14.5 C 9.2 g/m*3 14.5 C 0 km/h
1371 13-09-2010 10:10:01 14.8 C 9.25 g/m*3 14.8 C 0 km/h
1372 13-09-2010 10:22:01 15 C 9.1 g/m*3 15 C 0 km/h
1373 13-09-2010 10:34:02 15.3 C 9.14 g/m*3 15.3 C 0 km/h
1374 13-09-2010 10:46:01 15.6 C 8.91 g/m*3 15.6 C 0 km/h
1375 13-09-2010 10:58:01 15.9 C 8.8 g/m*3 15.9 C 0 km/h
Sensor: Nr:Datum:Temp:Abs-Feuchte:Windchill:Wind:
Aussen-T/F 1376 13-09-2010 11:10:01 16 C 8.58 g/m*3 16 C 0 km/h
1377 13-09-2010 11:22:01 16.4 C 8.65 g/m*3 16.4 C 0 km/h
1378 13-09-2010 11:34:02 16.3 C 8.74 g/m*3 16.3 C 0 km/h
1379 13-09-2010 11:46:01 17.1 C 8.59 g/m*3 17.1 C 0 km/h
1380 13-09-2010 11:58:01 16.7 C 8.24 g/m*3 16.7 C 0 km/h
1381 13-09-2010 12:10:02 16.4 C 8.23 g/m*3 16.4 C 0 km/h
1382 13-09-2010 12:22:01 16.9 C 8.2 g/m*3 16.9 C 0 km/h
1383 13-09-2010 12:34:01 17.6 C 7.8 g/m*3 17.6 C 0 km/h
1384 13-09-2010 12:46:01 17.6 C 7.5 g/m*3 17.6 C 0 km/h
1385 13-09-2010 12:58:01 17.7 C 7.85 g/m*3 17.7 C 0 km/h
1386 13-09-2010 13:10:01 18 C 7.37 g/m*3 18 C 0 km/h
1387 13-09-2010 13:22:01 18.9 C 7.78 g/m*3 18.9 C 0 km/h
1388 13-09-2010 13:34:01 18.9 C 7.45 g/m*3 18.9 C 0 km/h
1389 13-09-2010 13:46:01 18.7 C 7.2 g/m*3 18.7 C 0 km/h
1390 13-09-2010 13:58:01 20.2 C 7.87 g/m*3 20.2 C 0 km/h
1391 13-09-2010 14:10:01 19.9 C 7.22 g/m*3 19.9 C 0 km/h
1392 13-09-2010 14:22:02 19.5 C 6.55 g/m*3 19.5 C 0 km/h
1393 13-09-2010 14:34:01 19.6 C 6.75 g/m*3 19.6 C 0 km/h
1394 13-09-2010 14:46:02 20.6 C 7.34 g/m*3 20.6 C 0 km/h
1395 13-09-2010 14:58:02 21.3 C 6.9 g/m*3 21.3 C 0 km/h
1396 13-09-2010 15:10:01 20.9 C 6.74 g/m*3 20.9 C 0 km/h
1397 13-09-2010 15:22:01 21.3 C 6.9 g/m*3 21.3 C 0 km/h
1398 13-09-2010 15:34:01 21.2 C 6.67 g/m*3 21.2 C 0 km/h
1399 13-09-2010 15:46:01 20.6 C 7.16 g/m*3 20.6 C 0 km/h
1400 13-09-2010 15:58:01 20 C 7.95 g/m*3 20 C 0 km/h
Sensor: Nr:Datum:Temp:Abs-Feuchte:Windchill:Wind:
Aussen-T/F 1401 13-09-2010 16:10:01 20.8 C 7.97 g/m*3 20.8 C 0 km/h
1402 13-09-2010 16:22:02 21.4 C 6.37 g/m*3 21.4 C 0 km/h
1403 13-09-2010 16:34:01 21.4 C 7.5 g/m*3 21.4 C 0 km/h
1404 13-09-2010 16:46:02 21.8 C 6.52 g/m*3 21.8 C 0 km/h
1405 13-09-2010 16:58:02 22.4 C 6.16 g/m*3 22.4 C 0 km/h
1406 13-09-2010 17:10:01 22.3 C 7.11 g/m*3 22.3 C 0 km/h
1407 13-09-2010 17:22:01 20.5 C 7.65 g/m*3 20.5 C 0 km/h
1408 13-09-2010 17:34:01 20.2 C 7.87 g/m*3 20.2 C 0 km/h
1409 13-09-2010 17:46:01 19.8 C 8.37 g/m*3 19.8 C 0 km/h
1410 13-09-2010 17:58:02 19.6 C 8.61 g/m*3 19.6 C 0 km/h
1411 13-09-2010 18:10:02 18.9 C 8.75 g/m*3 18.9 C 0 km/h
1412 13-09-2010 18:22:02 18.4 C 8.65 g/m*3 18.4 C 0 km/h
1413 13-09-2010 18:34:01 18.2 C 8.55 g/m*3 18.2 C 0 km/h
1414 13-09-2010 18:46:02 17.9 C 8.55 g/m*3 17.9 C 0 km/h
1415 13-09-2010 18:58:02 17.7 C 8.6 g/m*3 17.7 C 0 km/h
1416 13-09-2010 19:10:01 17.7 C 8.6 g/m*3 17.7 C 0 km/h
1417 13-09-2010 19:22:02 17.5 C 8.5 g/m*3 17.5 C 0 km/h
1418 13-09-2010 19:34:01 17 C 8.68 g/m*3 17 C 0 km/h
1419 13-09-2010 19:46:02 16.4 C 8.51 g/m*3 16.4 C 0 km/h
1420 13-09-2010 19:58:02 16 C 8.45 g/m*3 16 C 0 km/h
1421 13-09-2010 20:10:01 15.6 C 8.64 g/m*3 15.6 C 0 km/h
1422 13-09-2010 20:22:01 15.4 C 8.8 g/m*3 15.4 C 0 km/h
1423 13-09-2010 20:34:01 15.2 C 8.96 g/m*3 15.2 C 0 km/h
1424 13-09-2010 20:46:01 15.1 C 9.03 g/m*3 15.1 C 0 km/h
1425 13-09-2010 20:58:02 14.9 C 9.05 g/m*3 14.9 C 0 km/h
Sensor: Nr:Datum:Temp:Abs-Feuchte:Windchill:Wind:
Aussen-T/F 1426 13-09-2010 21:10:01 14.7 C 8.94 g/m*3 14.7 C 0 km/h
1427 13-09-2010 21:22:01 14.6 C 9.01 g/m*3 14.6 C 0 km/h
1428 13-09-2010 21:34:02 14.5 C 8.95 g/m*3 14.5 C 0 km/h
1429 13-09-2010 21:46:01 14.4 C 8.9 g/m*3 14.4 C 0 km/h
1430 13-09-2010 21:58:01 14.4 C 9.02 g/m*3 14.4 C 0 km/h
1431 13-09-2010 22:10:01 14.1 C 8.86 g/m*3 14.1 C 0 km/h
1432 13-09-2010 22:23:05 13.8 C 8.82 g/m*3 13.8 C 0 km/h
1433 13-09-2010 22:35:05 13.7 C 8.88 g/m*3 13.7 C 0 km/h
1434 13-09-2010 22:47:05 13.5 C 8.89 g/m*3 13.5 C 0 km/h
1435 13-09-2010 22:59:05 13.4 C 8.83 g/m*3 13.4 C 0 km/h
1436 13-09-2010 23:11:05 13.3 C 8.78 g/m*3 13.3 C 0 km/h
1437 13-09-2010 23:23:05 13.3 C 9.01 g/m*3 13.3 C 0 km/h
1438 13-09-2010 23:35:05 13.1 C 8.9 g/m*3 13.1 C 0 km/h
1439 13-09-2010 23:47:05 13 C 8.73 g/m*3 13 C 0 km/h
1440 13-09-2010 23:59:05 13 C 8.85 g/m*3 13 C 0 km/h
1441 14-09-2010 00:11:05 13 C 8.96 g/m*3 13 C 0 km/h
1442 14-09-2010 00:23:05 12.8 C 9.18 g/m*3 12.8 C 0 km/h
1443 14-09-2010 00:35:05 12.8 C 9.3 g/m*3 12.8 C 0 km/h
1444 14-09-2010 00:47:05 12.8 C 9.3 g/m*3 12.8 C 0 km/h
1445 14-09-2010 00:59:05 12.7 C 9.24 g/m*3 12.7 C 0 km/h
1446 14-09-2010 01:11:05 12.6 C 9.18 g/m*3 12.6 C 0 km/h
1447 14-09-2010 01:23:05 12.7 C 9.24 g/m*3 12.7 C 0 km/h
1448 14-09-2010 01:35:05 12.8 C 9.3 g/m*3 12.8 C 0 km/h
1449 14-09-2010 01:47:05 12.9 C 9.35 g/m*3 12.9 C 0 km/h
1450 14-09-2010 01:59:05 13 C 9.3 g/m*3 13 C 0 km/h
Sensor: Nr:Datum:Temp:Abs-Feuchte:Windchill:Wind:
Aussen-T/F 1451 14-09-2010 02:11:05 13 C 9.3 g/m*3 13 C 0 km/h
1452 14-09-2010 02:23:05 13 C 9.3 g/m*3 13 C 0 km/h
1453 14-09-2010 02:35:06 13.1 C 9.36 g/m*3 13.1 C 0 km/h
1454 14-09-2010 02:47:06 13.2 C 9.42 g/m*3 13.2 C 0 km/h
1455 14-09-2010 02:59:06 13.2 C 9.3 g/m*3 13.2 C 0 km/h
1456 14-09-2010 03:11:06 13.4 C 9.18 g/m*3 13.4 C 0 km/h
1457 14-09-2010 03:23:06 13.4 C 9.18 g/m*3 13.4 C 0 km/h
1458 14-09-2010 03:35:06 13.3 C 9.24 g/m*3 13.3 C 0 km/h
1459 14-09-2010 03:47:06 13.3 C 9.24 g/m*3 13.3 C 0 km/h
1460 14-09-2010 03:59:06 13.4 C 9.3 g/m*3 13.4 C 0 km/h
1461 14-09-2010 04:11:06 13.2 C 9.19 g/m*3 13.2 C 0 km/h
1462 14-09-2010 04:23:06 13 C 9.3 g/m*3 13 C 0 km/h
1463 14-09-2010 04:35:06 12.8 C 9.41 g/m*3 12.8 C 0 km/h
1464 14-09-2010 04:47:06 12.9 C 9.58 g/m*3 12.9 C 0 km/h
1465 14-09-2010 04:59:06 12.8 C 9.63 g/m*3 12.8 C 0 km/h
1466 14-09-2010 05:11:06 12.9 C 9.81 g/m*3 12.9 C 0 km/h
1467 14-09-2010 05:23:06 12.9 C 9.81 g/m*3 12.9 C 0 km/h
1468 14-09-2010 05:35:06 13 C 9.87 g/m*3 13 C 0 km/h
1469 14-09-2010 05:47:06 13 C 9.87 g/m*3 13 C 0 km/h
1470 14-09-2010 05:59:06 13 C 9.87 g/m*3 13 C 0 km/h
1471 14-09-2010 06:11:06 13.3 C 10.05 g/m*3 13.3 C 0 km/h
1472 14-09-2010 06:23:06 13.5 C 9.83 g/m*3 13.5 C 0 km/h
1473 14-09-2010 06:35:06 13.8 C 9.06 g/m*3 13.8 C 0 km/h
1474 14-09-2010 06:47:06 14.5 C 8.83 g/m*3 14.5 C 0 km/h
1475 14-09-2010 06:59:07 14.4 C 8.53 g/m*3 14.4 C 0 km/h
Sensor: Nr:Datum:Temp:Abs-Feuchte:Windchill:Wind:
Aussen-T/F 1476 14-09-2010 07:11:07 14.4 C 8.53 g/m*3 14.4 C 0 km/h
1477 14-09-2010 07:23:07 14.4 C 8.65 g/m*3 14.4 C 0 km/h
1478 14-09-2010 07:35:04 14.3 C 8.85 g/m*3 14.3 C 0 km/h
1479 14-09-2010 07:47:02 13.6 C 9.18 g/m*3 13.6 C 0 km/h
1480 14-09-2010 07:59:02 13.6 C 9.42 g/m*3 13.6 C 0 km/h
1481 14-09-2010 08:11:01 13.7 C 9.47 g/m*3 13.7 C 0 km/h
1482 14-09-2010 08:23:02 13.7 C 9.47 g/m*3 13.7 C 0 km/h
1483 14-09-2010 08:35:02 14.1 C 9.34 g/m*3 14.1 C 0 km/h
1484 14-09-2010 08:47:02 14.4 C 9.15 g/m*3 14.4 C 0 km/h
1485 14-09-2010 08:59:02 14.6 C 9.13 g/m*3 14.6 C 0 km/h
1486 14-09-2010 09:11:01 14.7 C 9.07 g/m*3 14.7 C 0 km/h
1487 14-09-2010 09:23:02 14.8 C 9.12 g/m*3 14.8 C 0 km/h
1488 14-09-2010 09:35:02 15.1 C 9.03 g/m*3 15.1 C 0 km/h
1489 14-09-2010 09:47:01 15.6 C 9.04 g/m*3 15.6 C 0 km/h
1490 14-09-2010 09:59:01 15.6 C 9.04 g/m*3 15.6 C 0 km/h
1491 14-09-2010 10:11:02 15.6 C 9.04 g/m*3 15.6 C 0 km/h
1492 14-09-2010 10:23:01 15.7 C 9.1 g/m*3 15.7 C 0 km/h
1493 14-09-2010 10:35:01 16 C 8.99 g/m*3 16 C 0 km/h
1494 14-09-2010 10:47:01 16.4 C 8.93 g/m*3 16.4 C 0 km/h
1495 14-09-2010 10:59:01 16.8 C 9.29 g/m*3 16.8 C 0 km/h
1496 14-09-2010 11:11:02 17 C 8.97 g/m*3 17 C 0 km/h
1497 14-09-2010 11:23:01 17.1 C 9.03 g/m*3 17.1 C 0 km/h
1498 14-09-2010 11:35:01 17 C 9.12 g/m*3 17 C 0 km/h
1499 14-09-2010 11:47:01 16.7 C 9.24 g/m*3 16.7 C 0 km/h
1500 14-09-2010 11:59:01 17.5 C 9.39 g/m*3 17.5 C 0 km/h
Sensor: Nr:Datum:Temp:Abs-Feuchte:Windchill:Wind:
Aussen-T/F 1501 14-09-2010 12:11:02 17.8 C 9.26 g/m*3 17.8 C 0 km/h
1502 14-09-2010 12:23:02 18.2 C 9.01 g/m*3 18.2 C 0 km/h
1503 14-09-2010 12:35:01 18.5 C 9.18 g/m*3 18.5 C 0 km/h
1504 14-09-2010 12:47:02 18.8 C 9.18 g/m*3 18.8 C 0 km/h
1505 14-09-2010 12:59:02 18.9 C 9.23 g/m*3 18.9 C 0 km/h
1506 14-09-2010 13:11:01 19.6 C 9.28 g/m*3 19.6 C 0 km/h
1507 14-09-2010 13:23:01 19.7 C 9.34 g/m*3 19.7 C 0 km/h
1508 14-09-2010 13:35:01 20.2 C 9.44 g/m*3 20.2 C 0 km/h
1509 14-09-2010 13:47:02 20.4 C 9.02 g/m*3 20.4 C 0 km/h
1510 14-09-2010 13:59:02 20 C 8.99 g/m*3 20 C 0 km/h
1511 14-09-2010 14:11:02 19.7 C 8.83 g/m*3 19.7 C 0 km/h
1512 14-09-2010 14:23:02 19.7 C 9 g/m*3 19.7 C 0 km/h
1513 14-09-2010 14:35:02 19.8 C 8.71 g/m*3 19.8 C 0 km/h
1514 14-09-2010 14:47:01 19.6 C 8.78 g/m*3 19.6 C 0 km/h
1515 14-09-2010 14:59:01 19.5 C 8.89 g/m*3 19.5 C 0 km/h
1516 14-09-2010 15:11:02 20 C 8.81 g/m*3 20 C 0 km/h
1517 14-09-2010 15:23:01 20 C 8.64 g/m*3 20 C 0 km/h
1518 14-09-2010 15:35:02 20.4 C 8.67 g/m*3 20.4 C 0 km/h
1519 14-09-2010 15:47:01 20.7 C 8.46 g/m*3 20.7 C 0 km/h
1520 14-09-2010 15:59:01 20.9 C 8.56 g/m*3 20.9 C 0 km/h
1521 14-09-2010 16:11:02 20.8 C 8.15 g/m*3 20.8 C 0 km/h
1522 14-09-2010 16:23:01 20.9 C 8.2 g/m*3 20.9 C 0 km/h
1523 14-09-2010 16:35:02 20.6 C 7.7 g/m*3 20.6 C 0 km/h
1524 14-09-2010 16:47:01 20.6 C 7.7 g/m*3 20.6 C 0 km/h
1525 14-09-2010 16:59:01 20.5 C 7.65 g/m*3 20.5 C 0 km/h
Sensor: Nr:Datum:Temp:Abs-Feuchte:Windchill:Wind:
Aussen-T/F 1526 14-09-2010 17:11:02 20.5 C 7.47 g/m*3 20.5 C 0 km/h
1527 14-09-2010 17:23:01 20.4 C 7.43 g/m*3 20.4 C 0 km/h
1528 14-09-2010 17:35:01 20 C 7.26 g/m*3 20 C 0 km/h
1529 14-09-2010 17:47:01 20 C 7.43 g/m*3 20 C 0 km/h
1530 14-09-2010 17:59:01 19.8 C 7.69 g/m*3 19.8 C 0 km/h
1531 14-09-2010 18:11:01 19.6 C 7.77 g/m*3 19.6 C 0 km/h
1532 14-09-2010 18:23:02 19.4 C 7.84 g/m*3 19.4 C 0 km/h
1533 14-09-2010 18:35:01 19.3 C 7.8 g/m*3 19.3 C 0 km/h
1534 14-09-2010 18:47:02 19.3 C 7.8 g/m*3 19.3 C 0 km/h
1535 14-09-2010 18:59:02 19.1 C 7.87 g/m*3 19.1 C 0 km/h
1536 14-09-2010 19:11:01 19 C 7.82 g/m*3 19 C 0 km/h
1537 14-09-2010 19:23:01 18.9 C 7.78 g/m*3 18.9 C 0 km/h
1538 14-09-2010 19:35:01 18.7 C 7.68 g/m*3 18.7 C 0 km/h
1539 14-09-2010 19:47:02 18.7 C 7.68 g/m*3 18.7 C 0 km/h
1540 14-09-2010 19:59:03 18.7 C 7.68 g/m*3 18.7 C 0 km/h
1541 14-09-2010 20:11:01 18.7 C 7.68 g/m*3 18.7 C 0 km/h
1542 14-09-2010 20:23:02 18.6 C 7.64 g/m*3 18.6 C 0 km/h
1543 14-09-2010 20:35:02 18.7 C 7.68 g/m*3 18.7 C 0 km/h
1544 14-09-2010 20:47:02 18.5 C 7.75 g/m*3 18.5 C 0 km/h
1545 14-09-2010 20:59:02 18.5 C 7.75 g/m*3 18.5 C 0 km/h
1546 14-09-2010 21:11:03 18.5 C 7.75 g/m*3 18.5 C 0 km/h
1547 14-09-2010 21:23:02 18.5 C 7.75 g/m*3 18.5 C 0 km/h
1548 14-09-2010 21:35:02 18.6 C 7.96 g/m*3 18.6 C 0 km/h
1549 14-09-2010 21:47:01 18.5 C 7.75 g/m*3 18.5 C 0 km/h
1550 14-09-2010 21:59:01 18.6 C 7.64 g/m*3 18.6 C 0 km/h
Sensor: Nr:Datum:Temp:Abs-Feuchte:Windchill:Wind:
Aussen-T/F 1551 14-09-2010 22:12:03 18.6 C 7.8 g/m*3 18.6 C 0 km/h
1552 14-09-2010 22:24:03 18.5 C 7.75 g/m*3 18.5 C 0 km/h
1553 14-09-2010 22:36:03 18.4 C 7.86 g/m*3 18.4 C 0 km/h
1554 14-09-2010 22:48:03 18.5 C 7.91 g/m*3 18.5 C 0 km/h
1555 14-09-2010 23:00:03 18.5 C 7.91 g/m*3 18.5 C 0 km/h
1556 14-09-2010 23:12:03 18.4 C 7.86 g/m*3 18.4 C 0 km/h
1557 14-09-2010 23:24:03 18.2 C 7.77 g/m*3 18.2 C 0 km/h
1558 14-09-2010 23:36:04 18 C 7.99 g/m*3 18 C 0 km/h
1559 14-09-2010 23:48:04 18 C 7.99 g/m*3 18 C 0 km/h
1560 15-09-2010 00:00:04 18 C 7.99 g/m*3 18 C 0 km/h
1561 15-09-2010 00:12:04 18 C 7.83 g/m*3 18 C 0 km/h
1562 15-09-2010 00:24:04 18 C 7.83 g/m*3 18 C 0 km/h
1563 15-09-2010 00:36:04 18 C 7.83 g/m*3 18 C 0 km/h
1564 15-09-2010 00:48:04 18.1 C 7.88 g/m*3 18.1 C 0 km/h
1565 15-09-2010 01:00:04 18.1 C 7.73 g/m*3 18.1 C 0 km/h
1566 15-09-2010 01:12:04 18.1 C 7.73 g/m*3 18.1 C 0 km/h
1567 15-09-2010 01:24:04 18.2 C 7.62 g/m*3 18.2 C 0 km/h
1568 15-09-2010 01:36:04 18.3 C 7.66 g/m*3 18.3 C 0 km/h
1569 15-09-2010 01:48:04 18.2 C 7.62 g/m*3 18.2 C 0 km/h
1570 15-09-2010 02:00:04 18.3 C 7.66 g/m*3 18.3 C 0 km/h
1571 15-09-2010 02:12:04 18.4 C 7.55 g/m*3 18.4 C 0 km/h
1572 15-09-2010 02:24:04 18.4 C 7.55 g/m*3 18.4 C 0 km/h
1573 15-09-2010 02:36:05 18.3 C 7.66 g/m*3 18.3 C 0 km/h
1574 15-09-2010 02:48:05 18.2 C 7.77 g/m*3 18.2 C 0 km/h
1575 15-09-2010 03:00:05 18.2 C 7.93 g/m*3 18.2 C 0 km/h
Sensor: Nr:Datum:Temp:Abs-Feuchte:Windchill:Wind:
Aussen-T/F 1576 15-09-2010 03:12:05 18.1 C 8.03 g/m*3 18.1 C 0 km/h
1577 15-09-2010 03:24:05 18 C 8.29 g/m*3 18 C 0 km/h
1578 15-09-2010 03:36:05 18 C 8.45 g/m*3 18 C 0 km/h
1579 15-09-2010 03:48:05 18 C 8.45 g/m*3 18 C 0 km/h
1580 15-09-2010 04:00:05 17.9 C 8.7 g/m*3 17.9 C 0 km/h
1581 15-09-2010 04:12:05 17.9 C 9.01 g/m*3 17.9 C 0 km/h
1582 15-09-2010 04:24:05 17.7 C 9.05 g/m*3 17.7 C 0 km/h
1583 15-09-2010 04:36:05 17.6 C 9.3 g/m*3 17.6 C 0 km/h
1584 15-09-2010 04:48:05 17.4 C 9.48 g/m*3 17.4 C 0 km/h
1585 15-09-2010 05:00:05 17.4 C 9.48 g/m*3 17.4 C 0 km/h
1586 15-09-2010 05:12:05 16.9 C 10.07 g/m*3 16.9 C 0 km/h
1587 15-09-2010 05:24:05 14.4 C 9.27 g/m*3 14.4 C 0 km/h
1588 15-09-2010 05:36:05 13.3 C 9.7 g/m*3 13.3 C 0 km/h
1589 15-09-2010 05:48:05 13 C 9.87 g/m*3 13 C 0 km/h
1590 15-09-2010 06:00:05 12.9 C 10.03 g/m*3 12.9 C 0 km/h
1591 15-09-2010 06:12:05 12.8 C 10.08 g/m*3 12.8 C 0 km/h
1592 15-09-2010 06:24:05 12.7 C 10.02 g/m*3 12.7 C 0 km/h
1593 15-09-2010 06:36:05 12.7 C 10.13 g/m*3 12.7 C 0 km/h
1594 15-09-2010 06:48:05 12.8 C 10.19 g/m*3 12.8 C 0 km/h
1595 15-09-2010 07:00:06 12.8 C 10.3 g/m*3 12.8 C 0 km/h
1596 15-09-2010 07:12:06 12.7 C 10.24 g/m*3 12.7 C 0 km/h
1597 15-09-2010 07:24:06 12.7 C 10.24 g/m*3 12.7 C 0 km/h
1598 15-09-2010 07:36:03 12.8 C 10.3 g/m*3 12.8 C 0 km/h
1599 15-09-2010 07:48:02 12.7 C 10.35 g/m*3 12.7 C 0 km/h
1600 15-09-2010 08:00:02 12.6 C 10.29 g/m*3 12.6 C 0 km/h
Sensor: Nr:Datum:Temp:Abs-Feuchte:Windchill:Wind:
Aussen-T/F 1601 15-09-2010 08:12:02 12.7 C 10.35 g/m*3 12.7 C 0 km/h
1602 15-09-2010 08:24:02 12.7 C 10.35 g/m*3 12.7 C 0 km/h
1603 15-09-2010 08:36:01 12.8 C 10.42 g/m*3 12.8 C 0 km/h
1604 15-09-2010 08:48:02 12.7 C 10.35 g/m*3 12.7 C 0 km/h
1605 15-09-2010 09:00:02 12.5 C 10.22 g/m*3 12.5 C 0 km/h
1606 15-09-2010 09:12:01 12.7 C 10.35 g/m*3 12.7 C 0 km/h
1607 15-09-2010 09:24:01 12.7 C 10.24 g/m*3 12.7 C 0 km/h
1608 15-09-2010 09:36:02 13.1 C 10.38 g/m*3 13.1 C 0 km/h
1609 15-09-2010 09:48:02 13.6 C 10.59 g/m*3 13.6 C 0 km/h
1610 15-09-2010 10:00:02 14 C 10.49 g/m*3 14 C 0 km/h
1611 15-09-2010 10:12:02 14 C 10.01 g/m*3 14 C 0 km/h
1612 15-09-2010 10:24:02 14.1 C 9.95 g/m*3 14.1 C 0 km/h
1613 15-09-2010 10:36:02 14.1 C 9.71 g/m*3 14.1 C 0 km/h
1614 15-09-2010 10:48:02 14.1 C 9.59 g/m*3 14.1 C 0 km/h
1615 15-09-2010 11:00:02 14.2 C 9.52 g/m*3 14.2 C 0 km/h
1616 15-09-2010 11:12:02 14.6 C 9.01 g/m*3 14.6 C 0 km/h
1617 15-09-2010 11:24:02 15 C 8.72 g/m*3 15 C 0 km/h
1618 15-09-2010 11:36:02 15.6 C 8.51 g/m*3 15.6 C 0 km/h
1619 15-09-2010 11:48:01 15.7 C 8.43 g/m*3 15.7 C 0 km/h
1620 15-09-2010 12:00:01 16.2 C 7.31 g/m*3 16.2 C 0 km/h
1621 15-09-2010 12:12:01 16.4 C 7.4 g/m*3 16.4 C 0 km/h
1622 15-09-2010 12:24:01 17.2 C 7.18 g/m*3 17.2 C 0 km/h
1623 15-09-2010 12:36:01 16.6 C 7.06 g/m*3 16.6 C 0 km/h
1624 15-09-2010 12:48:02 16.1 C 6.17 g/m*3 16.1 C 0 km/h
1625 15-09-2010 13:00:02 16.1 C 6.44 g/m*3 16.1 C 0 km/h
Sensor: Nr:Datum:Temp:Abs-Feuchte:Windchill:Wind:
Aussen-T/F 1626 15-09-2010 13:12:02 16.4 C 6.7 g/m*3 16.4 C 0 km/h
1627 15-09-2010 13:24:02 17.4 C 6.52 g/m*3 17.4 C 0 km/h
1628 15-09-2010 13:36:02 17.9 C 5.95 g/m*3 17.9 C 0 km/h
1629 15-09-2010 13:48:02 18.4 C 5.82 g/m*3 18.4 C 0 km/h
1630 15-09-2010 14:00:02 18.5 C 5.7 g/m*3 18.5 C 0 km/h
1631 15-09-2010 14:12:02 18.1 C 5.87 g/m*3 18.1 C 0 km/h
1632 15-09-2010 14:24:02 18.5 C 5.54 g/m*3 18.5 C 0 km/h
1633 15-09-2010 14:36:02 18.3 C 5.47 g/m*3 18.3 C 0 km/h
1634 15-09-2010 14:48:02 18.5 C 5.7 g/m*3 18.5 C 0 km/h
1635 15-09-2010 15:00:03 19.5 C 5.87 g/m*3 19.5 C 0 km/h
1636 15-09-2010 15:12:01 19.6 C 5.4 g/m*3 19.6 C 0 km/h
1637 15-09-2010 15:24:01 19.3 C 5.64 g/m*3 19.3 C 0 km/h
1638 15-09-2010 15:36:02 19.2 C 5.94 g/m*3 19.2 C 0 km/h
1639 15-09-2010 15:48:02 20 C 5.88 g/m*3 20 C 0 km/h
1640 15-09-2010 16:00:02 19.6 C 5.91 g/m*3 19.6 C 0 km/h
1641 15-09-2010 16:12:02 19.6 C 5.91 g/m*3 19.6 C 0 km/h
1642 15-09-2010 16:24:02 19.3 C 5.97 g/m*3 19.3 C 0 km/h
1643 15-09-2010 16:36:02 19.6 C 6.08 g/m*3 19.6 C 0 km/h
1644 15-09-2010 16:48:02 19.5 C 6.04 g/m*3 19.5 C 0 km/h
1645 15-09-2010 17:00:02 20.4 C 5.84 g/m*3 20.4 C 0 km/h
1646 15-09-2010 17:12:02 19 C 5.7 g/m*3 19 C 0 km/h
1647 15-09-2010 17:24:02 19.4 C 6.01 g/m*3 19.4 C 0 km/h
1648 15-09-2010 17:36:02 19.9 C 5.84 g/m*3 19.9 C 0 km/h
1649 15-09-2010 17:48:02 19.7 C 5.6 g/m*3 19.7 C 0 km/h
1650 15-09-2010 18:00:02 18.7 C 5.44 g/m*3 18.7 C 0 km/h
Sensor: Nr:Datum:Temp:Abs-Feuchte:Windchill:Wind:
Aussen-T/F 1651 15-09-2010 18:12:02 18.2 C 5.28 g/m*3 18.2 C 0 km/h
1652 15-09-2010 18:24:03 17.5 C 5.22 g/m*3 17.5 C 0 km/h
1653 15-09-2010 18:36:02 17.7 C 5.28 g/m*3 17.7 C 0 km/h
1654 15-09-2010 18:48:02 17.1 C 5.39 g/m*3 17.1 C 0 km/h
1655 15-09-2010 19:00:02 16.9 C 5.61 g/m*3 16.9 C 0 km/h
1656 15-09-2010 19:12:02 16.7 C 5.4 g/m*3 16.7 C 0 km/h
1657 15-09-2010 19:24:02 16.6 C 5.65 g/m*3 16.6 C 0 km/h
1658 15-09-2010 19:36:02 16.4 C 5.72 g/m*3 16.4 C 0 km/h
1659 15-09-2010 19:48:02 16.4 C 5.86 g/m*3 16.4 C 0 km/h
1660 15-09-2010 20:00:02 16.2 C 6.07 g/m*3 16.2 C 0 km/h
1661 15-09-2010 20:12:02 16 C 6.27 g/m*3 16 C 0 km/h
1662 15-09-2010 20:24:02 15.8 C 6.46 g/m*3 15.8 C 0 km/h
1663 15-09-2010 20:36:01 15.7 C 6.15 g/m*3 15.7 C 0 km/h
1664 15-09-2010 20:48:02 15.5 C 6.34 g/m*3 15.5 C 0 km/h
1665 15-09-2010 21:00:03 15.4 C 6.31 g/m*3 15.4 C 0 km/h
1666 15-09-2010 21:12:01 15.2 C 6.49 g/m*3 15.2 C 0 km/h
1667 15-09-2010 21:24:01 15 C 6.41 g/m*3 15 C 0 km/h
1668 15-09-2010 21:37:02 15.1 C 6.32 g/m*3 15.1 C 0 km/h
1669 15-09-2010 21:49:02 15.2 C 6.36 g/m*3 15.2 C 0 km/h
1670 15-09-2010 22:01:02 15.1 C 6.32 g/m*3 15.1 C 0 km/h
1671 15-09-2010 22:13:02 15.1 C 6.06 g/m*3 15.1 C 0 km/h
1672 15-09-2010 22:25:02 14.9 C 5.86 g/m*3 14.9 C 0 km/h
1673 15-09-2010 22:37:02 14.8 C 5.83 g/m*3 14.8 C 0 km/h
1674 15-09-2010 22:49:02 14.9 C 5.74 g/m*3 14.9 C 0 km/h
1675 15-09-2010 23:01:02 15 C 5.51 g/m*3 15 C 0 km/h
Sensor: Nr:Datum:Temp:Abs-Feuchte:Windchill:Wind:
Aussen-T/F 1676 15-09-2010 23:13:02 15 C 5.51 g/m*3 15 C 0 km/h
1677 15-09-2010 23:25:02 14.9 C 5.74 g/m*3 14.9 C 0 km/h
1678 15-09-2010 23:37:02 14.8 C 5.7 g/m*3 14.8 C 0 km/h
1679 15-09-2010 23:49:02 14.6 C 5.76 g/m*3 14.6 C 0 km/h
1680 16-09-2010 00:01:02 14.5 C 5.97 g/m*3 14.5 C 0 km/h
1681 16-09-2010 00:13:02 14.4 C 5.93 g/m*3 14.4 C 0 km/h
1682 16-09-2010 00:25:02 14.2 C 5.86 g/m*3 14.2 C 0 km/h
1683 16-09-2010 00:37:02 13.8 C 5.96 g/m*3 13.8 C 0 km/h
1684 16-09-2010 00:49:02 14 C 5.79 g/m*3 14 C 0 km/h
1685 16-09-2010 01:01:02 14.1 C 5.58 g/m*3 14.1 C 0 km/h
1686 16-09-2010 01:13:03 14.2 C 5.49 g/m*3 14.2 C 0 km/h
1687 16-09-2010 01:25:03 14.1 C 5.34 g/m*3 14.1 C 0 km/h
1688 16-09-2010 01:37:03 14.1 C 5.34 g/m*3 14.1 C 0 km/h
1689 16-09-2010 01:49:03 14 C 5.31 g/m*3 14 C 0 km/h
1690 16-09-2010 02:01:03 13.9 C 5.51 g/m*3 13.9 C 0 km/h
1691 16-09-2010 02:13:03 14.1 C 5.58 g/m*3 14.1 C 0 km/h
1692 16-09-2010 02:25:03 14 C 5.79 g/m*3 14 C 0 km/h
1693 16-09-2010 02:37:03 13.7 C 5.92 g/m*3 13.7 C 0 km/h
1694 16-09-2010 02:49:03 14 C 6.15 g/m*3 14 C 0 km/h
1695 16-09-2010 03:01:03 13.9 C 6.35 g/m*3 13.9 C 0 km/h
1696 16-09-2010 03:13:03 13.9 C 6.59 g/m*3 13.9 C 0 km/h
1697 16-09-2010 03:25:03 13.9 C 6.71 g/m*3 13.9 C 0 km/h
1698 16-09-2010 03:37:03 13.8 C 6.79 g/m*3 13.8 C 0 km/h
1699 16-09-2010 03:49:03 13.7 C 7.1 g/m*3 13.7 C 0 km/h
1700 16-09-2010 04:01:03 13.2 C 7.12 g/m*3 13.2 C 0 km/h
Sensor: Nr:Datum:Temp:Abs-Feuchte:Windchill:Wind:
Aussen-T/F 1701 16-09-2010 04:13:03 13.6 C 6.94 g/m*3 13.6 C 0 km/h
1702 16-09-2010 04:25:03 13.7 C 6.87 g/m*3 13.7 C 0 km/h
1703 16-09-2010 04:37:03 13.7 C 6.99 g/m*3 13.7 C 0 km/h
1704 16-09-2010 04:49:03 13.7 C 6.99 g/m*3 13.7 C 0 km/h
1705 16-09-2010 05:01:03 13.7 C 6.99 g/m*3 13.7 C 0 km/h
1706 16-09-2010 05:13:03 13.6 C 7.06 g/m*3 13.6 C 0 km/h
1707 16-09-2010 05:25:04 13.2 C 7.35 g/m*3 13.2 C 0 km/h
1708 16-09-2010 05:37:04 13.1 C 7.42 g/m*3 13.1 C 0 km/h
1709 16-09-2010 05:49:04 13.2 C 7.46 g/m*3 13.2 C 0 km/h
1710 16-09-2010 06:01:04 13.1 C 7.65 g/m*3 13.1 C 0 km/h
1711 16-09-2010 06:13:04 12.6 C 7.97 g/m*3 12.6 C 0 km/h
1712 16-09-2010 06:25:04 12.5 C 8.03 g/m*3 12.5 C 0 km/h
1713 16-09-2010 06:37:04 12.1 C 8.26 g/m*3 12.1 C 0 km/h
1714 16-09-2010 06:49:04 11.9 C 8.47 g/m*3 11.9 C 0 km/h
1715 16-09-2010 07:01:04 11.9 C 8.47 g/m*3 11.9 C 0 km/h
1716 16-09-2010 07:13:04 11.9 C 8.58 g/m*3 11.9 C 0 km/h
1717 16-09-2010 07:25:04 11.9 C 8.79 g/m*3 11.9 C 0 km/h
1718 16-09-2010 07:37:04 11.6 C 8.73 g/m*3 11.6 C 0 km/h
1719 16-09-2010 07:49:04 11.6 C 8.83 g/m*3 11.6 C 0 km/h
1720 16-09-2010 08:01:02 11.6 C 8.83 g/m*3 11.6 C 0 km/h
1721 16-09-2010 08:13:02 11.7 C 8.79 g/m*3 11.7 C 0 km/h
1722 16-09-2010 08:25:02 12 C 8.85 g/m*3 12 C 0 km/h
1723 16-09-2010 08:37:02 12 C 8.85 g/m*3 12 C 0 km/h
1724 16-09-2010 08:49:02 12 C 8.85 g/m*3 12 C 0 km/h
1725 16-09-2010 09:01:02 12 C 8.95 g/m*3 12 C 0 km/h
Sensor: Nr:Datum:Temp:Abs-Feuchte:Windchill:Wind:
Aussen-T/F 1726 16-09-2010 09:13:02 12.1 C 9.01 g/m*3 12.1 C 0 km/h
1727 16-09-2010 09:25:01 12.6 C 9.29 g/m*3 12.6 C 0 km/h
1728 16-09-2010 09:37:02 13 C 9.41 g/m*3 13 C 0 km/h
1729 16-09-2010 09:49:02 13.5 C 9.59 g/m*3 13.5 C 0 km/h
1730 16-09-2010 10:01:02 13.7 C 9.12 g/m*3 13.7 C 0 km/h
1731 16-09-2010 10:13:02 14 C 8.68 g/m*3 14 C 0 km/h
1732 16-09-2010 10:25:02 14 C 8.56 g/m*3 14 C 0 km/h
1733 16-09-2010 10:37:02 14.3 C 8.35 g/m*3 14.3 C 0 km/h
1734 16-09-2010 10:49:02 14.6 C 8.51 g/m*3 14.6 C 0 km/h
1735 16-09-2010 11:01:02 15.2 C 8.18 g/m*3 15.2 C 0 km/h
1736 16-09-2010 11:13:02 15 C 8.08 g/m*3 15 C 0 km/h
1737 16-09-2010 11:25:02 15.2 C 8.44 g/m*3 15.2 C 0 km/h
1738 16-09-2010 11:37:02 15.1 C 8.26 g/m*3 15.1 C 0 km/h
1739 16-09-2010 11:49:01 15.8 C 8.21 g/m*3 15.8 C 0 km/h
1740 16-09-2010 12:01:02 16.4 C 7.82 g/m*3 16.4 C 0 km/h
1741 16-09-2010 12:13:02 16.7 C 7.82 g/m*3 16.7 C 0 km/h
1742 16-09-2010 12:25:02 17.2 C 7.61 g/m*3 17.2 C 0 km/h
1743 16-09-2010 12:37:02 17.1 C 7.42 g/m*3 17.1 C 0 km/h
1744 16-09-2010 12:49:02 17.7 C 7.69 g/m*3 17.7 C 0 km/h
1745 16-09-2010 13:01:01 17.7 C 7.09 g/m*3 17.7 C 0 km/h
1746 16-09-2010 13:13:01 17.9 C 7.02 g/m*3 17.9 C 0 km/h
1747 16-09-2010 13:25:02 17.4 C 6.97 g/m*3 17.4 C 0 km/h
1748 16-09-2010 13:37:01 16.9 C 7.34 g/m*3 16.9 C 0 km/h
1749 16-09-2010 13:49:01 16.7 C 7.39 g/m*3 16.7 C 0 km/h
1750 16-09-2010 14:01:01 17 C 7.23 g/m*3 17 C 0 km/h
Sensor: Nr:Datum:Temp:Abs-Feuchte:Windchill:Wind:
Aussen-T/F 1751 16-09-2010 14:13:01 16 C 7.36 g/m*3 16 C 0 km/h
1752 16-09-2010 14:25:01 14 C 8.81 g/m*3 14 C 0 km/h
1753 16-09-2010 14:37:02 14.2 C 9.52 g/m*3 14.2 C 0 km/h
1754 16-09-2010 14:49:02 15.2 C 10.25 g/m*3 15.2 C 0 km/h
1755 16-09-2010 15:01:02 15.9 C 10.29 g/m*3 15.9 C 0 km/h
1756 16-09-2010 15:13:02 16.8 C 9.44 g/m*3 16.8 C 0 km/h
1757 16-09-2010 15:25:01 17 C 8.97 g/m*3 17 C 0 km/h
1758 16-09-2010 15:37:02 18.5 C 9.02 g/m*3 18.5 C 0 km/h
1759 16-09-2010 15:49:02 17.9 C 7.79 g/m*3 17.9 C 0 km/h
1760 16-09-2010 16:01:02 18.3 C 7.82 g/m*3 18.3 C 0 km/h
1761 16-09-2010 16:13:03 17.4 C 7.56 g/m*3 17.4 C 0 km/h
1762 16-09-2010 16:25:01 16.6 C 8.05 g/m*3 16.6 C 0 km/h
1763 16-09-2010 16:37:02 15 C 8.85 g/m*3 15 C 0 km/h
1764 16-09-2010 16:49:02 14.5 C 9.7 g/m*3 14.5 C 0 km/h
1765 16-09-2010 17:01:02 14.5 C 9.83 g/m*3 14.5 C 0 km/h
1766 16-09-2010 17:13:02 15.1 C 10.06 g/m*3 15.1 C 0 km/h
1767 16-09-2010 17:25:02 15.5 C 9.65 g/m*3 15.5 C 0 km/h
1768 16-09-2010 17:37:02 15.2 C 9.22 g/m*3 15.2 C 0 km/h
1769 16-09-2010 17:49:02 16.2 C 8.69 g/m*3 16.2 C 0 km/h
1770 16-09-2010 18:01:02 15.3 C 8.88 g/m*3 15.3 C 0 km/h
1771 16-09-2010 18:13:02 15 C 8.72 g/m*3 15 C 0 km/h
1772 16-09-2010 18:25:02 15 C 8.85 g/m*3 15 C 0 km/h
1773 16-09-2010 18:37:01 14.8 C 8.99 g/m*3 14.8 C 0 km/h
1774 16-09-2010 18:49:02 14.4 C 9.27 g/m*3 14.4 C 0 km/h
1775 16-09-2010 19:01:01 13.8 C 9.41 g/m*3 13.8 C 0 km/h
Sensor: Nr:Datum:Temp:Abs-Feuchte:Windchill:Wind:
Aussen-T/F 1776 16-09-2010 19:13:01 13.5 C 9.59 g/m*3 13.5 C 0 km/h
1777 16-09-2010 19:25:02 13.4 C 9.76 g/m*3 13.4 C 0 km/h
1778 16-09-2010 19:37:02 13.3 C 9.82 g/m*3 13.3 C 0 km/h
1779 16-09-2010 19:49:02 13.1 C 9.81 g/m*3 13.1 C 0 km/h
1780 16-09-2010 20:01:02 13 C 9.87 g/m*3 13 C 0 km/h
1781 16-09-2010 20:13:02 13 C 9.98 g/m*3 13 C 0 km/h
1782 16-09-2010 20:25:02 12.8 C 10.08 g/m*3 12.8 C 0 km/h
1783 16-09-2010 20:37:02 12.7 C 10.02 g/m*3 12.7 C 0 km/h
1784 16-09-2010 20:49:02 12.7 C 10.13 g/m*3 12.7 C 0 km/h
1785 16-09-2010 21:01:02 12.6 C 10.07 g/m*3 12.6 C 0 km/h
1786 16-09-2010 21:13:02 12.7 C 10.13 g/m*3 12.7 C 0 km/h
1787 16-09-2010 21:25:01 12.7 C 10.13 g/m*3 12.7 C 0 km/h
1788 16-09-2010 21:37:02 12.6 C 10.07 g/m*3 12.6 C 0 km/h
1789 16-09-2010 21:49:02 12.5 C 10 g/m*3 12.5 C 0 km/h
1790 16-09-2010 22:01:02 12.2 C 9.71 g/m*3 12.2 C 0 km/h
1791 16-09-2010 22:13:02 12.2 C 9.6 g/m*3 12.2 C 0 km/h
1792 16-09-2010 22:25:02 12.2 C 9.6 g/m*3 12.2 C 0 km/h
1793 16-09-2010 22:38:02 12.2 C 9.5 g/m*3 12.2 C 0 km/h
1794 16-09-2010 22:50:02 12.2 C 9.5 g/m*3 12.2 C 0 km/h
1795 16-09-2010 23:02:02 12.2 C 9.5 g/m*3 12.2 C 0 km/h
1796 16-09-2010 23:14:02 12.1 C 9.33 g/m*3 12.1 C 0 km/h
1797 16-09-2010 23:26:02 12.1 C 9.22 g/m*3 12.1 C 0 km/h
1798 16-09-2010 23:38:02 12.1 C 9.22 g/m*3 12.1 C 0 km/h
1799 16-09-2010 23:50:02 12 C 9.17 g/m*3 12 C 0 km/h
1800 17-09-2010 00:02:02 12.1 C 9.12 g/m*3 12.1 C 0 km/h
Sensor: Nr:Datum:Temp:Abs-Feuchte:Windchill:Wind:
Aussen-T/F 1801 17-09-2010 00:14:02 12.1 C 9.22 g/m*3 12.1 C 0 km/h
1802 17-09-2010 00:26:02 12.2 C 9.28 g/m*3 12.2 C 0 km/h
1803 17-09-2010 00:38:02 12.2 C 9.28 g/m*3 12.2 C 0 km/h
1804 17-09-2010 00:50:02 12.2 C 9.28 g/m*3 12.2 C 0 km/h
1805 17-09-2010 01:02:02 12.1 C 9.22 g/m*3 12.1 C 0 km/h
1806 17-09-2010 01:14:03 12.1 C 9.22 g/m*3 12.1 C 0 km/h
1807 17-09-2010 01:26:03 12.1 C 9.33 g/m*3 12.1 C 0 km/h
1808 17-09-2010 01:38:03 12 C 9.27 g/m*3 12 C 0 km/h
1809 17-09-2010 01:50:03 12 C 9.27 g/m*3 12 C 0 km/h
1810 17-09-2010 02:02:03 11.9 C 9.32 g/m*3 11.9 C 0 km/h
1811 17-09-2010 02:14:03 11.9 C 9.32 g/m*3 11.9 C 0 km/h
1812 17-09-2010 02:26:03 12 C 9.38 g/m*3 12 C 0 km/h
1813 17-09-2010 02:38:03 12 C 9.27 g/m*3 12 C 0 km/h
1814 17-09-2010 02:50:03 12 C 9.17 g/m*3 12 C 0 km/h
1815 17-09-2010 03:02:03 12.1 C 9.01 g/m*3 12.1 C 0 km/h
1816 17-09-2010 03:14:03 12.1 C 8.9 g/m*3 12.1 C 0 km/h
1817 17-09-2010 03:26:03 12.1 C 8.9 g/m*3 12.1 C 0 km/h
1818 17-09-2010 03:38:03 12 C 8.95 g/m*3 12 C 0 km/h
1819 17-09-2010 03:50:03 12 C 8.95 g/m*3 12 C 0 km/h
1820 17-09-2010 04:02:03 12 C 9.06 g/m*3 12 C 0 km/h
1821 17-09-2010 04:14:03 11.9 C 8.9 g/m*3 11.9 C 0 km/h
1822 17-09-2010 04:26:03 12 C 8.85 g/m*3 12 C 0 km/h
1823 17-09-2010 04:38:03 11.8 C 8.63 g/m*3 11.8 C 0 km/h
1824 17-09-2010 04:50:03 12 C 8.21 g/m*3 12 C 0 km/h
1825 17-09-2010 05:02:03 11.9 C 8.15 g/m*3 11.9 C 0 km/h
Sensor: Nr:Datum:Temp:Abs-Feuchte:Windchill:Wind:
Aussen-T/F 1826 17-09-2010 05:14:03 11.5 C 8.16 g/m*3 11.5 C 0 km/h
1827 17-09-2010 05:26:04 11.1 C 8.16 g/m*3 11.1 C 0 km/h
1828 17-09-2010 05:38:04 10.8 C 8.3 g/m*3 10.8 C 0 km/h
1829 17-09-2010 05:50:04 10.7 C 8.35 g/m*3 10.7 C 0 km/h
1830 17-09-2010 06:02:04 10.5 C 8.34 g/m*3 10.5 C 0 km/h
1831 17-09-2010 06:14:04 10.5 C 8.44 g/m*3 10.5 C 0 km/h
1832 17-09-2010 06:26:04 10.7 C 8.74 g/m*3 10.7 C 0 km/h
1833 17-09-2010 06:38:04 10.8 C 8.8 g/m*3 10.8 C 0 km/h
1834 17-09-2010 06:50:04 10.5 C 8.63 g/m*3 10.5 C 0 km/h
1835 17-09-2010 07:02:02 10.2 C 8.37 g/m*3 10.2 C 0 km/h
1836 17-09-2010 07:14:02 10 C 8.27 g/m*3 10 C 0 km/h
1837 17-09-2010 07:26:02 9.9 C 8.31 g/m*3 9.9 C 0 km/h
1838 17-09-2010 07:38:01 10 C 7.99 g/m*3 10 C 0 km/h
1839 17-09-2010 07:50:02 10 C 7.8 g/m*3 10 C 0 km/h
1840 17-09-2010 08:02:01 9.9 C 7.84 g/m*3 9.9 C 0 km/h
1841 17-09-2010 08:14:01 10 C 7.8 g/m*3 10 C 0 km/h
1842 17-09-2010 08:26:01 10.1 C 7.66 g/m*3 10.1 C 0 km/h
1843 17-09-2010 08:38:01 10.3 C 7.57 g/m*3 10.3 C 0 km/h
1844 17-09-2010 08:50:01 10.8 C 7.41 g/m*3 10.8 C 0 km/h
1845 17-09-2010 09:02:01 10.8 C 7.31 g/m*3 10.8 C 0 km/h
1846 17-09-2010 09:14:01 10.7 C 7.27 g/m*3 10.7 C 0 km/h
1847 17-09-2010 09:26:02 10.8 C 7.31 g/m*3 10.8 C 0 km/h
1848 17-09-2010 09:38:01 10.9 C 7.26 g/m*3 10.9 C 0 km/h
1849 17-09-2010 09:50:02 11.1 C 7.25 g/m*3 11.1 C 0 km/h
1850 17-09-2010 10:02:02 11.4 C 7.39 g/m*3 11.4 C 0 km/h
Sensor: Nr:Datum:Temp:Abs-Feuchte:Windchill:Wind:
Aussen-T/F 1851 17-09-2010 10:14:02 11.7 C 7.53 g/m*3 11.7 C 0 km/h
1852 17-09-2010 10:26:02 12.1 C 7.61 g/m*3 12.1 C 0 km/h
1853 17-09-2010 10:38:01 12.4 C 7.54 g/m*3 12.4 C 0 km/h
1854 17-09-2010 10:50:02 12.7 C 7.68 g/m*3 12.7 C 0 km/h
1855 17-09-2010 11:02:01 13.1 C 7.65 g/m*3 13.1 C 0 km/h
1856 17-09-2010 11:14:01 13.3 C 7.63 g/m*3 13.3 C 0 km/h
1857 17-09-2010 11:26:01 13.8 C 7.74 g/m*3 13.8 C 0 km/h
1858 17-09-2010 11:38:02 14.1 C 7.4 g/m*3 14.1 C 0 km/h
1859 17-09-2010 11:50:02 14.3 C 7.37 g/m*3 14.3 C 0 km/h
1860 17-09-2010 12:02:02 15.2 C 7.01 g/m*3 15.2 C 0 km/h
1861 17-09-2010 12:14:02 15.2 C 6.62 g/m*3 15.2 C 0 km/h
1862 17-09-2010 12:26:02 15.7 C 6.42 g/m*3 15.7 C 0 km/h
1863 17-09-2010 12:38:02 16.2 C 6.62 g/m*3 16.2 C 0 km/h
1864 17-09-2010 12:50:02 16.2 C 6.21 g/m*3 16.2 C 0 km/h
1865 17-09-2010 13:02:02 15.9 C 6.23 g/m*3 15.9 C 0 km/h
1866 17-09-2010 13:14:02 16.2 C 5.93 g/m*3 16.2 C 0 km/h
1867 17-09-2010 13:26:02 16.3 C 5.83 g/m*3 16.3 C 0 km/h
1868 17-09-2010 13:38:02 17 C 5.79 g/m*3 17 C 0 km/h
1869 17-09-2010 13:50:02 17.9 C 5.65 g/m*3 17.9 C 0 km/h
1870 17-09-2010 14:02:02 18.5 C 5.54 g/m*3 18.5 C 0 km/h
1871 17-09-2010 14:14:02 17.1 C 5.24 g/m*3 17.1 C 0 km/h
1872 17-09-2010 14:26:02 16.8 C 5.29 g/m*3 16.8 C 0 km/h
1873 17-09-2010 14:38:02 17.4 C 5.34 g/m*3 17.4 C 0 km/h
1874 17-09-2010 14:50:02 18.3 C 5 g/m*3 18.3 C 0 km/h
1875 17-09-2010 15:02:02 18.6 C 4.93 g/m*3 18.6 C 0 km/h
Sensor: Nr:Datum:Temp:Abs-Feuchte:Windchill:Wind:
Aussen-T/F 1876 17-09-2010 15:14:02 18.2 C 4.97 g/m*3 18.2 C 0 km/h
1877 17-09-2010 15:26:02 17.2 C 5.13 g/m*3 17.2 C 0 km/h
1878 17-09-2010 15:38:02 16.6 C 5.09 g/m*3 16.6 C 0 km/h
1879 17-09-2010 15:50:02 16.8 C 5.15 g/m*3 16.8 C 0 km/h
1880 17-09-2010 16:02:02 18.4 C 5.19 g/m*3 18.4 C 0 km/h
1881 17-09-2010 16:14:02 18.9 C 5.02 g/m*3 18.9 C 0 km/h
1882 17-09-2010 16:26:02 19.3 C 4.81 g/m*3 19.3 C 0 km/h
1883 17-09-2010 16:38:01 18.9 C 4.86 g/m*3 18.9 C 0 km/h
1884 17-09-2010 16:50:02 19.8 C 4.78 g/m*3 19.8 C 0 km/h
1885 17-09-2010 17:02:01 20.1 C 4.69 g/m*3 20.1 C 0 km/h
1886 17-09-2010 17:14:01 19.7 C 4.25 g/m*3 19.7 C 0 km/h
1887 17-09-2010 17:26:01 18.8 C 4.35 g/m*3 18.8 C 0 km/h
1888 17-09-2010 17:38:02 19.3 C 4.31 g/m*3 19.3 C 0 km/h
1889 17-09-2010 17:50:02 19.4 C 4.67 g/m*3 19.4 C 0 km/h
1890 17-09-2010 18:02:02 17.5 C 5.22 g/m*3 17.5 C 0 km/h
1891 17-09-2010 18:14:02 16 C 5.99 g/m*3 16 C 0 km/h
1892 17-09-2010 18:26:02 17.2 C 6.3 g/m*3 17.2 C 0 km/h
1893 17-09-2010 18:38:02 16.3 C 6.24 g/m*3 16.3 C 0 km/h
1894 17-09-2010 18:50:01 16.3 C 6.66 g/m*3 16.3 C 0 km/h
1895 17-09-2010 19:02:01 16.3 C 6.66 g/m*3 16.3 C 0 km/h
1896 17-09-2010 19:14:02 15.7 C 6.56 g/m*3 15.7 C 0 km/h
1897 17-09-2010 19:26:01 15 C 6.54 g/m*3 15 C 0 km/h
1898 17-09-2010 19:38:01 14.7 C 6.8 g/m*3 14.7 C 0 km/h
1899 17-09-2010 19:50:02 14.5 C 6.84 g/m*3 14.5 C 0 km/h
1900 17-09-2010 20:02:02 14.5 C 6.96 g/m*3 14.5 C 0 km/h
Sensor: Nr:Datum:Temp:Abs-Feuchte:Windchill:Wind:
Aussen-T/F 1901 17-09-2010 20:14:02 14.5 C 6.96 g/m*3 14.5 C 0 km/h
1902 17-09-2010 20:26:02 14.5 C 7.09 g/m*3 14.5 C 0 km/h
1903 17-09-2010 20:38:02 14.1 C 7.28 g/m*3 14.1 C 0 km/h
1904 17-09-2010 20:50:01 13.7 C 6.99 g/m*3 13.7 C 0 km/h
1905 17-09-2010 21:02:02 13.7 C 7.22 g/m*3 13.7 C 0 km/h
1906 17-09-2010 21:14:02 13.5 C 7.13 g/m*3 13.5 C 0 km/h
1907 17-09-2010 21:26:01 13.4 C 7.09 g/m*3 13.4 C 0 km/h
1908 17-09-2010 21:38:01 13.4 C 7.09 g/m*3 13.4 C 0 km/h
1909 17-09-2010 21:50:01 13.4 C 7.21 g/m*3 13.4 C 0 km/h
1910 17-09-2010 22:02:01 13.6 C 6.94 g/m*3 13.6 C 0 km/h
1911 17-09-2010 22:14:01 13.6 C 6.71 g/m*3 13.6 C 0 km/h
1912 17-09-2010 22:26:02 13.4 C 6.63 g/m*3 13.4 C 0 km/h
1913 17-09-2010 22:39:36 13.1 C 6.62 g/m*3 13.1 C 0 km/h
1914 17-09-2010 22:51:37 13 C 6.69 g/m*3 13 C 0 km/h
1915 17-09-2010 23:03:37 12.8 C 6.72 g/m*3 12.8 C 0 km/h
1916 17-09-2010 23:15:37 12.6 C 6.75 g/m*3 12.6 C 0 km/h
1917 17-09-2010 23:27:37 12.6 C 6.86 g/m*3 12.6 C 0 km/h
1918 17-09-2010 23:39:37 12.5 C 6.82 g/m*3 12.5 C 0 km/h
1919 17-09-2010 23:51:37 12.4 C 6.88 g/m*3 12.4 C 0 km/h
1920 18-09-2010 00:03:37 12.2 C 6.8 g/m*3 12.2 C 0 km/h
1921 18-09-2010 00:15:37 12.3 C 6.95 g/m*3 12.3 C 0 km/h
1922 18-09-2010 00:27:37 12 C 6.82 g/m*3 12 C 0 km/h
1923 18-09-2010 00:39:37 12 C 7.03 g/m*3 12 C 0 km/h
1924 18-09-2010 00:51:37 12.1 C 7.08 g/m*3 12.1 C 0 km/h
1925 18-09-2010 01:03:37 11.9 C 7.2 g/m*3 11.9 C 0 km/h
Sensor: Nr:Datum:Temp:Abs-Feuchte:Windchill:Wind:
Aussen-T/F 1926 18-09-2010 01:15:37 11.2 C 6.99 g/m*3 11.2 C 0 km/h
1927 18-09-2010 01:27:37 10.8 C 7.02 g/m*3 10.8 C 0 km/h
1928 18-09-2010 01:39:37 10.4 C 6.94 g/m*3 10.4 C 0 km/h
1929 18-09-2010 01:51:37 10.2 C 6.85 g/m*3 10.2 C 0 km/h
1930 18-09-2010 02:03:37 10.2 C 6.95 g/m*3 10.2 C 0 km/h
1931 18-09-2010 02:15:37 10 C 7.05 g/m*3 10 C 0 km/h
1932 18-09-2010 02:27:37 10 C 7.24 g/m*3 10 C 0 km/h
1933 18-09-2010 02:39:37 9.8 C 7.33 g/m*3 9.8 C 0 km/h
1934 18-09-2010 02:51:37 10 C 7.42 g/m*3 10 C 0 km/h
1935 18-09-2010 03:03:38 9.9 C 7.47 g/m*3 9.9 C 0 km/h
1936 18-09-2010 03:15:38 9.5 C 7.28 g/m*3 9.5 C 0 km/h
1937 18-09-2010 03:27:38 9.4 C 7.33 g/m*3 9.4 C 0 km/h
1938 18-09-2010 03:39:38 9.1 C 7.19 g/m*3 9.1 C 0 km/h
1939 18-09-2010 03:51:38 9 C 7.23 g/m*3 9 C 0 km/h
1940 18-09-2010 04:03:38 8.9 C 7.36 g/m*3 8.9 C 0 km/h
1941 18-09-2010 04:15:38 8.7 C 7.26 g/m*3 8.7 C 0 km/h
1942 18-09-2010 04:27:38 8.5 C 7.17 g/m*3 8.5 C 0 km/h
1943 18-09-2010 04:39:38 8.4 C 7.13 g/m*3 8.4 C 0 km/h
1944 18-09-2010 04:51:38 8.2 C 7.03 g/m*3 8.2 C 0 km/h
1945 18-09-2010 05:03:38 8.2 C 7.12 g/m*3 8.2 C 0 km/h
1946 18-09-2010 05:15:38 8.1 C 7.16 g/m*3 8.1 C 0 km/h
1947 18-09-2010 05:27:38 7.9 C 7.23 g/m*3 7.9 C 0 km/h
1948 18-09-2010 05:39:38 7.7 C 7.14 g/m*3 7.7 C 0 km/h
1949 18-09-2010 05:51:38 7.8 C 7.26 g/m*3 7.8 C 0 km/h
1950 18-09-2010 06:03:38 7.8 C 7.35 g/m*3 7.8 C 0 km/h
Sensor: Nr:Datum:Temp:Abs-Feuchte:Windchill:Wind:
Aussen-T/F 1951 18-09-2010 06:15:38 7.5 C 7.28 g/m*3 7.5 C 0 km/h
1952 18-09-2010 06:27:38 7.5 C 7.28 g/m*3 7.5 C 0 km/h
1953 18-09-2010 06:39:38 7.6 C 7.41 g/m*3 7.6 C 0 km/h
1954 18-09-2010 06:51:38 7.7 C 7.46 g/m*3 7.7 C 0 km/h
1955 18-09-2010 07:03:39 7.7 C 7.46 g/m*3 7.7 C 0 km/h
1956 18-09-2010 07:15:39 7.6 C 7.33 g/m*3 7.6 C 0 km/h
1957 18-09-2010 07:27:39 7.5 C 7.28 g/m*3 7.5 C 0 km/h
1958 18-09-2010 07:39:39 7.3 C 7.19 g/m*3 7.3 C 0 km/h
1959 18-09-2010 07:51:39 7.4 C 7.24 g/m*3 7.4 C 0 km/h
1960 18-09-2010 08:03:02 7.3 C 7.11 g/m*3 7.3 C 0 km/h
1961 18-09-2010 08:15:03 7.4 C 7.16 g/m*3 7.4 C 0 km/h
1962 18-09-2010 08:27:03 7.5 C 7.28 g/m*3 7.5 C 0 km/h
1963 18-09-2010 08:39:02 7.5 C 7.28 g/m*3 7.5 C 0 km/h
1964 18-09-2010 08:51:02 7.6 C 7.33 g/m*3 7.6 C 0 km/h
1965 18-09-2010 09:03:02 7.7 C 7.38 g/m*3 7.7 C 0 km/h
1966 18-09-2010 09:15:02 7.8 C 7.43 g/m*3 7.8 C 0 km/h
1967 18-09-2010 09:27:02 8 C 7.44 g/m*3 8 C 0 km/h
1968 18-09-2010 09:39:02 8.2 C 7.54 g/m*3 8.2 C 0 km/h
1969 18-09-2010 09:51:02 8.9 C 7.97 g/m*3 8.9 C 0 km/h
1970 18-09-2010 10:03:02 9.3 C 8.09 g/m*3 9.3 C 0 km/h
1971 18-09-2010 10:15:02 9.5 C 8.1 g/m*3 9.5 C 0 km/h
1972 18-09-2010 10:27:03 9.8 C 8.07 g/m*3 9.8 C 0 km/h
1973 18-09-2010 10:39:01 10.7 C 8.25 g/m*3 10.7 C 0 km/h
1974 18-09-2010 10:51:02 11.7 C 8.37 g/m*3 11.7 C 0 km/h
1975 18-09-2010 11:03:02 12.2 C 6.91 g/m*3 12.2 C 0 km/h
Sensor: Nr:Datum:Temp:Abs-Feuchte:Windchill:Wind:
Aussen-T/F 1976 18-09-2010 11:15:02 13 C 6.8 g/m*3 13 C 0 km/h
1977 18-09-2010 11:27:02 13.6 C 6.59 g/m*3 13.6 C 0 km/h
1978 18-09-2010 11:39:02 14 C 6.39 g/m*3 14 C 0 km/h
1979 18-09-2010 11:51:01 14.5 C 6.47 g/m*3 14.5 C 0 km/h
1980 18-09-2010 12:03:02 14.6 C 6.13 g/m*3 14.6 C 0 km/h
1981 18-09-2010 12:15:01 15.7 C 6.15 g/m*3 15.7 C 0 km/h
1982 18-09-2010 12:27:01 15.1 C 5.42 g/m*3 15.1 C 0 km/h
1983 18-09-2010 12:39:01 15.4 C 6.04 g/m*3 15.4 C 0 km/h
1984 18-09-2010 12:51:01 14.9 C 5.86 g/m*3 14.9 C 0 km/h
1985 18-09-2010 13:03:02 14.9 C 5.86 g/m*3 14.9 C 0 km/h
1986 18-09-2010 13:15:01 15.3 C 5.48 g/m*3 15.3 C 0 km/h
1987 18-09-2010 13:27:01 15.6 C 5.32 g/m*3 15.6 C 0 km/h
1988 18-09-2010 13:39:01 15.8 C 5.25 g/m*3 15.8 C 0 km/h
1989 18-09-2010 13:51:01 16.4 C 5.16 g/m*3 16.4 C 0 km/h
1990 18-09-2010 14:03:01 16.2 C 4.96 g/m*3 16.2 C 0 km/h
1991 18-09-2010 14:15:02 15.4 C 4.73 g/m*3 15.4 C 0 km/h
1992 18-09-2010 14:27:02 14.7 C 4.66 g/m*3 14.7 C 0 km/h
1993 18-09-2010 14:39:01 14.9 C 4.72 g/m*3 14.9 C 0 km/h
1994 18-09-2010 14:51:02 15.1 C 4.77 g/m*3 15.1 C 0 km/h
1995 18-09-2010 15:03:02 15.4 C 4.6 g/m*3 15.4 C 0 km/h
1996 18-09-2010 15:15:02 16.1 C 4.52 g/m*3 16.1 C 0 km/h
1997 18-09-2010 15:27:02 15.9 C 4.74 g/m*3 15.9 C 0 km/h
1998 18-09-2010 15:39:02 17.3 C 4.57 g/m*3 17.3 C 0 km/h
1999 18-09-2010 15:51:02 16.8 C 4.43 g/m*3 16.8 C 0 km/h
2000 18-09-2010 16:03:01 16.4 C 4.75 g/m*3 16.4 C 0 km/h
Sensor: Nr:Datum:Temp:Abs-Feuchte:Windchill:Wind:
Aussen-T/F 2001 18-09-2010 16:15:02 16.2 C 4.55 g/m*3 16.2 C 0 km/h
2002 18-09-2010 16:27:03 16.1 C 4.66 g/m*3 16.1 C 0 km/h
2003 18-09-2010 16:39:01 16.1 C 4.8 g/m*3 16.1 C 0 km/h
2004 18-09-2010 16:51:02 16.3 C 5.55 g/m*3 16.3 C 0 km/h
2005 18-09-2010 17:03:02 16.3 C 4.99 g/m*3 16.3 C 0 km/h
2006 18-09-2010 17:15:02 16.4 C 6.14 g/m*3 16.4 C 0 km/h
2007 18-09-2010 17:27:02 16.3 C 5.41 g/m*3 16.3 C 0 km/h
2008 18-09-2010 17:39:02 15.6 C 6.12 g/m*3 15.6 C 0 km/h
2009 18-09-2010 17:51:01 14.7 C 5.92 g/m*3 14.7 C 0 km/h
2010 18-09-2010 18:03:02 14.5 C 6.09 g/m*3 14.5 C 0 km/h
2011 18-09-2010 18:15:01 15.6 C 5.98 g/m*3 15.6 C 0 km/h
2012 18-09-2010 18:27:01 16.2 C 5.93 g/m*3 16.2 C 0 km/h
2013 18-09-2010 18:39:01 16.2 C 6.07 g/m*3 16.2 C 0 km/h
2014 18-09-2010 18:51:01 15.8 C 6.19 g/m*3 15.8 C 0 km/h
2015 18-09-2010 19:03:02 15.2 C 6.1 g/m*3 15.2 C 0 km/h
2016 18-09-2010 19:15:01 14 C 5.91 g/m*3 14 C 0 km/h
2017 18-09-2010 19:27:01 13 C 6.12 g/m*3 13 C 0 km/h
2018 18-09-2010 19:39:01 12.2 C 6.04 g/m*3 12.2 C 0 km/h
2019 18-09-2010 19:51:01 11.9 C 6.14 g/m*3 11.9 C 0 km/h
2020 18-09-2010 20:03:02 11.4 C 6.36 g/m*3 11.4 C 0 km/h
2021 18-09-2010 20:15:02 11.2 C 6.39 g/m*3 11.2 C 0 km/h
2022 18-09-2010 20:27:02 11.1 C 6.75 g/m*3 11.1 C 0 km/h
2023 18-09-2010 20:39:01 10.9 C 6.76 g/m*3 10.9 C 0 km/h
2024 18-09-2010 20:51:01 10.8 C 6.72 g/m*3 10.8 C 0 km/h
2025 18-09-2010 21:03:01 10.6 C 6.73 g/m*3 10.6 C 0 km/h
Sensor: Nr:Datum:Temp:Abs-Feuchte:Windchill:Wind:
Aussen-T/F 2026 18-09-2010 21:15:02 10.2 C 6.66 g/m*3 10.2 C 0 km/h
2027 18-09-2010 21:27:02 10 C 6.48 g/m*3 10 C 0 km/h
2028 18-09-2010 21:39:01 9.7 C 6.64 g/m*3 9.7 C 0 km/h
2029 18-09-2010 21:51:02 9.6 C 6.6 g/m*3 9.6 C 0 km/h
2030 18-09-2010 22:03:02 9.3 C 6.56 g/m*3 9.3 C 0 km/h
2031 18-09-2010 22:15:02 9.2 C 6.61 g/m*3 9.2 C 0 km/h
2032 18-09-2010 22:27:02 9 C 6.7 g/m*3 9 C 0 km/h
2033 18-09-2010 22:40:03 8.8 C 6.79 g/m*3 8.8 C 0 km/h
2034 18-09-2010 22:52:03 8.6 C 6.79 g/m*3 8.6 C 0 km/h
2035 18-09-2010 23:04:03 8.5 C 6.74 g/m*3 8.5 C 0 km/h
2036 18-09-2010 23:16:03 8.4 C 6.87 g/m*3 8.4 C 0 km/h
2037 18-09-2010 23:28:03 8.2 C 6.78 g/m*3 8.2 C 0 km/h
2038 18-09-2010 23:40:03 8 C 6.7 g/m*3 8 C 0 km/h
2039 18-09-2010 23:52:03 7.9 C 6.74 g/m*3 7.9 C 0 km/h
2040 19-09-2010 00:04:03 7.8 C 6.77 g/m*3 7.8 C 0 km/h
2041 19-09-2010 00:16:03 7.7 C 6.73 g/m*3 7.7 C 0 km/h
2042 19-09-2010 00:28:03 7.6 C 6.77 g/m*3 7.6 C 0 km/h
2043 19-09-2010 00:40:03 7.4 C 6.68 g/m*3 7.4 C 0 km/h
2044 19-09-2010 00:52:03 7.3 C 6.64 g/m*3 7.3 C 0 km/h
2045 19-09-2010 01:04:04 7.1 C 6.47 g/m*3 7.1 C 0 km/h
2046 19-09-2010 01:16:04 7.1 C 6.55 g/m*3 7.1 C 0 km/h
2047 19-09-2010 01:28:04 6.9 C 6.54 g/m*3 6.9 C 0 km/h
2048 19-09-2010 01:40:04 6.8 C 6.58 g/m*3 6.8 C 0 km/h
2049 19-09-2010 01:52:04 6.7 C 6.53 g/m*3 6.7 C 0 km/h
2050 19-09-2010 02:04:04 6.6 C 6.57 g/m*3 6.6 C 0 km/h
Sensor: Nr:Datum:Temp:Abs-Feuchte:Windchill:Wind:
Aussen-T/F 2051 19-09-2010 02:16:04 6.4 C 6.48 g/m*3 6.4 C 0 km/h
2052 19-09-2010 02:28:04 6.4 C 6.48 g/m*3 6.4 C 0 km/h
2053 19-09-2010 02:40:04 6.4 C 6.56 g/m*3 6.4 C 0 km/h
2054 19-09-2010 02:52:04 6.4 C 6.56 g/m*3 6.4 C 0 km/h
2055 19-09-2010 03:04:04 6.4 C 6.56 g/m*3 6.4 C 0 km/h
2056 19-09-2010 03:16:04 6.4 C 6.56 g/m*3 6.4 C 0 km/h
2057 19-09-2010 03:28:04 6.4 C 6.56 g/m*3 6.4 C 0 km/h
2058 19-09-2010 03:40:04 6.5 C 6.6 g/m*3 6.5 C 0 km/h
2059 19-09-2010 03:52:04 6.4 C 6.56 g/m*3 6.4 C 0 km/h
2060 19-09-2010 04:04:04 6.3 C 6.51 g/m*3 6.3 C 0 km/h
2061 19-09-2010 04:16:04 6.1 C 6.43 g/m*3 6.1 C 0 km/h
2062 19-09-2010 04:28:04 5.9 C 6.42 g/m*3 5.9 C 0 km/h
2063 19-09-2010 04:40:04 6.2 C 6.47 g/m*3 6.2 C 0 km/h
2064 19-09-2010 04:52:04 6.5 C 6.67 g/m*3 6.5 C 0 km/h
2065 19-09-2010 05:04:05 6.6 C 6.72 g/m*3 6.6 C 0 km/h
2066 19-09-2010 05:16:05 6.2 C 6.47 g/m*3 6.2 C 0 km/h
2067 19-09-2010 05:28:05 6 C 6.39 g/m*3 6 C 0 km/h
2068 19-09-2010 05:40:05 5.8 C 6.3 g/m*3 5.8 C 0 km/h
2069 19-09-2010 05:52:05 5.6 C 6.22 g/m*3 5.6 C 0 km/h
2070 19-09-2010 06:04:05 5.5 C 6.18 g/m*3 5.5 C 0 km/h
2071 19-09-2010 06:16:05 5.5 C 6.18 g/m*3 5.5 C 0 km/h
2072 19-09-2010 06:28:05 5.7 C 6.33 g/m*3 5.7 C 0 km/h
2073 19-09-2010 06:40:05 6 C 6.46 g/m*3 6 C 0 km/h
2074 19-09-2010 06:52:05 6.1 C 6.5 g/m*3 6.1 C 0 km/h
2075 19-09-2010 07:04:05 6.3 C 6.59 g/m*3 6.3 C 0 km/h
Sensor: Nr:Datum:Temp:Abs-Feuchte:Windchill:Wind:
Aussen-T/F 2076 19-09-2010 07:16:05 6.1 C 6.5 g/m*3 6.1 C 0 km/h
2077 19-09-2010 07:28:05 5.8 C 6.38 g/m*3 5.8 C 0 km/h
2078 19-09-2010 07:40:05 5.9 C 6.42 g/m*3 5.9 C 0 km/h
2079 19-09-2010 07:52:05 5.9 C 6.42 g/m*3 5.9 C 0 km/h
2080 19-09-2010 08:04:05 6.2 C 6.47 g/m*3 6.2 C 0 km/h
2081 19-09-2010 08:16:05 6.7 C 6.76 g/m*3 6.7 C 0 km/h
2082 19-09-2010 08:28:05 7.3 C 6.95 g/m*3 7.3 C 0 km/h
2083 19-09-2010 08:40:05 7.4 C 7 g/m*3 7.4 C 0 km/h
2084 19-09-2010 08:52:02 7.2 C 6.75 g/m*3 7.2 C 0 km/h
2085 19-09-2010 09:04:02 7.2 C 6.67 g/m*3 7.2 C 0 km/h
2086 19-09-2010 09:16:02 7.3 C 6.79 g/m*3 7.3 C 0 km/h
2087 19-09-2010 09:28:02 7.7 C 6.97 g/m*3 7.7 C 0 km/h
2088 19-09-2010 09:40:02 8.8 C 7.31 g/m*3 8.8 C 0 km/h
2089 19-09-2010 09:52:01 9.6 C 7.15 g/m*3 9.6 C 0 km/h
2090 19-09-2010 10:04:01 10.2 C 6.76 g/m*3 10.2 C 0 km/h
2091 19-09-2010 10:16:01 10.9 C 6.86 g/m*3 10.9 C 0 km/h
2092 19-09-2010 10:28:01 10.8 C 6.62 g/m*3 10.8 C 0 km/h
2093 19-09-2010 10:40:01 10.7 C 6.58 g/m*3 10.7 C 0 km/h
2094 19-09-2010 10:52:01 11 C 6.61 g/m*3 11 C 0 km/h
2095 19-09-2010 11:04:01 11.5 C 6.51 g/m*3 11.5 C 0 km/h
2096 19-09-2010 11:16:02 12.2 C 6.58 g/m*3 12.2 C 0 km/h
2097 19-09-2010 11:28:02 13.3 C 6.47 g/m*3 13.3 C 0 km/h
2098 19-09-2010 11:40:01 13.8 C 5.96 g/m*3 13.8 C 0 km/h
2099 19-09-2010 11:52:03 13.8 C 5.72 g/m*3 13.8 C 0 km/h
2100 19-09-2010 12:04:02 13.8 C 5.84 g/m*3 13.8 C 0 km/h
Sensor: Nr:Datum:Temp:Abs-Feuchte:Windchill:Wind:
Aussen-T/F 2101 19-09-2010 12:16:02 14.3 C 5.9 g/m*3 14.3 C 0 km/h
2102 19-09-2010 12:28:02 15.2 C 5.84 g/m*3 15.2 C 0 km/h
2103 19-09-2010 12:40:02 15.7 C 5.35 g/m*3 15.7 C 0 km/h
2104 19-09-2010 12:52:02 15.7 C 5.35 g/m*3 15.7 C 0 km/h
2105 19-09-2010 13:04:01 16.2 C 5.52 g/m*3 16.2 C 0 km/h
2106 19-09-2010 13:16:02 16.4 C 5.58 g/m*3 16.4 C 0 km/h
2107 19-09-2010 13:28:02 16.1 C 5.48 g/m*3 16.1 C 0 km/h
2108 19-09-2010 13:40:02 16 C 5.59 g/m*3 16 C 0 km/h
2109 19-09-2010 13:52:01 15.9 C 5.55 g/m*3 15.9 C 0 km/h
2110 19-09-2010 14:04:02 16.5 C 5.62 g/m*3 16.5 C 0 km/h
2111 19-09-2010 14:16:01 17.5 C 5.67 g/m*3 17.5 C 0 km/h
2112 19-09-2010 14:28:01 17.5 C 5.67 g/m*3 17.5 C 0 km/h
2113 19-09-2010 14:40:01 17.5 C 5.67 g/m*3 17.5 C 0 km/h
2114 19-09-2010 14:52:01 17.9 C 5.8 g/m*3 17.9 C 0 km/h
2115 19-09-2010 15:04:02 17.8 C 5.46 g/m*3 17.8 C 0 km/h
2116 19-09-2010 15:16:01 18.6 C 5.73 g/m*3 18.6 C 0 km/h
2117 19-09-2010 15:28:01 18.4 C 5.66 g/m*3 18.4 C 0 km/h
2118 19-09-2010 15:40:02 19 C 5.38 g/m*3 19 C 0 km/h
2119 19-09-2010 15:52:01 19.3 C 4.98 g/m*3 19.3 C 0 km/h
2120 19-09-2010 16:04:02 18.8 C 5.31 g/m*3 18.8 C 0 km/h
2121 19-09-2010 16:16:01 18.6 C 5.41 g/m*3 18.6 C 0 km/h
2122 19-09-2010 16:28:01 18.8 C 5.31 g/m*3 18.8 C 0 km/h
2123 19-09-2010 16:40:02 19.6 C 5.4 g/m*3 19.6 C 0 km/h
2124 19-09-2010 16:52:01 19.4 C 5.01 g/m*3 19.4 C 0 km/h
2125 19-09-2010 17:04:02 19.8 C 5.3 g/m*3 19.8 C 0 km/h
Sensor: Nr:Datum:Temp:Abs-Feuchte:Windchill:Wind:
Aussen-T/F 2126 19-09-2010 17:16:02 19.1 C 5.25 g/m*3 19.1 C 0 km/h
2127 19-09-2010 17:28:02 18.6 C 5.57 g/m*3 18.6 C 0 km/h
2128 19-09-2010 17:40:01 18.4 C 6.29 g/m*3 18.4 C 0 km/h
2129 19-09-2010 17:52:02 18 C 5.99 g/m*3 18 C 0 km/h
2130 19-09-2010 18:04:01 17.6 C 6 g/m*3 17.6 C 0 km/h
2131 19-09-2010 18:16:02 17.2 C 6.3 g/m*3 17.2 C 0 km/h
2132 19-09-2010 18:28:03 17.1 C 5.82 g/m*3 17.1 C 0 km/h
2133 19-09-2010 18:40:01 17 C 6.08 g/m*3 17 C 0 km/h
2134 19-09-2010 18:52:02 16.5 C 5.76 g/m*3 16.5 C 0 km/h
2135 19-09-2010 19:04:02 16.2 C 5.79 g/m*3 16.2 C 0 km/h
2136 19-09-2010 19:16:02 16 C 5.99 g/m*3 16 C 0 km/h
2137 19-09-2010 19:28:02 15.8 C 5.92 g/m*3 15.8 C 0 km/h
2138 19-09-2010 19:40:03 15.6 C 5.98 g/m*3 15.6 C 0 km/h
2139 19-09-2010 19:52:02 15.3 C 6.14 g/m*3 15.3 C 0 km/h
2140 19-09-2010 20:04:02 14.8 C 6.33 g/m*3 14.8 C 0 km/h
2141 19-09-2010 20:16:02 14.5 C 6.34 g/m*3 14.5 C 0 km/h
2142 19-09-2010 20:28:02 14.3 C 6.27 g/m*3 14.3 C 0 km/h
2143 19-09-2010 20:40:02 14.3 C 6.39 g/m*3 14.3 C 0 km/h
2144 19-09-2010 20:52:02 14.4 C 6.18 g/m*3 14.4 C 0 km/h
2145 19-09-2010 21:04:02 14.4 C 6.43 g/m*3 14.4 C 0 km/h
2146 19-09-2010 21:16:02 14.2 C 6.47 g/m*3 14.2 C 0 km/h
2147 19-09-2010 21:28:02 14 C 6.51 g/m*3 14 C 0 km/h
2148 19-09-2010 21:40:02 13.7 C 6.87 g/m*3 13.7 C 0 km/h
2149 19-09-2010 21:52:03 13.5 C 6.78 g/m*3 13.5 C 0 km/h
2150 19-09-2010 22:04:03 13.4 C 6.74 g/m*3 13.4 C 0 km/h
Sensor: Nr:Datum:Temp:Abs-Feuchte:Windchill:Wind:
Aussen-T/F 2151 19-09-2010 22:17:01 13.3 C 6.7 g/m*3 13.3 C 0 km/h
2152 19-09-2010 22:29:01 13.4 C 6.86 g/m*3 13.4 C 0 km/h
2153 19-09-2010 22:41:01 13.3 C 6.82 g/m*3 13.3 C 0 km/h
2154 19-09-2010 22:53:01 13.2 C 6.77 g/m*3 13.2 C 0 km/h
2155 19-09-2010 23:05:01 13 C 6.8 g/m*3 13 C 0 km/h
2156 19-09-2010 23:17:01 12.5 C 6.82 g/m*3 12.5 C 0 km/h
2157 19-09-2010 23:29:01 12.2 C 6.8 g/m*3 12.2 C 0 km/h
2158 19-09-2010 23:41:01 11.9 C 6.67 g/m*3 11.9 C 0 km/h
2159 19-09-2010 23:53:01 11.8 C 6.74 g/m*3 11.8 C 0 km/h
2160 20-09-2010 00:05:01 11.9 C 6.88 g/m*3 11.9 C 0 km/h
2161 20-09-2010 00:17:01 11.9 C 6.99 g/m*3 11.9 C 0 km/h
2162 20-09-2010 00:29:02 11.9 C 6.88 g/m*3 11.9 C 0 km/h
2163 20-09-2010 00:41:02 11.4 C 6.77 g/m*3 11.4 C 0 km/h
2164 20-09-2010 00:53:02 11.3 C 6.83 g/m*3 11.3 C 0 km/h
2165 20-09-2010 01:05:02 10.8 C 6.72 g/m*3 10.8 C 0 km/h
2166 20-09-2010 01:17:02 10.5 C 6.69 g/m*3 10.5 C 0 km/h
2167 20-09-2010 01:29:02 10.4 C 6.75 g/m*3 10.4 C 0 km/h
2168 20-09-2010 01:41:02 10.2 C 6.85 g/m*3 10.2 C 0 km/h
2169 20-09-2010 01:53:02 10.3 C 6.9 g/m*3 10.3 C 0 km/h
2170 20-09-2010 02:05:02 10.1 C 6.81 g/m*3 10.1 C 0 km/h
2171 20-09-2010 02:17:02 10 C 6.77 g/m*3 10 C 0 km/h
2172 20-09-2010 02:29:02 9.8 C 6.96 g/m*3 9.8 C 0 km/h
2173 20-09-2010 02:41:02 9.6 C 6.87 g/m*3 9.6 C 0 km/h
2174 20-09-2010 02:53:02 9.7 C 7.01 g/m*3 9.7 C 0 km/h
2175 20-09-2010 03:05:02 9.8 C 6.96 g/m*3 9.8 C 0 km/h
Sensor: Nr:Datum:Temp:Abs-Feuchte:Windchill:Wind:
Aussen-T/F 2176 20-09-2010 03:17:02 9.6 C 6.96 g/m*3 9.6 C 0 km/h
2177 20-09-2010 03:29:02 9.7 C 7.1 g/m*3 9.7 C 0 km/h
2178 20-09-2010 03:41:02 9.7 C 7.1 g/m*3 9.7 C 0 km/h
2179 20-09-2010 03:53:02 9.4 C 6.96 g/m*3 9.4 C 0 km/h
2180 20-09-2010 04:05:02 9.3 C 6.92 g/m*3 9.3 C 0 km/h
2181 20-09-2010 04:17:02 9.2 C 6.88 g/m*3 9.2 C 0 km/h
2182 20-09-2010 04:29:02 9 C 6.88 g/m*3 9 C 0 km/h
2183 20-09-2010 04:41:03 8.8 C 6.88 g/m*3 8.8 C 0 km/h
2184 20-09-2010 04:53:03 8.6 C 6.87 g/m*3 8.6 C 0 km/h
2185 20-09-2010 05:05:03 8.4 C 6.87 g/m*3 8.4 C 0 km/h
2186 20-09-2010 05:17:03 8.4 C 6.87 g/m*3 8.4 C 0 km/h
2187 20-09-2010 05:29:03 8.3 C 6.91 g/m*3 8.3 C 0 km/h
2188 20-09-2010 05:41:03 8.2 C 6.87 g/m*3 8.2 C 0 km/h
2189 20-09-2010 05:53:03 8.3 C 6.91 g/m*3 8.3 C 0 km/h
2190 20-09-2010 06:05:03 8.3 C 6.91 g/m*3 8.3 C 0 km/h
2191 20-09-2010 06:17:03 8.4 C 7.04 g/m*3 8.4 C 0 km/h
2192 20-09-2010 06:29:03 8.5 C 7 g/m*3 8.5 C 0 km/h
2193 20-09-2010 06:41:03 8.5 C 7 g/m*3 8.5 C 0 km/h
2194 20-09-2010 06:53:03 8.7 C 7.18 g/m*3 8.7 C 0 km/h
2195 20-09-2010 07:05:01 8.6 C 7.13 g/m*3 8.6 C 0 km/h
2196 20-09-2010 07:17:02 8.4 C 7.04 g/m*3 8.4 C 0 km/h
2197 20-09-2010 07:29:02 8.5 C 7.09 g/m*3 8.5 C 0 km/h
2198 20-09-2010 07:41:01 8.5 C 7.09 g/m*3 8.5 C 0 km/h
2199 20-09-2010 07:53:02 8.6 C 7.13 g/m*3 8.6 C 0 km/h
2200 20-09-2010 08:05:02 9 C 7.14 g/m*3 9 C 0 km/h
Sensor: Nr:Datum:Temp:Abs-Feuchte:Windchill:Wind:
Aussen-T/F 2201 20-09-2010 08:17:02 9.2 C 6.97 g/m*3 9.2 C 0 km/h
2202 20-09-2010 08:29:02 9.2 C 6.79 g/m*3 9.2 C 0 km/h
2203 20-09-2010 08:41:02 9.3 C 6.74 g/m*3 9.3 C 0 km/h
2204 20-09-2010 08:53:01 9.2 C 6.7 g/m*3 9.2 C 0 km/h
2205 20-09-2010 09:05:02 9.3 C 6.83 g/m*3 9.3 C 0 km/h
2206 20-09-2010 09:17:01 9.6 C 6.87 g/m*3 9.6 C 0 km/h
2207 20-09-2010 09:29:01 9.7 C 6.82 g/m*3 9.7 C 0 km/h
2208 20-09-2010 09:41:01 10 C 6.95 g/m*3 10 C 0 km/h
2209 20-09-2010 09:53:01 10.6 C 7.12 g/m*3 10.6 C 0 km/h
2210 20-09-2010 10:05:02 11.4 C 7.29 g/m*3 11.4 C 0 km/h
2211 20-09-2010 10:17:02 12.1 C 7.18 g/m*3 12.1 C 0 km/h
2212 20-09-2010 10:29:02 12.4 C 7.1 g/m*3 12.4 C 0 km/h
2213 20-09-2010 10:41:01 12.9 C 7.33 g/m*3 12.9 C 0 km/h
2214 20-09-2010 10:53:01 13.2 C 7.12 g/m*3 13.2 C 0 km/h
2215 20-09-2010 11:05:01 13.3 C 7.39 g/m*3 13.3 C 0 km/h
2216 20-09-2010 11:17:02 13.8 C 7.15 g/m*3 13.8 C 0 km/h
2217 20-09-2010 11:29:02 14.8 C 6.84 g/m*3 14.8 C 0 km/h
2218 20-09-2010 11:41:01 15.3 C 6.66 g/m*3 15.3 C 0 km/h
2219 20-09-2010 11:53:02 15.9 C 6.77 g/m*3 15.9 C 0 km/h
2220 20-09-2010 12:05:02 16.1 C 6.31 g/m*3 16.1 C 0 km/h
2221 20-09-2010 12:17:02 15.9 C 6.5 g/m*3 15.9 C 0 km/h
2222 20-09-2010 12:29:03 16.1 C 6.31 g/m*3 16.1 C 0 km/h
2223 20-09-2010 12:41:02 16.4 C 6.42 g/m*3 16.4 C 0 km/h
2224 20-09-2010 12:53:02 16.8 C 6.15 g/m*3 16.8 C 0 km/h
2225 20-09-2010 13:05:01 17.1 C 6.11 g/m*3 17.1 C 0 km/h
Sensor: Nr:Datum:Temp:Abs-Feuchte:Windchill:Wind:
Aussen-T/F 2226 20-09-2010 13:17:02 17.5 C 6.26 g/m*3 17.5 C 0 km/h
2227 20-09-2010 13:29:02 18.1 C 6.33 g/m*3 18.1 C 0 km/h
2228 20-09-2010 13:41:02 18.5 C 6.01 g/m*3 18.5 C 0 km/h
2229 20-09-2010 13:53:02 18.9 C 5.83 g/m*3 18.9 C 0 km/h
2230 20-09-2010 14:05:03 19.5 C 6.04 g/m*3 19.5 C 0 km/h
2231 20-09-2010 14:17:02 19.7 C 5.94 g/m*3 19.7 C 0 km/h
2232 20-09-2010 14:29:02 20.1 C 5.91 g/m*3 20.1 C 0 km/h
2233 20-09-2010 14:41:02 20.5 C 5.69 g/m*3 20.5 C 0 km/h
2234 20-09-2010 14:53:01 20.3 C 5.45 g/m*3 20.3 C 0 km/h
2235 20-09-2010 15:05:02 20.8 C 5.79 g/m*3 20.8 C 0 km/h
2236 20-09-2010 15:17:01 21.4 C 5.81 g/m*3 21.4 C 0 km/h
2237 20-09-2010 15:29:01 21.5 C 5.85 g/m*3 21.5 C 0 km/h
2238 20-09-2010 15:41:01 21.6 C 5.88 g/m*3 21.6 C 0 km/h
2239 20-09-2010 15:53:01 21.8 C 5.95 g/m*3 21.8 C 0 km/h
2240 20-09-2010 16:05:01 22.2 C 6.48 g/m*3 22.2 C 0 km/h
2241 20-09-2010 16:17:02 22.6 C 6.23 g/m*3 22.6 C 0 km/h
2242 20-09-2010 16:29:02 22.8 C 6.1 g/m*3 22.8 C 0 km/h
2243 20-09-2010 16:41:01 22.6 C 6.23 g/m*3 22.6 C 0 km/h
2244 20-09-2010 16:53:01 22.1 C 6.05 g/m*3 22.1 C 0 km/h
2245 20-09-2010 17:05:01 22.2 C 6.28 g/m*3 22.2 C 0 km/h
2246 20-09-2010 17:17:02 22.1 C 5.86 g/m*3 22.1 C 0 km/h
2247 20-09-2010 17:29:02 22.3 C 6.32 g/m*3 22.3 C 0 km/h
2248 20-09-2010 17:41:01 22.1 C 5.86 g/m*3 22.1 C 0 km/h
2249 20-09-2010 17:53:02 22.7 C 6.26 g/m*3 22.7 C 0 km/h
2250 20-09-2010 18:05:02 22.7 C 6.47 g/m*3 22.7 C 0 km/h
Sensor: Nr:Datum:Temp:Abs-Feuchte:Windchill:Wind:
Aussen-T/F 2251 20-09-2010 18:17:02 22.2 C 6.28 g/m*3 22.2 C 0 km/h
2252 20-09-2010 18:29:02 21.6 C 6.64 g/m*3 21.6 C 0 km/h
2253 20-09-2010 18:41:02 20.6 C 6.8 g/m*3 20.6 C 0 km/h
2254 20-09-2010 18:53:02 19.4 C 7.01 g/m*3 19.4 C 0 km/h
2255 20-09-2010 19:05:01 18.9 C 6.97 g/m*3 18.9 C 0 km/h
2256 20-09-2010 19:17:01 18.1 C 7.11 g/m*3 18.1 C 0 km/h
2257 20-09-2010 19:29:01 17.5 C 7.31 g/m*3 17.5 C 0 km/h
2258 20-09-2010 19:41:02 16.8 C 7.29 g/m*3 16.8 C 0 km/h
2259 20-09-2010 19:53:02 16.2 C 7.17 g/m*3 16.2 C 0 km/h
2260 20-09-2010 20:05:02 15.9 C 7.31 g/m*3 15.9 C 0 km/h
2261 20-09-2010 20:17:02 15.6 C 7.45 g/m*3 15.6 C 0 km/h
2262 20-09-2010 20:29:02 15.3 C 7.57 g/m*3 15.3 C 0 km/h
2263 20-09-2010 20:41:02 15.1 C 7.74 g/m*3 15.1 C 0 km/h
2264 20-09-2010 20:53:02 14.8 C 7.6 g/m*3 14.8 C 0 km/h
2265 20-09-2010 21:05:02 14.7 C 7.68 g/m*3 14.7 C 0 km/h
2266 20-09-2010 21:17:02 14.4 C 7.66 g/m*3 14.4 C 0 km/h
2267 20-09-2010 21:29:02 14.2 C 7.69 g/m*3 14.2 C 0 km/h
2268 20-09-2010 21:41:02 14 C 7.72 g/m*3 14 C 0 km/h
2269 20-09-2010 21:53:02 13.7 C 7.82 g/m*3 13.7 C 0 km/h
2270 20-09-2010 22:06:02 13.6 C 8 g/m*3 13.6 C 0 km/h
2271 20-09-2010 22:18:02 13.5 C 7.95 g/m*3 13.5 C 0 km/h
2272 20-09-2010 22:30:02 13.5 C 8.07 g/m*3 13.5 C 0 km/h
2273 20-09-2010 22:42:02 12.9 C 8.11 g/m*3 12.9 C 0 km/h
2274 20-09-2010 22:54:02 12.6 C 8.19 g/m*3 12.6 C 0 km/h
2275 20-09-2010 23:06:02 12.6 C 8.19 g/m*3 12.6 C 0 km/h
Sensor: Nr:Datum:Temp:Abs-Feuchte:Windchill:Wind:
Aussen-T/F 2276 20-09-2010 23:18:02 12.5 C 8.14 g/m*3 12.5 C 0 km/h
2277 20-09-2010 23:30:02 12.3 C 8.04 g/m*3 12.3 C 0 km/h
2278 20-09-2010 23:42:02 12.1 C 7.94 g/m*3 12.1 C 0 km/h
2279 20-09-2010 23:54:02 11.9 C 7.94 g/m*3 11.9 C 0 km/h
2280 21-09-2010 00:06:03 11.8 C 7.89 g/m*3 11.8 C 0 km/h
2281 21-09-2010 00:18:03 11.6 C 7.9 g/m*3 11.6 C 0 km/h
2282 21-09-2010 00:30:03 11.5 C 7.85 g/m*3 11.5 C 0 km/h
2283 21-09-2010 00:42:03 11.4 C 7.9 g/m*3 11.4 C 0 km/h
2284 21-09-2010 00:54:03 11.3 C 7.85 g/m*3 11.3 C 0 km/h
2285 21-09-2010 01:06:03 11.2 C 7.8 g/m*3 11.2 C 0 km/h
2286 21-09-2010 01:18:03 11.1 C 7.86 g/m*3 11.1 C 0 km/h
2287 21-09-2010 01:30:03 10.9 C 7.86 g/m*3 10.9 C 0 km/h
2288 21-09-2010 01:42:03 10.8 C 7.81 g/m*3 10.8 C 0 km/h
2289 21-09-2010 01:54:03 10.5 C 7.66 g/m*3 10.5 C 0 km/h
2290 21-09-2010 02:06:03 10.4 C 7.71 g/m*3 10.4 C 0 km/h
2291 21-09-2010 02:18:03 10.4 C 7.71 g/m*3 10.4 C 0 km/h
2292 21-09-2010 02:30:03 10.3 C 7.76 g/m*3 10.3 C 0 km/h
2293 21-09-2010 02:42:03 10.1 C 7.66 g/m*3 10.1 C 0 km/h
2294 21-09-2010 02:54:03 10 C 7.61 g/m*3 10 C 0 km/h
2295 21-09-2010 03:06:03 10 C 7.71 g/m*3 10 C 0 km/h
2296 21-09-2010 03:18:03 9.9 C 7.75 g/m*3 9.9 C 0 km/h
2297 21-09-2010 03:30:03 9.8 C 7.79 g/m*3 9.8 C 0 km/h
2298 21-09-2010 03:42:03 9.5 C 7.65 g/m*3 9.5 C 0 km/h
2299 21-09-2010 03:54:03 9.5 C 7.65 g/m*3 9.5 C 0 km/h
2300 21-09-2010 04:06:04 9.4 C 7.6 g/m*3 9.4 C 0 km/h
Sensor: Nr:Datum:Temp:Abs-Feuchte:Windchill:Wind:
Aussen-T/F 2301 21-09-2010 04:18:04 9.3 C 7.55 g/m*3 9.3 C 0 km/h
2302 21-09-2010 04:30:04 9.2 C 7.5 g/m*3 9.2 C 0 km/h
2303 21-09-2010 04:42:04 9.2 C 7.5 g/m*3 9.2 C 0 km/h
2304 21-09-2010 04:54:04 9 C 7.41 g/m*3 9 C 0 km/h
2305 21-09-2010 05:06:04 9 C 7.49 g/m*3 9 C 0 km/h
2306 21-09-2010 05:18:04 8.8 C 7.49 g/m*3 8.8 C 0 km/h
2307 21-09-2010 05:30:04 8.8 C 7.49 g/m*3 8.8 C 0 km/h
2308 21-09-2010 05:42:04 8.7 C 7.44 g/m*3 8.7 C 0 km/h
2309 21-09-2010 05:54:04 8.6 C 7.39 g/m*3 8.6 C 0 km/h
2310 21-09-2010 06:06:04 8.5 C 7.43 g/m*3 8.5 C 0 km/h
2311 21-09-2010 06:18:04 8.4 C 7.38 g/m*3 8.4 C 0 km/h
2312 21-09-2010 06:30:04 8.3 C 7.33 g/m*3 8.3 C 0 km/h
2313 21-09-2010 06:42:04 8.2 C 7.29 g/m*3 8.2 C 0 km/h
2314 21-09-2010 06:54:04 8.3 C 7.42 g/m*3 8.3 C 0 km/h
2315 21-09-2010 07:06:02 8.2 C 7.37 g/m*3 8.2 C 0 km/h
2316 21-09-2010 07:18:02 8.2 C 7.37 g/m*3 8.2 C 0 km/h
2317 21-09-2010 07:30:02 8.1 C 7.32 g/m*3 8.1 C 0 km/h
2318 21-09-2010 07:42:03 8.1 C 7.32 g/m*3 8.1 C 0 km/h
2319 21-09-2010 07:54:02 8.1 C 7.32 g/m*3 8.1 C 0 km/h
2320 21-09-2010 08:06:01 8 C 7.36 g/m*3 8 C 0 km/h
2321 21-09-2010 08:18:02 8.1 C 7.41 g/m*3 8.1 C 0 km/h
2322 21-09-2010 08:30:02 8.2 C 7.54 g/m*3 8.2 C 0 km/h
2323 21-09-2010 08:42:02 8.4 C 7.63 g/m*3 8.4 C 0 km/h
2324 21-09-2010 08:54:02 8.6 C 7.73 g/m*3 8.6 C 0 km/h
2325 21-09-2010 09:06:02 8.7 C 7.78 g/m*3 8.7 C 0 km/h
Sensor: Nr:Datum:Temp:Abs-Feuchte:Windchill:Wind:
Aussen-T/F 2326 21-09-2010 09:18:02 8.9 C 7.88 g/m*3 8.9 C 0 km/h
2327 21-09-2010 09:30:02 9.3 C 8 g/m*3 9.3 C 0 km/h
2328 21-09-2010 09:42:02 9.5 C 8.1 g/m*3 9.5 C 0 km/h
2329 21-09-2010 09:54:01 9.5 C 8.1 g/m*3 9.5 C 0 km/h
2330 21-09-2010 10:06:02 9.9 C 8.31 g/m*3 9.9 C 0 km/h
2331 21-09-2010 10:18:01 10.5 C 8.53 g/m*3 10.5 C 0 km/h
2332 21-09-2010 10:30:01 11.1 C 8.76 g/m*3 11.1 C 0 km/h
2333 21-09-2010 10:42:01 11.7 C 8.99 g/m*3 11.7 C 0 km/h
2334 21-09-2010 10:54:01 12.4 C 8.96 g/m*3 12.4 C 0 km/h
2335 21-09-2010 11:06:01 13 C 8.51 g/m*3 13 C 0 km/h
2336 21-09-2010 11:18:02 13.6 C 8.59 g/m*3 13.6 C 0 km/h
2337 21-09-2010 11:30:02 14 C 8.56 g/m*3 14 C 0 km/h
2338 21-09-2010 11:42:01 14.7 C 8.81 g/m*3 14.7 C 0 km/h
2339 21-09-2010 11:54:03 15.3 C 8.75 g/m*3 15.3 C 0 km/h
2340 21-09-2010 12:06:02 15.8 C 8.75 g/m*3 15.8 C 0 km/h
2341 21-09-2010 12:18:02 16.5 C 8.85 g/m*3 16.5 C 0 km/h
2342 21-09-2010 12:30:03 16.5 C 9.13 g/m*3 16.5 C 0 km/h
2343 21-09-2010 12:42:02 16 C 8.86 g/m*3 16 C 0 km/h
2344 21-09-2010 12:54:02 15.9 C 9.34 g/m*3 15.9 C 0 km/h
2345 21-09-2010 13:06:02 16.4 C 9.77 g/m*3 16.4 C 0 km/h
2346 21-09-2010 13:18:02 16.6 C 9.46 g/m*3 16.6 C 0 km/h
2347 21-09-2010 13:30:02 16.8 C 9.72 g/m*3 16.8 C 0 km/h
2348 21-09-2010 13:42:02 17.3 C 9.87 g/m*3 17.3 C 0 km/h
2349 21-09-2010 13:54:02 18 C 9.37 g/m*3 18 C 0 km/h
2350 21-09-2010 14:06:02 17.5 C 9.54 g/m*3 17.5 C 0 km/h
Sensor: Nr:Datum:Temp:Abs-Feuchte:Windchill:Wind:
Aussen-T/F 2351 21-09-2010 14:18:01 17.4 C 9.63 g/m*3 17.4 C 0 km/h
2352 21-09-2010 14:30:01 17.2 C 9.52 g/m*3 17.2 C 0 km/h
2353 21-09-2010 14:42:02 17.5 C 9.54 g/m*3 17.5 C 0 km/h
2354 21-09-2010 14:54:02 19.5 C 9.06 g/m*3 19.5 C 0 km/h
2355 21-09-2010 15:06:02 21.3 C 8.76 g/m*3 21.3 C 0 km/h
2356 21-09-2010 15:18:02 22.6 C 8.44 g/m*3 22.6 C 0 km/h
2357 21-09-2010 15:30:02 23.3 C 7.95 g/m*3 23.3 C 0 km/h
2358 21-09-2010 15:42:02 23.9 C 7.79 g/m*3 23.9 C 0 km/h
2359 21-09-2010 15:54:02 24.5 C 7.83 g/m*3 24.5 C 0 km/h
2360 21-09-2010 16:06:02 25 C 7.6 g/m*3 25 C 0 km/h
2361 21-09-2010 16:18:02 25.2 C 7.45 g/m*3 25.2 C 0 km/h
2362 21-09-2010 16:30:02 25.2 C 7.68 g/m*3 25.2 C 0 km/h
2363 21-09-2010 16:42:02 25.1 C 7.87 g/m*3 25.1 C 0 km/h
2364 21-09-2010 16:54:02 25.3 C 7.49 g/m*3 25.3 C 0 km/h
2365 21-09-2010 17:06:02 25.4 C 7.53 g/m*3 25.4 C 0 km/h
2366 21-09-2010 17:18:02 25.5 C 7.81 g/m*3 25.5 C 0 km/h
2367 21-09-2010 17:30:02 24.5 C 7.39 g/m*3 24.5 C 0 km/h
2368 21-09-2010 17:42:02 24.1 C 7.44 g/m*3 24.1 C 0 km/h
2369 21-09-2010 17:54:02 23.5 C 7.61 g/m*3 23.5 C 0 km/h
2370 21-09-2010 18:06:02 23.2 C 7.69 g/m*3 23.2 C 0 km/h
2371 21-09-2010 18:18:02 22.7 C 7.88 g/m*3 22.7 C 0 km/h
2372 21-09-2010 18:30:02 22.2 C 7.85 g/m*3 22.2 C 0 km/h
2373 21-09-2010 18:42:02 21.7 C 8.01 g/m*3 21.7 C 0 km/h
2374 21-09-2010 18:54:02 21.1 C 7.92 g/m*3 21.1 C 0 km/h
2375 21-09-2010 19:06:01 20.2 C 8.04 g/m*3 20.2 C 0 km/h
Sensor: Nr:Datum:Temp:Abs-Feuchte:Windchill:Wind:
Aussen-T/F 2376 21-09-2010 19:18:02 19.5 C 8.22 g/m*3 19.5 C 0 km/h
2377 21-09-2010 19:30:02 18.5 C 8.39 g/m*3 18.5 C 0 km/h
2378 21-09-2010 19:42:02 17.8 C 8.5 g/m*3 17.8 C 0 km/h
2379 21-09-2010 19:54:02 17.2 C 8.49 g/m*3 17.2 C 0 km/h
2380 21-09-2010 20:06:03 16.8 C 8.58 g/m*3 16.8 C 0 km/h
2381 21-09-2010 20:18:02 16.5 C 8.43 g/m*3 16.5 C 0 km/h
2382 21-09-2010 20:30:02 16.3 C 8.46 g/m*3 16.3 C 0 km/h
2383 21-09-2010 20:42:02 16.1 C 8.5 g/m*3 16.1 C 0 km/h
2384 21-09-2010 20:54:02 15.8 C 8.62 g/m*3 15.8 C 0 km/h
2385 21-09-2010 21:06:02 15.6 C 8.51 g/m*3 15.6 C 0 km/h
2386 21-09-2010 21:18:01 15.4 C 8.41 g/m*3 15.4 C 0 km/h
2387 21-09-2010 21:30:01 15.1 C 8.51 g/m*3 15.1 C 0 km/h
2388 21-09-2010 21:42:02 14.7 C 8.56 g/m*3 14.7 C 0 km/h
2389 21-09-2010 21:54:02 14.5 C 8.46 g/m*3 14.5 C 0 km/h
2390 21-09-2010 22:06:02 14.4 C 8.53 g/m*3 14.4 C 0 km/h
2391 21-09-2010 22:18:01 14.1 C 8.5 g/m*3 14.1 C 0 km/h
2392 21-09-2010 22:30:01 13.9 C 8.51 g/m*3 13.9 C 0 km/h
2393 21-09-2010 22:42:01 13.6 C 8.47 g/m*3 13.6 C 0 km/h
2394 21-09-2010 22:54:01 13.5 C 8.54 g/m*3 13.5 C 0 km/h
2395 21-09-2010 23:06:01 13.2 C 8.38 g/m*3 13.2 C 0 km/h
2396 21-09-2010 23:18:01 13.1 C 8.44 g/m*3 13.1 C 0 km/h
2397 21-09-2010 23:30:01 13 C 8.51 g/m*3 13 C 0 km/h
2398 21-09-2010 23:42:01 12.9 C 8.68 g/m*3 12.9 C 0 km/h
2399 21-09-2010 23:54:01 12.7 C 8.68 g/m*3 12.7 C 0 km/h
2400 22-09-2010 00:06:01 12.5 C 8.69 g/m*3 12.5 C 0 km/h
Sensor: Nr:Datum:Temp:Abs-Feuchte:Windchill:Wind:
Aussen-T/F 2401 22-09-2010 00:18:01 12.3 C 8.58 g/m*3 12.3 C 0 km/h
2402 22-09-2010 00:30:01 12.2 C 8.52 g/m*3 12.2 C 0 km/h
2403 22-09-2010 00:42:01 12.1 C 8.47 g/m*3 12.1 C 0 km/h
2404 22-09-2010 00:54:01 11.9 C 8.47 g/m*3 11.9 C 0 km/h
2405 22-09-2010 01:06:02 11.8 C 8.53 g/m*3 11.8 C 0 km/h
2406 22-09-2010 01:18:02 11.6 C 8.42 g/m*3 11.6 C 0 km/h
2407 22-09-2010 01:30:02 11.5 C 8.47 g/m*3 11.5 C 0 km/h
2408 22-09-2010 01:42:02 11.3 C 8.26 g/m*3 11.3 C 0 km/h
2409 22-09-2010 01:54:02 11.3 C 8.36 g/m*3 11.3 C 0 km/h
2410 22-09-2010 02:06:02 11 C 8.21 g/m*3 11 C 0 km/h
2411 22-09-2010 02:18:02 10.9 C 8.16 g/m*3 10.9 C 0 km/h
2412 22-09-2010 02:30:02 10.8 C 8.2 g/m*3 10.8 C 0 km/h
2413 22-09-2010 02:42:02 10.7 C 8.15 g/m*3 10.7 C 0 km/h
2414 22-09-2010 02:54:02 10.5 C 8.05 g/m*3 10.5 C 0 km/h
2415 22-09-2010 03:06:02 10.4 C 8 g/m*3 10.4 C 0 km/h
2416 22-09-2010 03:18:02 10.4 C 8 g/m*3 10.4 C 0 km/h
2417 22-09-2010 03:30:02 10.3 C 8.04 g/m*3 10.3 C 0 km/h
2418 22-09-2010 03:42:02 10.1 C 7.94 g/m*3 10.1 C 0 km/h
2419 22-09-2010 03:54:02 9.9 C 8.03 g/m*3 9.9 C 0 km/h
2420 22-09-2010 04:06:02 9.9 C 8.03 g/m*3 9.9 C 0 km/h
2421 22-09-2010 04:18:02 9.7 C 7.93 g/m*3 9.7 C 0 km/h
2422 22-09-2010 04:30:02 9.6 C 7.79 g/m*3 9.6 C 0 km/h
2423 22-09-2010 04:42:02 9.6 C 7.88 g/m*3 9.6 C 0 km/h
2424 22-09-2010 04:54:02 9.8 C 8.07 g/m*3 9.8 C 0 km/h
2425 22-09-2010 05:06:02 9.8 C 8.07 g/m*3 9.8 C 0 km/h
Sensor: Nr:Datum:Temp:Abs-Feuchte:Windchill:Wind:
Aussen-T/F 2426 22-09-2010 05:18:02 9.9 C 8.22 g/m*3 9.9 C 0 km/h
2427 22-09-2010 05:30:03 9.9 C 8.22 g/m*3 9.9 C 0 km/h
2428 22-09-2010 05:42:03 9.9 C 8.22 g/m*3 9.9 C 0 km/h
2429 22-09-2010 05:54:03 9.7 C 8.02 g/m*3 9.7 C 0 km/h
2430 22-09-2010 06:06:03 9.8 C 8.16 g/m*3 9.8 C 0 km/h
2431 22-09-2010 06:18:03 9.8 C 8.16 g/m*3 9.8 C 0 km/h
2432 22-09-2010 06:30:03 9.8 C 8.16 g/m*3 9.8 C 0 km/h
2433 22-09-2010 06:42:03 9.7 C 8.11 g/m*3 9.7 C 0 km/h
2434 22-09-2010 06:54:03 9.8 C 8.16 g/m*3 9.8 C 0 km/h
2435 22-09-2010 07:06:01 9.8 C 8.16 g/m*3 9.8 C 0 km/h
2436 22-09-2010 07:18:02 9.8 C 8.16 g/m*3 9.8 C 0 km/h
2437 22-09-2010 07:30:02 9.6 C 8.06 g/m*3 9.6 C 0 km/h
2438 22-09-2010 07:42:01 9.3 C 7.91 g/m*3 9.3 C 0 km/h
2439 22-09-2010 07:54:01 9.3 C 7.91 g/m*3 9.3 C 0 km/h
2440 22-09-2010 08:06:01 9.3 C 7.91 g/m*3 9.3 C 0 km/h
2441 22-09-2010 08:18:02 9.3 C 7.91 g/m*3 9.3 C 0 km/h
2442 22-09-2010 08:30:02 9.6 C 8.15 g/m*3 9.6 C 0 km/h
2443 22-09-2010 08:42:01 9.3 C 7.91 g/m*3 9.3 C 0 km/h
2444 22-09-2010 08:54:02 9.3 C 7.91 g/m*3 9.3 C 0 km/h
2445 22-09-2010 09:06:01 9.6 C 8.06 g/m*3 9.6 C 0 km/h
2446 22-09-2010 09:18:02 9.8 C 8.16 g/m*3 9.8 C 0 km/h
2447 22-09-2010 09:30:02 10.2 C 8.09 g/m*3 10.2 C 0 km/h
2448 22-09-2010 09:42:01 10.3 C 8.04 g/m*3 10.3 C 0 km/h
2449 22-09-2010 09:54:02 11 C 8.41 g/m*3 11 C 0 km/h
2450 22-09-2010 10:06:01 11.8 C 8.63 g/m*3 11.8 C 0 km/h
Sensor: Nr:Datum:Temp:Abs-Feuchte:Windchill:Wind:
Aussen-T/F 2451 22-09-2010 10:18:01 12.4 C 8.74 g/m*3 12.4 C 0 km/h
2452 22-09-2010 10:30:01 12 C 8.31 g/m*3 12 C 0 km/h
2453 22-09-2010 10:42:02 12.7 C 8.79 g/m*3 12.7 C 0 km/h
2454 22-09-2010 10:54:01 13.2 C 8.73 g/m*3 13.2 C 0 km/h
2455 22-09-2010 11:06:02 12.9 C 8.68 g/m*3 12.9 C 0 km/h
2456 22-09-2010 11:18:01 13.1 C 8.9 g/m*3 13.1 C 0 km/h
2457 22-09-2010 11:30:01 13.6 C 9.3 g/m*3 13.6 C 0 km/h
2458 22-09-2010 11:42:02 14.2 C 9.52 g/m*3 14.2 C 0 km/h
2459 22-09-2010 11:54:01 15.1 C 9.55 g/m*3 15.1 C 0 km/h
2460 22-09-2010 12:06:02 15.6 C 9.71 g/m*3 15.6 C 0 km/h
2461 22-09-2010 12:18:01 16 C 9.67 g/m*3 16 C 0 km/h
2462 22-09-2010 12:30:01 16.5 C 9.97 g/m*3 16.5 C 0 km/h
2463 22-09-2010 12:42:01 17.1 C 10.19 g/m*3 17.1 C 0 km/h
2464 22-09-2010 12:54:01 17.5 C 10.29 g/m*3 17.5 C 0 km/h
2465 22-09-2010 13:06:01 18.4 C 9.91 g/m*3 18.4 C 0 km/h
2466 22-09-2010 13:18:02 19.1 C 9.84 g/m*3 19.1 C 0 km/h
2467 22-09-2010 13:30:02 19.7 C 10.19 g/m*3 19.7 C 0 km/h
2468 22-09-2010 13:42:01 20.4 C 10.26 g/m*3 20.4 C 0 km/h
2469 22-09-2010 13:54:01 21.2 C 10.19 g/m*3 21.2 C 0 km/h
2470 22-09-2010 14:06:01 21.8 C 10.36 g/m*3 21.8 C 0 km/h
2471 22-09-2010 14:18:02 22.2 C 10.01 g/m*3 22.2 C 0 km/h
2472 22-09-2010 14:30:02 22.9 C 10.22 g/m*3 22.9 C 0 km/h
2473 22-09-2010 14:42:01 23.4 C 9.88 g/m*3 23.4 C 0 km/h
2474 22-09-2010 14:54:02 24 C 9.79 g/m*3 24 C 0 km/h
2475 22-09-2010 15:06:01 24.2 C 9.9 g/m*3 24.2 C 0 km/h
Sensor: Nr:Datum:Temp:Abs-Feuchte:Windchill:Wind:
Aussen-T/F 2476 22-09-2010 15:18:01 24.1 C 9.63 g/m*3 24.1 C 0 km/h
2477 22-09-2010 15:30:01 24.9 C 9.61 g/m*3 24.9 C 0 km/h
2478 22-09-2010 15:42:01 25.6 C 8.81 g/m*3 25.6 C 0 km/h
2479 22-09-2010 15:54:01 26.5 C 8.26 g/m*3 26.5 C 0 km/h
2480 22-09-2010 16:06:01 26.9 C 8.7 g/m*3 26.9 C 0 km/h
2481 22-09-2010 16:18:01 27.1 C 8.8 g/m*3 27.1 C 0 km/h
2482 22-09-2010 16:30:01 27.4 C 8.68 g/m*3 27.4 C 0 km/h
2483 22-09-2010 16:42:02 27.6 C 8.51 g/m*3 27.6 C 0 km/h
2484 22-09-2010 16:54:01 27.6 C 8.25 g/m*3 27.6 C 0 km/h
2485 22-09-2010 17:06:02 27.3 C 7.85 g/m*3 27.3 C 0 km/h
2486 22-09-2010 17:18:01 27.4 C 8.16 g/m*3 27.4 C 0 km/h
2487 22-09-2010 17:30:01 27.2 C 8.07 g/m*3 27.2 C 0 km/h
2488 22-09-2010 17:42:01 26.9 C 7.93 g/m*3 26.9 C 0 km/h
2489 22-09-2010 17:54:01 26.5 C 8.76 g/m*3 26.5 C 0 km/h
2490 22-09-2010 18:06:02 26.1 C 8.81 g/m*3 26.1 C 0 km/h
2491 22-09-2010 18:18:01 25.6 C 9.05 g/m*3 25.6 C 0 km/h
2492 22-09-2010 18:30:01 25.3 C 9.36 g/m*3 25.3 C 0 km/h
2493 22-09-2010 18:42:01 24.1 C 8.97 g/m*3 24.1 C 0 km/h
2494 22-09-2010 18:54:01 23.3 C 9.2 g/m*3 23.3 C 0 km/h
2495 22-09-2010 19:06:01 22.5 C 9.19 g/m*3 22.5 C 0 km/h
2496 22-09-2010 19:18:02 21.8 C 9.4 g/m*3 21.8 C 0 km/h
2497 22-09-2010 19:30:02 20.6 C 9.31 g/m*3 20.6 C 0 km/h
2498 22-09-2010 19:42:01 20 C 8.99 g/m*3 20 C 0 km/h
2499 22-09-2010 19:54:01 19.5 C 9.06 g/m*3 19.5 C 0 km/h
2500 22-09-2010 20:06:01 19 C 9.13 g/m*3 19 C 0 km/h
Sensor: Nr:Datum:Temp:Abs-Feuchte:Windchill:Wind:
Aussen-T/F 2501 22-09-2010 20:18:02 18.7 C 9.13 g/m*3 18.7 C 0 km/h
2502 22-09-2010 20:30:02 18.5 C 9.02 g/m*3 18.5 C 0 km/h
2503 22-09-2010 20:42:01 18.4 C 9.12 g/m*3 18.4 C 0 km/h
2504 22-09-2010 20:54:02 18.1 C 9.12 g/m*3 18.1 C 0 km/h
2505 22-09-2010 21:06:01 17.9 C 9.31 g/m*3 17.9 C 0 km/h
2506 22-09-2010 21:18:01 17.6 C 9.45 g/m*3 17.6 C 0 km/h
2507 22-09-2010 21:30:01 17.5 C 9.24 g/m*3 17.5 C 0 km/h
2508 22-09-2010 21:42:01 17.3 C 9.28 g/m*3 17.3 C 0 km/h
2509 22-09-2010 21:54:01 17 C 9.26 g/m*3 17 C 0 km/h
2510 22-09-2010 22:08:02 16.8 C 9.29 g/m*3 16.8 C 0 km/h
2511 22-09-2010 22:20:02 16.4 C 9.35 g/m*3 16.4 C 0 km/h
2512 22-09-2010 22:32:02 16.1 C 9.32 g/m*3 16.1 C 0 km/h
2513 22-09-2010 22:44:02 15.9 C 9.21 g/m*3 15.9 C 0 km/h
2514 22-09-2010 22:56:02 15.7 C 9.1 g/m*3 15.7 C 0 km/h
2515 22-09-2010 23:08:02 15.4 C 8.8 g/m*3 15.4 C 0 km/h
2516 22-09-2010 23:20:02 15.1 C 8.77 g/m*3 15.1 C 0 km/h
2517 22-09-2010 23:32:02 14.9 C 8.79 g/m*3 14.9 C 0 km/h
2518 22-09-2010 23:44:02 14.7 C 8.81 g/m*3 14.7 C 0 km/h
2519 22-09-2010 23:56:02 14.5 C 8.71 g/m*3 14.5 C 0 km/h
2520 23-09-2010 00:08:02 14.4 C 8.53 g/m*3 14.4 C 0 km/h
2521 23-09-2010 00:20:02 14.2 C 8.67 g/m*3 14.2 C 0 km/h
2522 23-09-2010 00:32:02 14 C 8.56 g/m*3 14 C 0 km/h
2523 23-09-2010 00:44:02 13.8 C 8.7 g/m*3 13.8 C 0 km/h
2524 23-09-2010 00:56:02 13.7 C 8.76 g/m*3 13.7 C 0 km/h
2525 23-09-2010 01:08:02 13.5 C 8.77 g/m*3 13.5 C 0 km/h
Sensor: Nr:Datum:Temp:Abs-Feuchte:Windchill:Wind:
Aussen-T/F 2526 23-09-2010 01:20:02 13.4 C 8.72 g/m*3 13.4 C 0 km/h
2527 23-09-2010 01:32:02 13.2 C 8.73 g/m*3 13.2 C 0 km/h
2528 23-09-2010 01:44:02 13.1 C 8.67 g/m*3 13.1 C 0 km/h
2529 23-09-2010 01:56:03 12.9 C 8.68 g/m*3 12.9 C 0 km/h
2530 23-09-2010 02:08:03 12.8 C 8.74 g/m*3 12.8 C 0 km/h
2531 23-09-2010 02:20:03 12.6 C 8.74 g/m*3 12.6 C 0 km/h
2532 23-09-2010 02:32:03 12.4 C 8.74 g/m*3 12.4 C 0 km/h
2533 23-09-2010 02:44:03 12.3 C 8.69 g/m*3 12.3 C 0 km/h
2534 23-09-2010 02:56:03 12.1 C 8.58 g/m*3 12.1 C 0 km/h
2535 23-09-2010 03:08:03 12 C 8.53 g/m*3 12 C 0 km/h
2536 23-09-2010 03:20:03 11.8 C 8.53 g/m*3 11.8 C 0 km/h
2537 23-09-2010 03:32:03 11.8 C 8.53 g/m*3 11.8 C 0 km/h
2538 23-09-2010 03:44:03 11.8 C 8.63 g/m*3 11.8 C 0 km/h
2539 23-09-2010 03:56:03 11.6 C 8.63 g/m*3 11.6 C 0 km/h
2540 23-09-2010 04:08:03 11.4 C 8.52 g/m*3 11.4 C 0 km/h
2541 23-09-2010 04:20:03 11.2 C 8.41 g/m*3 11.2 C 0 km/h
2542 23-09-2010 04:32:03 11.2 C 8.41 g/m*3 11.2 C 0 km/h
2543 23-09-2010 04:44:03 11 C 8.31 g/m*3 11 C 0 km/h
2544 23-09-2010 04:56:03 11 C 8.31 g/m*3 11 C 0 km/h
2545 23-09-2010 05:08:03 10.9 C 8.36 g/m*3 10.9 C 0 km/h
2546 23-09-2010 05:20:03 10.7 C 8.25 g/m*3 10.7 C 0 km/h
2547 23-09-2010 05:32:03 10.6 C 8.2 g/m*3 10.6 C 0 km/h
2548 23-09-2010 05:44:03 10.5 C 8.15 g/m*3 10.5 C 0 km/h
2549 23-09-2010 05:56:03 10.5 C 8.15 g/m*3 10.5 C 0 km/h
2550 23-09-2010 06:08:03 10.4 C 8.1 g/m*3 10.4 C 0 km/h
Sensor: Nr:Datum:Temp:Abs-Feuchte:Windchill:Wind:
Aussen-T/F 2551 23-09-2010 06:20:04 10.5 C 8.24 g/m*3 10.5 C 0 km/h
2552 23-09-2010 06:32:04 10.6 C 8.3 g/m*3 10.6 C 0 km/h
2553 23-09-2010 06:44:04 10.4 C 8.19 g/m*3 10.4 C 0 km/h
2554 23-09-2010 06:56:04 10.4 C 8.19 g/m*3 10.4 C 0 km/h
2555 23-09-2010 07:08:02 10.5 C 8.24 g/m*3 10.5 C 0 km/h
2556 23-09-2010 07:20:01 10.4 C 8.19 g/m*3 10.4 C 0 km/h
2557 23-09-2010 07:32:02 10.5 C 8.24 g/m*3 10.5 C 0 km/h
2558 23-09-2010 07:44:02 10.6 C 8.3 g/m*3 10.6 C 0 km/h
2559 23-09-2010 07:56:02 10.6 C 8.3 g/m*3 10.6 C 0 km/h
2560 23-09-2010 08:08:02 10.6 C 8.3 g/m*3 10.6 C 0 km/h
2561 23-09-2010 08:20:01 10.7 C 8.35 g/m*3 10.7 C 0 km/h
2562 23-09-2010 08:32:02 10.8 C 8.4 g/m*3 10.8 C 0 km/h
2563 23-09-2010 08:44:02 11 C 8.51 g/m*3 11 C 0 km/h
2564 23-09-2010 08:56:02 11.3 C 8.57 g/m*3 11.3 C 0 km/h
2565 23-09-2010 09:08:01 11.4 C 8.52 g/m*3 11.4 C 0 km/h
2566 23-09-2010 09:20:01 11.4 C 8.52 g/m*3 11.4 C 0 km/h
2567 23-09-2010 09:32:02 11.4 C 8.52 g/m*3 11.4 C 0 km/h
2568 23-09-2010 09:44:02 11.7 C 8.79 g/m*3 11.7 C 0 km/h
2569 23-09-2010 09:56:02 12.3 C 8.9 g/m*3 12.3 C 0 km/h
2570 23-09-2010 10:08:02 12.4 C 8.96 g/m*3 12.4 C 0 km/h
2571 23-09-2010 10:20:02 12.5 C 9.02 g/m*3 12.5 C 0 km/h
2572 23-09-2010 10:32:02 12.9 C 9.24 g/m*3 12.9 C 0 km/h
2573 23-09-2010 10:44:02 13.3 C 9.36 g/m*3 13.3 C 0 km/h
2574 23-09-2010 10:56:02 13.8 C 9.65 g/m*3 13.8 C 0 km/h
2575 23-09-2010 11:08:02 14.1 C 9.71 g/m*3 14.1 C 0 km/h
Sensor: Nr:Datum:Temp:Abs-Feuchte:Windchill:Wind:
Aussen-T/F 2576 23-09-2010 11:20:02 15 C 10 g/m*3 15 C 0 km/h
2577 23-09-2010 11:32:02 15.8 C 10.23 g/m*3 15.8 C 0 km/h
2578 23-09-2010 11:44:02 16.3 C 10.13 g/m*3 16.3 C 0 km/h
2579 23-09-2010 11:56:02 17 C 10.27 g/m*3 17 C 0 km/h
2580 23-09-2010 12:08:02 17.5 C 10.44 g/m*3 17.5 C 0 km/h
2581 23-09-2010 12:20:02 18 C 10.44 g/m*3 18 C 0 km/h
2582 23-09-2010 12:32:02 18.7 C 10.73 g/m*3 18.7 C 0 km/h
2583 23-09-2010 12:44:02 19.2 C 10.55 g/m*3 19.2 C 0 km/h
2584 23-09-2010 12:56:02 19.9 C 10.82 g/m*3 19.9 C 0 km/h
2585 23-09-2010 13:08:02 20.5 C 11.03 g/m*3 20.5 C 0 km/h
2586 23-09-2010 13:20:02 21.4 C 11.06 g/m*3 21.4 C 0 km/h
2587 23-09-2010 13:32:01 22.3 C 11.26 g/m*3 22.3 C 0 km/h
2588 23-09-2010 13:44:01 23.3 C 10.66 g/m*3 23.3 C 0 km/h
2589 23-09-2010 13:56:02 24 C 9.14 g/m*3 24 C 0 km/h
2590 23-09-2010 14:08:01 24.5 C 9.62 g/m*3 24.5 C 0 km/h
2591 23-09-2010 14:20:02 23.8 C 10.11 g/m*3 23.8 C 0 km/h
2592 23-09-2010 14:32:02 23.7 C 10.48 g/m*3 23.7 C 0 km/h
2593 23-09-2010 14:44:02 23.8 C 10.54 g/m*3 23.8 C 0 km/h
2594 23-09-2010 14:56:02 24.5 C 10.3 g/m*3 24.5 C 0 km/h
2595 23-09-2010 15:08:02 25.2 C 8.85 g/m*3 25.2 C 0 km/h
2596 23-09-2010 15:20:02 25.2 C 9.78 g/m*3 25.2 C 0 km/h
2597 23-09-2010 15:32:02 24.8 C 9.33 g/m*3 24.8 C 0 km/h
2598 23-09-2010 15:44:03 25.1 C 9.26 g/m*3 25.1 C 0 km/h
2599 23-09-2010 15:56:01 24.9 C 9.61 g/m*3 24.9 C 0 km/h
2600 23-09-2010 16:08:02 25.1 C 10.19 g/m*3 25.1 C 0 km/h
Sensor: Nr:Datum:Temp:Abs-Feuchte:Windchill:Wind:
Aussen-T/F 2601 23-09-2010 16:20:01 26 C 9.74 g/m*3 26 C 0 km/h
2602 23-09-2010 16:32:01 25.6 C 9.05 g/m*3 25.6 C 0 km/h
2603 23-09-2010 16:44:01 24.9 C 10.07 g/m*3 24.9 C 0 km/h
2604 23-09-2010 16:56:01 24.1 C 10.28 g/m*3 24.1 C 0 km/h
2605 23-09-2010 17:08:01 23.7 C 10.91 g/m*3 23.7 C 0 km/h
2606 23-09-2010 17:20:02 23.4 C 10.72 g/m*3 23.4 C 0 km/h
2607 23-09-2010 17:32:01 23.2 C 10.81 g/m*3 23.2 C 0 km/h
2608 23-09-2010 17:44:01 23.3 C 10.45 g/m*3 23.3 C 0 km/h
2609 23-09-2010 17:56:02 23.8 C 10.76 g/m*3 23.8 C 0 km/h
2610 23-09-2010 18:08:01 23.3 C 10.45 g/m*3 23.3 C 0 km/h
2611 23-09-2010 18:20:02 22.6 C 10.25 g/m*3 22.6 C 0 km/h
2612 23-09-2010 18:32:01 21.7 C 10.68 g/m*3 21.7 C 0 km/h
2613 23-09-2010 18:44:01 21.6 C 10.81 g/m*3 21.6 C 0 km/h
2614 23-09-2010 18:56:02 21.4 C 10.87 g/m*3 21.4 C 0 km/h
2615 23-09-2010 19:08:02 20.9 C 10.93 g/m*3 20.9 C 0 km/h
2616 23-09-2010 19:20:02 20.4 C 10.97 g/m*3 20.4 C 0 km/h
2617 23-09-2010 19:32:02 19.8 C 11.1 g/m*3 19.8 C 0 km/h
2618 23-09-2010 19:44:02 19.4 C 11.18 g/m*3 19.4 C 0 km/h
2619 23-09-2010 19:56:02 19 C 11.08 g/m*3 19 C 0 km/h
2620 23-09-2010 20:08:01 18.8 C 11.43 g/m*3 18.8 C 0 km/h
2621 23-09-2010 20:20:02 18.6 C 11.3 g/m*3 18.6 C 0 km/h
2622 23-09-2010 20:32:02 18.6 C 11.3 g/m*3 18.6 C 0 km/h
2623 23-09-2010 20:44:02 18.4 C 11.32 g/m*3 18.4 C 0 km/h
2624 23-09-2010 20:56:02 18.1 C 11.12 g/m*3 18.1 C 0 km/h
2625 23-09-2010 21:08:02 18.4 C 11.48 g/m*3 18.4 C 0 km/h
Sensor: Nr:Datum:Temp:Abs-Feuchte:Windchill:Wind:
Aussen-T/F 2626 23-09-2010 21:20:01 18.3 C 11.41 g/m*3 18.3 C 0 km/h
2627 23-09-2010 21:32:02 18.4 C 11.64 g/m*3 18.4 C 0 km/h
2628 23-09-2010 21:44:02 18.7 C 11.53 g/m*3 18.7 C 0 km/h
2629 23-09-2010 21:57:02 18.7 C 11.37 g/m*3 18.7 C 0 km/h
2630 23-09-2010 22:09:02 18.5 C 11.23 g/m*3 18.5 C 0 km/h
2631 23-09-2010 22:21:02 18.5 C 11.39 g/m*3 18.5 C 0 km/h
2632 23-09-2010 22:33:02 17.9 C 11.6 g/m*3 17.9 C 0 km/h
2633 23-09-2010 22:45:02 17.7 C 12.52 g/m*3 17.7 C 0 km/h
2634 23-09-2010 22:57:02 17.1 C 12.23 g/m*3 17.1 C 0 km/h
2635 23-09-2010 23:09:02 16.9 C 12.37 g/m*3 16.9 C 0 km/h
2636 23-09-2010 23:21:02 16.5 C 12.22 g/m*3 16.5 C 0 km/h
2637 23-09-2010 23:33:02 16.4 C 12.28 g/m*3 16.4 C 0 km/h
2638 23-09-2010 23:45:02 16.2 C 12.14 g/m*3 16.2 C 0 km/h
2639 23-09-2010 23:57:02 16.2 C 12.27 g/m*3 16.2 C 0 km/h
2640 24-09-2010 00:09:02 16 C 12.13 g/m*3 16 C 0 km/h
2641 24-09-2010 00:21:02 15.9 C 12.32 g/m*3 15.9 C 0 km/h
2642 24-09-2010 00:33:02 15.6 C 12.1 g/m*3 15.6 C 0 km/h
2643 24-09-2010 00:45:02 15.5 C 12.16 g/m*3 15.5 C 0 km/h
2644 24-09-2010 00:57:02 15.5 C 12.16 g/m*3 15.5 C 0 km/h
2645 24-09-2010 01:09:02 15.5 C 12.16 g/m*3 15.5 C 0 km/h
2646 24-09-2010 01:21:02 15.5 C 12.29 g/m*3 15.5 C 0 km/h
2647 24-09-2010 01:33:02 15.6 C 12.37 g/m*3 15.6 C 0 km/h
2648 24-09-2010 01:45:02 15.6 C 12.37 g/m*3 15.6 C 0 km/h
2649 24-09-2010 01:57:03 15.5 C 12.29 g/m*3 15.5 C 0 km/h
2650 24-09-2010 02:09:03 15.5 C 12.29 g/m*3 15.5 C 0 km/h
Sensor: Nr:Datum:Temp:Abs-Feuchte:Windchill:Wind:
Aussen-T/F 2651 24-09-2010 02:21:03 15.5 C 12.29 g/m*3 15.5 C 0 km/h
2652 24-09-2010 02:33:03 15.4 C 12.22 g/m*3 15.4 C 0 km/h
2653 24-09-2010 02:45:03 15.3 C 12.01 g/m*3 15.3 C 0 km/h
2654 24-09-2010 02:57:03 15.2 C 11.94 g/m*3 15.2 C 0 km/h
2655 24-09-2010 03:09:03 15.1 C 11.87 g/m*3 15.1 C 0 km/h
2656 24-09-2010 03:21:03 14.9 C 11.85 g/m*3 14.9 C 0 km/h
2657 24-09-2010 03:33:03 14.9 C 11.85 g/m*3 14.9 C 0 km/h
2658 24-09-2010 03:45:03 14.9 C 11.98 g/m*3 14.9 C 0 km/h
2659 24-09-2010 03:57:03 14.9 C 11.98 g/m*3 14.9 C 0 km/h
2660 24-09-2010 04:09:03 14.8 C 11.91 g/m*3 14.8 C 0 km/h
2661 24-09-2010 04:21:03 14.8 C 11.91 g/m*3 14.8 C 0 km/h
2662 24-09-2010 04:33:03 14.8 C 11.91 g/m*3 14.8 C 0 km/h
2663 24-09-2010 04:45:03 14.8 C 11.91 g/m*3 14.8 C 0 km/h
2664 24-09-2010 04:57:03 14.7 C 11.83 g/m*3 14.7 C 0 km/h
2665 24-09-2010 05:09:03 14.5 C 11.69 g/m*3 14.5 C 0 km/h
2666 24-09-2010 05:21:03 14.5 C 11.69 g/m*3 14.5 C 0 km/h
2667 24-09-2010 05:33:03 14.5 C 11.69 g/m*3 14.5 C 0 km/h
2668 24-09-2010 05:45:03 14.6 C 11.76 g/m*3 14.6 C 0 km/h
2669 24-09-2010 05:57:03 14.6 C 11.76 g/m*3 14.6 C 0 km/h
2670 24-09-2010 06:09:03 14.7 C 11.83 g/m*3 14.7 C 0 km/h
2671 24-09-2010 06:21:04 14.7 C 11.83 g/m*3 14.7 C 0 km/h
2672 24-09-2010 06:33:04 14.7 C 11.83 g/m*3 14.7 C 0 km/h
2673 24-09-2010 06:45:04 14.7 C 11.83 g/m*3 14.7 C 0 km/h
2674 24-09-2010 06:57:04 14.7 C 11.83 g/m*3 14.7 C 0 km/h
2675 24-09-2010 07:09:04 14.5 C 11.69 g/m*3 14.5 C 0 km/h
Sensor: Nr:Datum:Temp:Abs-Feuchte:Windchill:Wind:
Aussen-T/F 2676 24-09-2010 07:21:04 14.4 C 11.62 g/m*3 14.4 C 0 km/h
2677 24-09-2010 07:33:02 14.3 C 11.55 g/m*3 14.3 C 0 km/h
2678 24-09-2010 07:45:02 14.4 C 11.62 g/m*3 14.4 C 0 km/h
2679 24-09-2010 07:57:02 14.4 C 11.62 g/m*3 14.4 C 0 km/h
2680 24-09-2010 08:09:02 14.4 C 11.62 g/m*3 14.4 C 0 km/h
2681 24-09-2010 08:21:01 14.3 C 11.55 g/m*3 14.3 C 0 km/h
2682 24-09-2010 08:33:02 14.6 C 11.89 g/m*3 14.6 C 0 km/h
2683 24-09-2010 08:45:02 14.8 C 12.03 g/m*3 14.8 C 0 km/h
2684 24-09-2010 08:57:02 14.8 C 12.03 g/m*3 14.8 C 0 km/h
2685 24-09-2010 09:09:01 14.8 C 12.03 g/m*3 14.8 C 0 km/h
2686 24-09-2010 09:21:02 14.8 C 12.03 g/m*3 14.8 C 0 km/h
2687 24-09-2010 09:33:01 14.9 C 12.11 g/m*3 14.9 C 0 km/h
2688 24-09-2010 09:45:02 14.9 C 12.11 g/m*3 14.9 C 0 km/h
2689 24-09-2010 09:57:02 15 C 12.05 g/m*3 15 C 0 km/h
2690 24-09-2010 10:09:02 15 C 12.05 g/m*3 15 C 0 km/h
2691 24-09-2010 10:21:02 14.9 C 12.11 g/m*3 14.9 C 0 km/h
2692 24-09-2010 10:33:02 15 C 12.05 g/m*3 15 C 0 km/h
2693 24-09-2010 10:45:01 15 C 12.05 g/m*3 15 C 0 km/h
2694 24-09-2010 10:57:01 15 C 12.05 g/m*3 15 C 0 km/h
2695 24-09-2010 11:09:02 15.1 C 12.13 g/m*3 15.1 C 0 km/h
2696 24-09-2010 11:21:01 15.1 C 12.13 g/m*3 15.1 C 0 km/h
2697 24-09-2010 11:33:01 15.4 C 12.35 g/m*3 15.4 C 0 km/h
2698 24-09-2010 11:45:02 15.4 C 12.35 g/m*3 15.4 C 0 km/h
2699 24-09-2010 11:57:02 15.1 C 12.13 g/m*3 15.1 C 0 km/h
2700 24-09-2010 12:09:02 15.1 C 12.13 g/m*3 15.1 C 0 km/h
Sensor: Nr:Datum:Temp:Abs-Feuchte:Windchill:Wind:
Aussen-T/F 2701 24-09-2010 12:21:02 15.1 C 12.13 g/m*3 15.1 C 0 km/h
2702 24-09-2010 12:33:03 15.4 C 12.48 g/m*3 15.4 C 0 km/h
2703 24-09-2010 12:45:02 15.1 C 12.13 g/m*3 15.1 C 0 km/h
2704 24-09-2010 12:57:03 15 C 12.05 g/m*3 15 C 0 km/h
2705 24-09-2010 13:09:02 14.8 C 11.91 g/m*3 14.8 C 0 km/h
2706 24-09-2010 13:21:02 14.6 C 11.76 g/m*3 14.6 C 0 km/h
2707 24-09-2010 13:33:02 14.5 C 11.69 g/m*3 14.5 C 0 km/h
2708 24-09-2010 13:45:02 14.5 C 11.69 g/m*3 14.5 C 0 km/h
2709 24-09-2010 13:57:02 14.4 C 11.62 g/m*3 14.4 C 0 km/h
2710 24-09-2010 14:09:03 14.1 C 11.41 g/m*3 14.1 C 0 km/h
2711 24-09-2010 14:21:02 13.8 C 11.2 g/m*3 13.8 C 0 km/h
2712 24-09-2010 14:33:03 13.5 C 10.99 g/m*3 13.5 C 0 km/h
2713 24-09-2010 14:45:02 13.2 C 10.79 g/m*3 13.2 C 0 km/h
2714 24-09-2010 14:57:02 13.1 C 10.73 g/m*3 13.1 C 0 km/h
2715 24-09-2010 15:09:02 12.9 C 10.71 g/m*3 12.9 C 0 km/h
2716 24-09-2010 15:21:03 13.1 C 10.73 g/m*3 13.1 C 0 km/h
2717 24-09-2010 15:33:02 13 C 10.77 g/m*3 13 C 0 km/h
2718 24-09-2010 15:45:03 13.2 C 10.91 g/m*3 13.2 C 0 km/h
2719 24-09-2010 15:57:03 13.2 C 10.91 g/m*3 13.2 C 0 km/h
2720 24-09-2010 16:09:02 13.3 C 10.98 g/m*3 13.3 C 0 km/h
2721 24-09-2010 16:21:02 13.7 C 11.25 g/m*3 13.7 C 0 km/h
2722 24-09-2010 16:33:02 14 C 11.46 g/m*3 14 C 0 km/h
2723 24-09-2010 16:45:02 14.1 C 11.53 g/m*3 14.1 C 0 km/h
2724 24-09-2010 16:57:02 13.9 C 11.39 g/m*3 13.9 C 0 km/h
2725 24-09-2010 17:09:02 13.9 C 11.39 g/m*3 13.9 C 0 km/h
Sensor: Nr:Datum:Temp:Abs-Feuchte:Windchill:Wind:
Aussen-T/F 2726 24-09-2010 17:21:02 13.9 C 11.39 g/m*3 13.9 C 0 km/h
2727 24-09-2010 17:33:02 13.4 C 10.93 g/m*3 13.4 C 0 km/h
2728 24-09-2010 17:45:02 13.2 C 10.79 g/m*3 13.2 C 0 km/h
2729 24-09-2010 17:57:02 13 C 10.66 g/m*3 13 C 0 km/h
2730 24-09-2010 18:09:01 13.2 C 10.79 g/m*3 13.2 C 0 km/h
2731 24-09-2010 18:21:01 13.3 C 10.86 g/m*3 13.3 C 0 km/h
2732 24-09-2010 18:33:02 13.3 C 10.86 g/m*3 13.3 C 0 km/h
2733 24-09-2010 18:45:02 13.3 C 10.86 g/m*3 13.3 C 0 km/h
2734 24-09-2010 18:57:02 13.2 C 10.79 g/m*3 13.2 C 0 km/h
2735 24-09-2010 19:09:02 13.1 C 10.73 g/m*3 13.1 C 0 km/h
2736 24-09-2010 19:21:01 12.9 C 10.71 g/m*3 12.9 C 0 km/h
2737 24-09-2010 19:33:02 12.8 C 10.64 g/m*3 12.8 C 0 km/h
2738 24-09-2010 19:45:02 12.7 C 10.58 g/m*3 12.7 C 0 km/h
2739 24-09-2010 19:57:02 12.7 C 10.58 g/m*3 12.7 C 0 km/h
2740 24-09-2010 20:09:02 12.7 C 10.58 g/m*3 12.7 C 0 km/h
2741 24-09-2010 20:21:01 12.7 C 10.58 g/m*3 12.7 C 0 km/h
2742 24-09-2010 20:33:02 12.7 C 10.58 g/m*3 12.7 C 0 km/h
2743 24-09-2010 20:45:01 12.7 C 10.58 g/m*3 12.7 C 0 km/h
2744 24-09-2010 20:57:01 12.7 C 10.58 g/m*3 12.7 C 0 km/h
2745 24-09-2010 21:09:02 12.8 C 10.64 g/m*3 12.8 C 0 km/h
2746 24-09-2010 21:21:02 12.8 C 10.64 g/m*3 12.8 C 0 km/h
2747 24-09-2010 21:33:02 12.9 C 10.71 g/m*3 12.9 C 0 km/h
2748 24-09-2010 21:45:02 12.8 C 10.64 g/m*3 12.8 C 0 km/h
2749 24-09-2010 21:57:02 12.8 C 10.64 g/m*3 12.8 C 0 km/h
2750 24-09-2010 22:09:01 12.8 C 10.64 g/m*3 12.8 C 0 km/h
Sensor: Nr:Datum:Temp:Abs-Feuchte:Windchill:Wind:
Aussen-T/F 2751 24-09-2010 22:21:02 12.8 C 10.64 g/m*3 12.8 C 0 km/h
2752 24-09-2010 22:33:02 12.7 C 10.58 g/m*3 12.7 C 0 km/h
2753 24-09-2010 22:46:04 12.6 C 10.51 g/m*3 12.6 C 0 km/h
2754 24-09-2010 22:58:04 12.6 C 10.51 g/m*3 12.6 C 0 km/h
2755 24-09-2010 23:10:04 12.5 C 10.44 g/m*3 12.5 C 0 km/h
2756 24-09-2010 23:22:04 12.4 C 10.38 g/m*3 12.4 C 0 km/h
2757 24-09-2010 23:34:04 12.4 C 10.38 g/m*3 12.4 C 0 km/h
2758 24-09-2010 23:46:04 12.3 C 10.32 g/m*3 12.3 C 0 km/h
2759 24-09-2010 23:58:04 12.4 C 10.38 g/m*3 12.4 C 0 km/h
2760 25-09-2010 00:10:04 12.4 C 10.38 g/m*3 12.4 C 0 km/h
2761 25-09-2010 00:22:04 12.5 C 10.44 g/m*3 12.5 C 0 km/h
2762 25-09-2010 00:34:04 12.5 C 10.44 g/m*3 12.5 C 0 km/h
2763 25-09-2010 00:46:04 12.5 C 10.44 g/m*3 12.5 C 0 km/h
2764 25-09-2010 00:58:05 12.5 C 10.44 g/m*3 12.5 C 0 km/h
2765 25-09-2010 01:10:05 12.5 C 10.44 g/m*3 12.5 C 0 km/h
2766 25-09-2010 01:22:05 12.5 C 10.44 g/m*3 12.5 C 0 km/h
2767 25-09-2010 01:34:05 12.5 C 10.44 g/m*3 12.5 C 0 km/h
2768 25-09-2010 01:46:05 12.5 C 10.44 g/m*3 12.5 C 0 km/h
2769 25-09-2010 01:58:05 12.6 C 10.51 g/m*3 12.6 C 0 km/h
2770 25-09-2010 02:10:05 12.6 C 10.51 g/m*3 12.6 C 0 km/h
2771 25-09-2010 02:22:05 12.6 C 10.51 g/m*3 12.6 C 0 km/h
2772 25-09-2010 02:34:05 12.6 C 10.51 g/m*3 12.6 C 0 km/h
2773 25-09-2010 02:46:05 12.6 C 10.51 g/m*3 12.6 C 0 km/h
2774 25-09-2010 02:58:05 12.6 C 10.51 g/m*3 12.6 C 0 km/h
2775 25-09-2010 03:10:05 12.7 C 10.58 g/m*3 12.7 C 0 km/h
Sensor: Nr:Datum:Temp:Abs-Feuchte:Windchill:Wind:
Aussen-T/F 2776 25-09-2010 03:22:05 12.6 C 10.51 g/m*3 12.6 C 0 km/h
2777 25-09-2010 03:34:05 12.6 C 10.51 g/m*3 12.6 C 0 km/h
2778 25-09-2010 03:46:05 12.6 C 10.51 g/m*3 12.6 C 0 km/h
2779 25-09-2010 03:58:05 12.6 C 10.51 g/m*3 12.6 C 0 km/h
2780 25-09-2010 04:10:05 12.6 C 10.51 g/m*3 12.6 C 0 km/h
2781 25-09-2010 04:22:05 12.5 C 10.44 g/m*3 12.5 C 0 km/h
2782 25-09-2010 04:34:05 12.6 C 10.51 g/m*3 12.6 C 0 km/h
2783 25-09-2010 04:46:05 12.5 C 10.44 g/m*3 12.5 C 0 km/h
2784 25-09-2010 04:58:06 12.5 C 10.44 g/m*3 12.5 C 0 km/h
2785 25-09-2010 05:10:06 12.5 C 10.44 g/m*3 12.5 C 0 km/h
2786 25-09-2010 05:22:06 12.4 C 10.38 g/m*3 12.4 C 0 km/h
2787 25-09-2010 05:34:06 12.4 C 10.38 g/m*3 12.4 C 0 km/h
2788 25-09-2010 05:46:06 12.3 C 10.32 g/m*3 12.3 C 0 km/h
2789 25-09-2010 05:58:06 12.3 C 10.21 g/m*3 12.3 C 0 km/h
2790 25-09-2010 06:10:06 12.1 C 10.08 g/m*3 12.1 C 0 km/h
2791 25-09-2010 06:22:06 12.1 C 10.08 g/m*3 12.1 C 0 km/h
2792 25-09-2010 06:34:06 12.1 C 10.08 g/m*3 12.1 C 0 km/h
2793 25-09-2010 06:46:06 12 C 10.02 g/m*3 12 C 0 km/h
2794 25-09-2010 06:58:06 12 C 10.02 g/m*3 12 C 0 km/h
2795 25-09-2010 07:10:06 12 C 10.02 g/m*3 12 C 0 km/h
2796 25-09-2010 07:22:06 11.9 C 9.96 g/m*3 11.9 C 0 km/h
2797 25-09-2010 07:34:06 11.9 C 9.96 g/m*3 11.9 C 0 km/h
2798 25-09-2010 07:46:02 11.8 C 9.89 g/m*3 11.8 C 0 km/h
2799 25-09-2010 07:58:02 11.8 C 9.89 g/m*3 11.8 C 0 km/h
2800 25-09-2010 08:10:02 11.7 C 9.83 g/m*3 11.7 C 0 km/h
Sensor: Nr:Datum:Temp:Abs-Feuchte:Windchill:Wind:
Aussen-T/F 2801 25-09-2010 08:22:02 11.6 C 9.77 g/m*3 11.6 C 0 km/h
2802 25-09-2010 08:34:02 11.2 C 9.43 g/m*3 11.2 C 0 km/h
2803 25-09-2010 08:46:02 11 C 9.31 g/m*3 11 C 0 km/h
2804 25-09-2010 08:58:02 10.8 C 9.19 g/m*3 10.8 C 0 km/h
2805 25-09-2010 09:10:01 10.6 C 9.08 g/m*3 10.6 C 0 km/h
2806 25-09-2010 09:22:02 10.4 C 8.96 g/m*3 10.4 C 0 km/h
2807 25-09-2010 09:34:02 10.5 C 8.92 g/m*3 10.5 C 0 km/h
2808 25-09-2010 09:46:02 10.5 C 8.83 g/m*3 10.5 C 0 km/h
2809 25-09-2010 09:58:02 10.4 C 8.29 g/m*3 10.4 C 0 km/h
2810 25-09-2010 10:10:03 10.5 C 8.15 g/m*3 10.5 C 0 km/h
2811 25-09-2010 10:22:02 10.8 C 8.2 g/m*3 10.8 C 0 km/h
2812 25-09-2010 10:34:02 11.1 C 8.36 g/m*3 11.1 C 0 km/h
2813 25-09-2010 10:46:01 11.3 C 8.36 g/m*3 11.3 C 0 km/h
2814 25-09-2010 10:58:01 11.5 C 8.16 g/m*3 11.5 C 0 km/h
2815 25-09-2010 11:10:02 11.6 C 7.8 g/m*3 11.6 C 0 km/h
2816 25-09-2010 11:22:01 12.1 C 7.72 g/m*3 12.1 C 0 km/h
2817 25-09-2010 11:34:02 12.3 C 7.38 g/m*3 12.3 C 0 km/h
2818 25-09-2010 11:46:01 12.5 C 7.26 g/m*3 12.5 C 0 km/h
2819 25-09-2010 11:58:01 13 C 7.03 g/m*3 13 C 0 km/h
2820 25-09-2010 12:10:02 12.8 C 6.83 g/m*3 12.8 C 0 km/h
2821 25-09-2010 12:22:01 12.8 C 7.06 g/m*3 12.8 C 0 km/h
2822 25-09-2010 12:34:02 12.4 C 6.88 g/m*3 12.4 C 0 km/h
2823 25-09-2010 12:46:02 11.8 C 6.84 g/m*3 11.8 C 0 km/h
2824 25-09-2010 12:58:02 12.4 C 6.88 g/m*3 12.4 C 0 km/h
2825 25-09-2010 13:10:02 12.7 C 6.68 g/m*3 12.7 C 0 km/h
Sensor: Nr:Datum:Temp:Abs-Feuchte:Windchill:Wind:
Aussen-T/F 2826 25-09-2010 13:22:01 13 C 6.35 g/m*3 13 C 0 km/h
2827 25-09-2010 13:34:02 13.8 C 6.43 g/m*3 13.8 C 0 km/h
2828 25-09-2010 13:46:01 13.5 C 5.38 g/m*3 13.5 C 0 km/h
2829 25-09-2010 13:58:01 13.3 C 5.31 g/m*3 13.3 C 0 km/h
2830 25-09-2010 14:10:02 13.7 C 5.45 g/m*3 13.7 C 0 km/h
2831 25-09-2010 14:22:01 13.5 C 5.5 g/m*3 13.5 C 0 km/h
2832 25-09-2010 14:34:02 13.8 C 5.36 g/m*3 13.8 C 0 km/h
2833 25-09-2010 14:46:01 14.4 C 5.32 g/m*3 14.4 C 0 km/h
2834 25-09-2010 14:58:01 15.8 C 5.12 g/m*3 15.8 C 0 km/h
2835 25-09-2010 15:10:02 14.8 C 4.43 g/m*3 14.8 C 0 km/h
2836 25-09-2010 15:22:02 14.5 C 4.6 g/m*3 14.5 C 0 km/h
2837 25-09-2010 15:34:01 15.7 C 4.68 g/m*3 15.7 C 0 km/h
2838 25-09-2010 15:46:02 15.5 C 4.63 g/m*3 15.5 C 0 km/h
2839 25-09-2010 15:58:02 14.7 C 5.04 g/m*3 14.7 C 0 km/h
2840 25-09-2010 16:10:01 14.2 C 4.88 g/m*3 14.2 C 0 km/h
2841 25-09-2010 16:22:02 14.4 C 5.07 g/m*3 14.4 C 0 km/h
2842 25-09-2010 16:34:01 14.7 C 5.16 g/m*3 14.7 C 0 km/h
2843 25-09-2010 16:46:02 15.6 C 4.79 g/m*3 15.6 C 0 km/h
2844 25-09-2010 16:58:02 14.7 C 4.91 g/m*3 14.7 C 0 km/h
2845 25-09-2010 17:10:02 14.3 C 4.91 g/m*3 14.3 C 0 km/h
2846 25-09-2010 17:22:02 14.8 C 5.32 g/m*3 14.8 C 0 km/h
2847 25-09-2010 17:34:03 15.6 C 5.19 g/m*3 15.6 C 0 km/h
2848 25-09-2010 17:46:02 16.8 C 5.15 g/m*3 16.8 C 0 km/h
2849 25-09-2010 17:58:02 16.5 C 4.77 g/m*3 16.5 C 0 km/h
2850 25-09-2010 18:10:01 15.4 C 4.47 g/m*3 15.4 C 0 km/h
Sensor: Nr:Datum:Temp:Abs-Feuchte:Windchill:Wind:
Aussen-T/F 2851 25-09-2010 18:22:01 14.3 C 4.67 g/m*3 14.3 C 0 km/h
2852 25-09-2010 18:34:02 13.9 C 4.92 g/m*3 13.9 C 0 km/h
2853 25-09-2010 18:46:02 13.8 C 5.36 g/m*3 13.8 C 0 km/h
2854 25-09-2010 18:58:02 13.7 C 5.8 g/m*3 13.7 C 0 km/h
2855 25-09-2010 19:10:02 13.5 C 5.5 g/m*3 13.5 C 0 km/h
2856 25-09-2010 19:22:02 13.1 C 5.59 g/m*3 13.1 C 0 km/h
2857 25-09-2010 19:34:02 13 C 5.67 g/m*3 13 C 0 km/h
2858 25-09-2010 19:46:02 12.7 C 5.9 g/m*3 12.7 C 0 km/h
2859 25-09-2010 19:58:02 12.6 C 6.08 g/m*3 12.6 C 0 km/h
2860 25-09-2010 20:10:02 12.5 C 5.72 g/m*3 12.5 C 0 km/h
2861 25-09-2010 20:22:02 12.2 C 5.61 g/m*3 12.2 C 0 km/h
2862 25-09-2010 20:34:02 11.8 C 5.79 g/m*3 11.8 C 0 km/h
2863 25-09-2010 20:46:02 11.1 C 6.04 g/m*3 11.1 C 0 km/h
2864 25-09-2010 20:58:02 10.9 C 6.17 g/m*3 10.9 C 0 km/h
2865 25-09-2010 21:10:02 10.4 C 6.17 g/m*3 10.4 C 0 km/h
2866 25-09-2010 21:22:03 10.2 C 6.28 g/m*3 10.2 C 0 km/h
2867 25-09-2010 21:34:02 10.1 C 6.34 g/m*3 10.1 C 0 km/h
2868 25-09-2010 21:46:03 10 C 6.3 g/m*3 10 C 0 km/h
2869 25-09-2010 21:58:03 9.9 C 6.44 g/m*3 9.9 C 0 km/h
2870 25-09-2010 22:10:02 9.9 C 6.54 g/m*3 9.9 C 0 km/h
2871 25-09-2010 22:22:02 10.2 C 6.57 g/m*3 10.2 C 0 km/h
2872 25-09-2010 22:34:02 10.5 C 6.69 g/m*3 10.5 C 0 km/h
2873 25-09-2010 22:46:02 10.5 C 6.69 g/m*3 10.5 C 0 km/h
2874 25-09-2010 22:58:02 10.3 C 6.9 g/m*3 10.3 C 0 km/h
2875 25-09-2010 23:10:02 9.6 C 7.15 g/m*3 9.6 C 0 km/h
Sensor: Nr:Datum:Temp:Abs-Feuchte:Windchill:Wind:
Aussen-T/F 2876 25-09-2010 23:22:02 9.3 C 7.28 g/m*3 9.3 C 0 km/h
2877 25-09-2010 23:34:01 9.2 C 7.5 g/m*3 9.2 C 0 km/h
2878 25-09-2010 23:46:02 9.1 C 7.45 g/m*3 9.1 C 0 km/h
2879 25-09-2010 23:58:02 9.2 C 7.59 g/m*3 9.2 C 0 km/h
2880 26-09-2010 00:10:01 9.1 C 7.63 g/m*3 9.1 C 0 km/h
2881 26-09-2010 00:22:02 9.5 C 7.92 g/m*3 9.5 C 0 km/h
2882 26-09-2010 00:34:02 9.5 C 7.92 g/m*3 9.5 C 0 km/h
2883 26-09-2010 00:46:02 9.6 C 7.79 g/m*3 9.6 C 0 km/h
2884 26-09-2010 00:58:02 9.5 C 7.55 g/m*3 9.5 C 0 km/h
2885 26-09-2010 01:10:02 9.5 C 7.37 g/m*3 9.5 C 0 km/h
2886 26-09-2010 01:22:02 9.5 C 7.28 g/m*3 9.5 C 0 km/h
2887 26-09-2010 01:34:02 9.4 C 7.15 g/m*3 9.4 C 0 km/h
2888 26-09-2010 01:46:01 9.5 C 7.19 g/m*3 9.5 C 0 km/h
2889 26-09-2010 01:58:01 9.5 C 7.19 g/m*3 9.5 C 0 km/h
2890 26-09-2010 02:10:02 9.5 C 7.19 g/m*3 9.5 C 0 km/h
2891 26-09-2010 02:22:01 9.5 C 7.1 g/m*3 9.5 C 0 km/h
2892 26-09-2010 02:34:01 9.3 C 7.01 g/m*3 9.3 C 0 km/h
2893 26-09-2010 02:46:01 9.4 C 6.96 g/m*3 9.4 C 0 km/h
2894 26-09-2010 02:58:01 9.4 C 6.96 g/m*3 9.4 C 0 km/h
2895 26-09-2010 03:10:01 9.3 C 6.92 g/m*3 9.3 C 0 km/h
2896 26-09-2010 03:22:01 9.3 C 7.01 g/m*3 9.3 C 0 km/h
2897 26-09-2010 03:34:01 9.3 C 7.1 g/m*3 9.3 C 0 km/h
2898 26-09-2010 03:46:01 9.1 C 7.1 g/m*3 9.1 C 0 km/h
2899 26-09-2010 03:58:01 9 C 7.23 g/m*3 9 C 0 km/h
2900 26-09-2010 04:10:01 9 C 7.32 g/m*3 9 C 0 km/h
Sensor: Nr:Datum:Temp:Abs-Feuchte:Windchill:Wind:
Aussen-T/F 2901 26-09-2010 04:22:01 9 C 7.23 g/m*3 9 C 0 km/h
2902 26-09-2010 04:34:02 8.9 C 7.27 g/m*3 8.9 C 0 km/h
2903 26-09-2010 04:46:01 8.7 C 7.26 g/m*3 8.7 C 0 km/h
2904 26-09-2010 04:58:01 8.8 C 7.31 g/m*3 8.8 C 0 km/h
2905 26-09-2010 05:10:02 9 C 7.32 g/m*3 9 C 0 km/h
2906 26-09-2010 05:22:01 9.1 C 7.36 g/m*3 9.1 C 0 km/h
2907 26-09-2010 05:34:01 9 C 7.32 g/m*3 9 C 0 km/h
2908 26-09-2010 05:46:01 9 C 7.32 g/m*3 9 C 0 km/h
2909 26-09-2010 05:58:01 9 C 7.32 g/m*3 9 C 0 km/h
2910 26-09-2010 06:10:02 9 C 7.32 g/m*3 9 C 0 km/h
2911 26-09-2010 06:22:01 9.1 C 7.36 g/m*3 9.1 C 0 km/h
2912 26-09-2010 06:34:01 8.8 C 7.31 g/m*3 8.8 C 0 km/h
2913 26-09-2010 06:46:01 8.8 C 7.4 g/m*3 8.8 C 0 km/h
2914 26-09-2010 06:58:01 8.8 C 7.49 g/m*3 8.8 C 0 km/h
2915 26-09-2010 07:10:01 8.8 C 7.49 g/m*3 8.8 C 0 km/h
2916 26-09-2010 07:22:02 8.5 C 7.26 g/m*3 8.5 C 0 km/h
2917 26-09-2010 07:34:01 8.6 C 7.39 g/m*3 8.6 C 0 km/h
2918 26-09-2010 07:46:02 8.9 C 7.62 g/m*3 8.9 C 0 km/h
2919 26-09-2010 07:58:02 9.2 C 7.5 g/m*3 9.2 C 0 km/h
2920 26-09-2010 08:10:01 9.5 C 7.55 g/m*3 9.5 C 0 km/h
2921 26-09-2010 08:22:02 9.6 C 7.33 g/m*3 9.6 C 0 km/h
2922 26-09-2010 08:34:01 9.7 C 7.19 g/m*3 9.7 C 0 km/h
2923 26-09-2010 08:46:02 9.7 C 7.19 g/m*3 9.7 C 0 km/h
2924 26-09-2010 08:58:02 9.6 C 7.24 g/m*3 9.6 C 0 km/h
2925 26-09-2010 09:10:01 9.4 C 7.24 g/m*3 9.4 C 0 km/h
Sensor: Nr:Datum:Temp:Abs-Feuchte:Windchill:Wind:
Aussen-T/F 2926 26-09-2010 09:22:01 9.4 C 7.33 g/m*3 9.4 C 0 km/h
2927 26-09-2010 09:34:02 10.5 C 7.57 g/m*3 10.5 C 0 km/h
2928 26-09-2010 09:46:01 11 C 7.11 g/m*3 11 C 0 km/h
2929 26-09-2010 09:58:01 11 C 6.61 g/m*3 11 C 0 km/h
2930 26-09-2010 10:10:02 11 C 6.61 g/m*3 11 C 0 km/h
2931 26-09-2010 10:22:01 11.6 C 6.76 g/m*3 11.6 C 0 km/h
2932 26-09-2010 10:34:02 12 C 6.61 g/m*3 12 C 0 km/h
2933 26-09-2010 10:46:01 11.9 C 6.78 g/m*3 11.9 C 0 km/h
2934 26-09-2010 10:58:01 12.7 C 7.01 g/m*3 12.7 C 0 km/h
2935 26-09-2010 11:10:02 12.9 C 6.42 g/m*3 12.9 C 0 km/h
2936 26-09-2010 11:22:01 13.1 C 6.5 g/m*3 13.1 C 0 km/h
2937 26-09-2010 11:34:02 13.2 C 6.66 g/m*3 13.2 C 0 km/h
2938 26-09-2010 11:46:02 13.5 C 6.32 g/m*3 13.5 C 0 km/h
2939 26-09-2010 11:58:02 13.4 C 6.28 g/m*3 13.4 C 0 km/h
2940 26-09-2010 12:10:01 14 C 6.39 g/m*3 14 C 0 km/h
2941 26-09-2010 12:22:02 14.3 C 6.51 g/m*3 14.3 C 0 km/h
2942 26-09-2010 12:34:01 14.6 C 6.51 g/m*3 14.6 C 0 km/h
2943 26-09-2010 12:46:01 15 C 6.28 g/m*3 15 C 0 km/h
2944 26-09-2010 12:58:01 14.5 C 6.22 g/m*3 14.5 C 0 km/h
2945 26-09-2010 13:10:02 14.5 C 6.34 g/m*3 14.5 C 0 km/h
2946 26-09-2010 13:22:01 13.2 C 7.12 g/m*3 13.2 C 0 km/h
2947 26-09-2010 13:34:01 12.6 C 7.63 g/m*3 12.6 C 0 km/h
2948 26-09-2010 13:46:01 12.4 C 8.3 g/m*3 12.4 C 0 km/h
2949 26-09-2010 13:58:01 12.3 C 8.25 g/m*3 12.3 C 0 km/h
2950 26-09-2010 14:10:01 13.2 C 8.61 g/m*3 13.2 C 0 km/h
Sensor: Nr:Datum:Temp:Abs-Feuchte:Windchill:Wind:
Aussen-T/F 2951 26-09-2010 14:22:01 13.4 C 8.37 g/m*3 13.4 C 0 km/h
2952 26-09-2010 14:34:01 13.3 C 8.43 g/m*3 13.3 C 0 km/h
2953 26-09-2010 14:46:01 13.2 C 8.15 g/m*3 13.2 C 0 km/h
2954 26-09-2010 14:58:01 13.4 C 7.9 g/m*3 13.4 C 0 km/h
2955 26-09-2010 15:10:01 13.6 C 7.89 g/m*3 13.6 C 0 km/h
2956 26-09-2010 15:22:02 13.9 C 8.39 g/m*3 13.9 C 0 km/h
2957 26-09-2010 15:34:01 14.4 C 8.16 g/m*3 14.4 C 0 km/h
2958 26-09-2010 15:46:02 14.5 C 7.96 g/m*3 14.5 C 0 km/h
2959 26-09-2010 15:58:02 14.5 C 8.21 g/m*3 14.5 C 0 km/h
2960 26-09-2010 16:10:01 13.7 C 7.7 g/m*3 13.7 C 0 km/h
2961 26-09-2010 16:22:02 13.8 C 7.51 g/m*3 13.8 C 0 km/h
2962 26-09-2010 16:34:01 15.7 C 7.09 g/m*3 15.7 C 0 km/h
2963 26-09-2010 16:46:01 15.5 C 6.21 g/m*3 15.5 C 0 km/h
2964 26-09-2010 16:58:01 15.9 C 6.5 g/m*3 15.9 C 0 km/h
2965 26-09-2010 17:10:01 16.1 C 6.44 g/m*3 16.1 C 0 km/h
2966 26-09-2010 17:22:01 15.6 C 6.38 g/m*3 15.6 C 0 km/h
2967 26-09-2010 17:34:02 15.4 C 6.7 g/m*3 15.4 C 0 km/h
2968 26-09-2010 17:46:01 14.6 C 6.76 g/m*3 14.6 C 0 km/h
2969 26-09-2010 17:58:01 14.2 C 6.72 g/m*3 14.2 C 0 km/h
2970 26-09-2010 18:10:02 13.6 C 6.83 g/m*3 13.6 C 0 km/h
2971 26-09-2010 18:22:01 13.1 C 6.85 g/m*3 13.1 C 0 km/h
2972 26-09-2010 18:34:01 12.9 C 6.99 g/m*3 12.9 C 0 km/h
2973 26-09-2010 18:46:01 12.7 C 7.01 g/m*3 12.7 C 0 km/h
2974 26-09-2010 18:58:01 12.5 C 7.04 g/m*3 12.5 C 0 km/h
2975 26-09-2010 19:10:02 12.4 C 7.1 g/m*3 12.4 C 0 km/h
Sensor: Nr:Datum:Temp:Abs-Feuchte:Windchill:Wind:
Aussen-T/F 2976 26-09-2010 19:22:01 12.4 C 7.1 g/m*3 12.4 C 0 km/h
2977 26-09-2010 19:34:01 12.2 C 7.01 g/m*3 12.2 C 0 km/h
2978 26-09-2010 19:46:01 12.1 C 7.18 g/m*3 12.1 C 0 km/h
2979 26-09-2010 19:58:01 12.1 C 7.08 g/m*3 12.1 C 0 km/h
2980 26-09-2010 20:10:02 12 C 7.25 g/m*3 12 C 0 km/h
2981 26-09-2010 20:22:01 11.9 C 7.31 g/m*3 11.9 C 0 km/h
2982 26-09-2010 20:34:01 11.7 C 7.22 g/m*3 11.7 C 0 km/h
2983 26-09-2010 20:46:01 11.7 C 7.22 g/m*3 11.7 C 0 km/h
2984 26-09-2010 20:58:01 11.6 C 7.07 g/m*3 11.6 C 0 km/h
2985 26-09-2010 21:10:01 11.6 C 7.07 g/m*3 11.6 C 0 km/h
2986 26-09-2010 21:22:01 11.4 C 7.08 g/m*3 11.4 C 0 km/h
2987 26-09-2010 21:34:01 11.2 C 7.1 g/m*3 11.2 C 0 km/h
2988 26-09-2010 21:46:01 10.9 C 7.16 g/m*3 10.9 C 0 km/h
2989 26-09-2010 21:58:01 10.7 C 7.17 g/m*3 10.7 C 0 km/h
2990 26-09-2010 22:10:01 10.3 C 6.99 g/m*3 10.3 C 0 km/h
2991 26-09-2010 22:22:01 10 C 7.05 g/m*3 10 C 0 km/h
2992 26-09-2010 22:34:01 9.7 C 7.1 g/m*3 9.7 C 0 km/h
2993 26-09-2010 22:47:04 9.3 C 7.1 g/m*3 9.3 C 0 km/h
2994 26-09-2010 22:59:04 9.2 C 7.05 g/m*3 9.2 C 0 km/h
2995 26-09-2010 23:11:04 9 C 7.05 g/m*3 9 C 0 km/h
2996 26-09-2010 23:23:04 8.9 C 7.18 g/m*3 8.9 C 0 km/h
2997 26-09-2010 23:35:04 8.9 C 7.27 g/m*3 8.9 C 0 km/h
2998 26-09-2010 23:47:04 8.8 C 7.22 g/m*3 8.8 C 0 km/h
2999 26-09-2010 23:59:04 8.6 C 7.13 g/m*3 8.6 C 0 km/h
3000 27-09-2010 00:11:04 8.5 C 7.17 g/m*3 8.5 C 0 km/h
Sensor: Nr:Datum:Temp:Abs-Feuchte:Windchill:Wind:
Aussen-T/F 3001 27-09-2010 00:23:04 8.2 C 7.03 g/m*3 8.2 C 0 km/h
3002 27-09-2010 00:35:04 8.1 C 6.99 g/m*3 8.1 C 0 km/h
3003 27-09-2010 00:47:04 7.9 C 6.98 g/m*3 7.9 C 0 km/h
3004 27-09-2010 00:59:04 7.9 C 7.15 g/m*3 7.9 C 0 km/h
3005 27-09-2010 01:11:04 7.8 C 7.18 g/m*3 7.8 C 0 km/h
3006 27-09-2010 01:23:04 7.6 C 7.09 g/m*3 7.6 C 0 km/h
3007 27-09-2010 01:35:04 7.5 C 7.04 g/m*3 7.5 C 0 km/h
3008 27-09-2010 01:47:04 7.3 C 6.95 g/m*3 7.3 C 0 km/h
3009 27-09-2010 01:59:04 7.1 C 6.94 g/m*3 7.1 C 0 km/h
3010 27-09-2010 02:11:04 7 C 6.9 g/m*3 7 C 0 km/h
3011 27-09-2010 02:23:04 7 C 6.9 g/m*3 7 C 0 km/h
3012 27-09-2010 02:35:05 6.8 C 6.81 g/m*3 6.8 C 0 km/h
3013 27-09-2010 02:47:05 6.7 C 6.84 g/m*3 6.7 C 0 km/h
3014 27-09-2010 02:59:05 6.7 C 6.84 g/m*3 6.7 C 0 km/h
3015 27-09-2010 03:11:05 6.5 C 6.75 g/m*3 6.5 C 0 km/h
3016 27-09-2010 03:23:05 6.7 C 6.84 g/m*3 6.7 C 0 km/h
3017 27-09-2010 03:35:05 6.4 C 6.71 g/m*3 6.4 C 0 km/h
3018 27-09-2010 03:47:05 6.3 C 6.66 g/m*3 6.3 C 0 km/h
3019 27-09-2010 03:59:05 6.4 C 6.78 g/m*3 6.4 C 0 km/h
3020 27-09-2010 04:11:05 6.5 C 6.9 g/m*3 6.5 C 0 km/h
3021 27-09-2010 04:23:05 6.4 C 6.85 g/m*3 6.4 C 0 km/h
3022 27-09-2010 04:35:05 6.3 C 6.81 g/m*3 6.3 C 0 km/h
3023 27-09-2010 04:47:05 6.1 C 6.72 g/m*3 6.1 C 0 km/h
3024 27-09-2010 04:59:05 5.9 C 6.71 g/m*3 5.9 C 0 km/h
3025 27-09-2010 05:11:05 5.9 C 6.71 g/m*3 5.9 C 0 km/h
Sensor: Nr:Datum:Temp:Abs-Feuchte:Windchill:Wind:
Aussen-T/F 3026 27-09-2010 05:23:05 6.1 C 6.72 g/m*3 6.1 C 0 km/h
3027 27-09-2010 05:35:05 6.3 C 6.81 g/m*3 6.3 C 0 km/h
3028 27-09-2010 05:47:05 6.4 C 6.93 g/m*3 6.4 C 0 km/h
3029 27-09-2010 05:59:05 6.5 C 6.97 g/m*3 6.5 C 0 km/h
3030 27-09-2010 06:11:05 6.5 C 6.97 g/m*3 6.5 C 0 km/h
3031 27-09-2010 06:23:05 6.4 C 6.93 g/m*3 6.4 C 0 km/h
3032 27-09-2010 06:35:05 6.2 C 6.84 g/m*3 6.2 C 0 km/h
3033 27-09-2010 06:47:06 6.2 C 6.84 g/m*3 6.2 C 0 km/h
3034 27-09-2010 06:59:06 6.3 C 6.88 g/m*3 6.3 C 0 km/h
3035 27-09-2010 07:11:04 6.3 C 6.88 g/m*3 6.3 C 0 km/h
3036 27-09-2010 07:23:04 6.6 C 7.02 g/m*3 6.6 C 0 km/h
3037 27-09-2010 07:35:04 6.7 C 7.14 g/m*3 6.7 C 0 km/h
3038 27-09-2010 07:47:02 6.9 C 7.24 g/m*3 6.9 C 0 km/h
3039 27-09-2010 07:59:02 7.2 C 7.38 g/m*3 7.2 C 0 km/h
3040 27-09-2010 08:11:02 7.5 C 7.52 g/m*3 7.5 C 0 km/h
3041 27-09-2010 08:23:02 7.5 C 7.52 g/m*3 7.5 C 0 km/h
3042 27-09-2010 08:35:02 7.6 C 7.57 g/m*3 7.6 C 0 km/h
3043 27-09-2010 08:47:02 7.8 C 7.67 g/m*3 7.8 C 0 km/h
3044 27-09-2010 08:59:02 8.1 C 7.74 g/m*3 8.1 C 0 km/h
3045 27-09-2010 09:11:02 8.5 C 7.94 g/m*3 8.5 C 0 km/h
3046 27-09-2010 09:23:02 8.8 C 8.09 g/m*3 8.8 C 0 km/h
3047 27-09-2010 09:35:02 9.2 C 8.22 g/m*3 9.2 C 0 km/h
3048 27-09-2010 09:47:01 9.6 C 8.34 g/m*3 9.6 C 0 km/h
3049 27-09-2010 09:59:01 10.1 C 8.42 g/m*3 10.1 C 0 km/h
3050 27-09-2010 10:11:02 10.4 C 8.29 g/m*3 10.4 C 0 km/h
Sensor: Nr:Datum:Temp:Abs-Feuchte:Windchill:Wind:
Aussen-T/F 3051 27-09-2010 10:23:01 10.4 C 7.9 g/m*3 10.4 C 0 km/h
3052 27-09-2010 10:35:02 10.8 C 7.51 g/m*3 10.8 C 0 km/h
3053 27-09-2010 10:47:01 11 C 7.11 g/m*3 11 C 0 km/h
3054 27-09-2010 10:59:01 11.2 C 6.99 g/m*3 11.2 C 0 km/h
3055 27-09-2010 11:11:02 11.7 C 7.01 g/m*3 11.7 C 0 km/h
3056 27-09-2010 11:23:01 11.8 C 6.74 g/m*3 11.8 C 0 km/h
3057 27-09-2010 11:35:02 12.2 C 6.8 g/m*3 12.2 C 0 km/h
3058 27-09-2010 11:47:01 12 C 6.61 g/m*3 12 C 0 km/h
3059 27-09-2010 11:59:01 12.2 C 6.8 g/m*3 12.2 C 0 km/h
3060 27-09-2010 12:11:02 12.4 C 6.77 g/m*3 12.4 C 0 km/h
3061 27-09-2010 12:23:01 12.8 C 6.94 g/m*3 12.8 C 0 km/h
3062 27-09-2010 12:35:02 12.8 C 6.83 g/m*3 12.8 C 0 km/h
3063 27-09-2010 12:47:01 13 C 6.8 g/m*3 13 C 0 km/h
3064 27-09-2010 12:59:01 12.9 C 6.76 g/m*3 12.9 C 0 km/h
3065 27-09-2010 13:11:02 13.1 C 6.73 g/m*3 13.1 C 0 km/h
3066 27-09-2010 13:23:02 13.4 C 6.97 g/m*3 13.4 C 0 km/h
3067 27-09-2010 13:35:01 13.6 C 6.71 g/m*3 13.6 C 0 km/h
3068 27-09-2010 13:47:02 13.6 C 6.71 g/m*3 13.6 C 0 km/h
3069 27-09-2010 13:59:02 13.7 C 6.51 g/m*3 13.7 C 0 km/h
3070 27-09-2010 14:11:01 13.4 C 6.51 g/m*3 13.4 C 0 km/h
3071 27-09-2010 14:23:02 13.3 C 6.7 g/m*3 13.3 C 0 km/h
3072 27-09-2010 14:35:01 13.4 C 6.74 g/m*3 13.4 C 0 km/h
3073 27-09-2010 14:47:03 13.2 C 6.77 g/m*3 13.2 C 0 km/h
3074 27-09-2010 14:59:03 13 C 6.58 g/m*3 13 C 0 km/h
3075 27-09-2010 15:11:02 13.4 C 6.74 g/m*3 13.4 C 0 km/h
Sensor: Nr:Datum:Temp:Abs-Feuchte:Windchill:Wind:
Aussen-T/F 3076 27-09-2010 15:23:02 13.6 C 6.59 g/m*3 13.6 C 0 km/h
3077 27-09-2010 15:35:02 13.6 C 6.47 g/m*3 13.6 C 0 km/h
3078 27-09-2010 15:47:02 13.2 C 6.66 g/m*3 13.2 C 0 km/h
3079 27-09-2010 15:59:02 13.2 C 6.77 g/m*3 13.2 C 0 km/h
3080 27-09-2010 16:11:01 13.4 C 6.97 g/m*3 13.4 C 0 km/h
3081 27-09-2010 16:23:02 13.4 C 7.44 g/m*3 13.4 C 0 km/h
3082 27-09-2010 16:35:02 13.4 C 7.44 g/m*3 13.4 C 0 km/h
3083 27-09-2010 16:47:01 13.3 C 7.05 g/m*3 13.3 C 0 km/h
3084 27-09-2010 16:59:01 13.4 C 7.09 g/m*3 13.4 C 0 km/h
3085 27-09-2010 17:11:01 13.2 C 7.58 g/m*3 13.2 C 0 km/h
3086 27-09-2010 17:23:01 13 C 7.6 g/m*3 13 C 0 km/h
3087 27-09-2010 17:35:02 12.8 C 7.73 g/m*3 12.8 C 0 km/h
3088 27-09-2010 17:47:02 12.8 C 7.84 g/m*3 12.8 C 0 km/h
3089 27-09-2010 17:59:02 12.7 C 7.68 g/m*3 12.7 C 0 km/h
3090 27-09-2010 18:11:02 12.5 C 7.59 g/m*3 12.5 C 0 km/h
3091 27-09-2010 18:23:01 12.3 C 7.71 g/m*3 12.3 C 0 km/h
3092 27-09-2010 18:35:02 11.9 C 7.73 g/m*3 11.9 C 0 km/h
3093 27-09-2010 18:47:02 11.7 C 7.74 g/m*3 11.7 C 0 km/h
3094 27-09-2010 18:59:02 11.3 C 7.85 g/m*3 11.3 C 0 km/h
3095 27-09-2010 19:11:02 10.8 C 8.01 g/m*3 10.8 C 0 km/h
3096 27-09-2010 19:23:02 10.7 C 8.15 g/m*3 10.7 C 0 km/h
3097 27-09-2010 19:35:02 10.5 C 8.15 g/m*3 10.5 C 0 km/h
3098 27-09-2010 19:47:02 10.5 C 8.15 g/m*3 10.5 C 0 km/h
3099 27-09-2010 19:59:02 10.4 C 8.19 g/m*3 10.4 C 0 km/h
3100 27-09-2010 20:11:02 10.3 C 8.24 g/m*3 10.3 C 0 km/h
Sensor: Nr:Datum:Temp:Abs-Feuchte:Windchill:Wind:
Aussen-T/F 3101 27-09-2010 20:23:02 10.3 C 8.33 g/m*3 10.3 C 0 km/h
3102 27-09-2010 20:35:02 10.3 C 8.43 g/m*3 10.3 C 0 km/h
3103 27-09-2010 20:47:01 10.3 C 8.43 g/m*3 10.3 C 0 km/h
3104 27-09-2010 20:59:01 10.3 C 8.52 g/m*3 10.3 C 0 km/h
3105 27-09-2010 21:11:02 10.4 C 8.58 g/m*3 10.4 C 0 km/h
3106 27-09-2010 21:23:01 10.2 C 8.47 g/m*3 10.2 C 0 km/h
3107 27-09-2010 21:35:02 10.3 C 8.52 g/m*3 10.3 C 0 km/h
3108 27-09-2010 21:47:02 10.4 C 8.58 g/m*3 10.4 C 0 km/h
3109 27-09-2010 21:59:03 10.4 C 8.58 g/m*3 10.4 C 0 km/h
3110 27-09-2010 22:11:02 10.4 C 8.58 g/m*3 10.4 C 0 km/h
3111 27-09-2010 22:24:10 10.4 C 8.67 g/m*3 10.4 C 0 km/h
3112 27-09-2010 22:36:10 10.2 C 8.56 g/m*3 10.2 C 0 km/h
3113 27-09-2010 22:48:10 10.2 C 8.56 g/m*3 10.2 C 0 km/h
3114 27-09-2010 23:00:10 10.2 C 8.56 g/m*3 10.2 C 0 km/h
3115 27-09-2010 23:12:10 10.2 C 8.66 g/m*3 10.2 C 0 km/h
3116 27-09-2010 23:24:10 10.2 C 8.66 g/m*3 10.2 C 0 km/h
3117 27-09-2010 23:36:10 10.1 C 8.61 g/m*3 10.1 C 0 km/h
3118 27-09-2010 23:48:10 10.1 C 8.7 g/m*3 10.1 C 0 km/h
3119 28-09-2010 00:00:10 10.1 C 8.7 g/m*3 10.1 C 0 km/h
3120 28-09-2010 00:12:10 10 C 8.64 g/m*3 10 C 0 km/h
3121 28-09-2010 00:24:10 10 C 8.64 g/m*3 10 C 0 km/h
3122 28-09-2010 00:36:10 10 C 8.64 g/m*3 10 C 0 km/h
3123 28-09-2010 00:48:10 9.9 C 8.78 g/m*3 9.9 C 0 km/h
3124 28-09-2010 01:00:10 10 C 8.74 g/m*3 10 C 0 km/h
3125 28-09-2010 01:12:11 10 C 8.74 g/m*3 10 C 0 km/h
Sensor: Nr:Datum:Temp:Abs-Feuchte:Windchill:Wind:
Aussen-T/F 3126 28-09-2010 01:24:11 10 C 8.74 g/m*3 10 C 0 km/h
3127 28-09-2010 01:36:11 10 C 8.74 g/m*3 10 C 0 km/h
3128 28-09-2010 01:48:11 9.9 C 8.78 g/m*3 9.9 C 0 km/h
3129 28-09-2010 02:00:11 9.9 C 8.78 g/m*3 9.9 C 0 km/h
3130 28-09-2010 02:12:11 9.9 C 8.78 g/m*3 9.9 C 0 km/h
3131 28-09-2010 02:24:11 9.9 C 8.78 g/m*3 9.9 C 0 km/h
3132 28-09-2010 02:36:11 9.9 C 8.78 g/m*3 9.9 C 0 km/h
3133 28-09-2010 02:48:11 9.9 C 8.78 g/m*3 9.9 C 0 km/h
3134 28-09-2010 03:00:11 9.9 C 8.87 g/m*3 9.9 C 0 km/h
3135 28-09-2010 03:12:11 9.9 C 8.87 g/m*3 9.9 C 0 km/h
3136 28-09-2010 03:24:11 9.9 C 8.87 g/m*3 9.9 C 0 km/h
3137 28-09-2010 03:36:12 9.9 C 8.87 g/m*3 9.9 C 0 km/h
3138 28-09-2010 03:48:12 9.9 C 8.87 g/m*3 9.9 C 0 km/h
3139 28-09-2010 04:00:12 9.9 C 8.87 g/m*3 9.9 C 0 km/h
3140 28-09-2010 04:12:12 9.9 C 8.87 g/m*3 9.9 C 0 km/h
3141 28-09-2010 04:24:12 9.9 C 8.87 g/m*3 9.9 C 0 km/h
3142 28-09-2010 04:36:12 9.9 C 8.87 g/m*3 9.9 C 0 km/h
3143 28-09-2010 04:48:12 10 C 8.83 g/m*3 10 C 0 km/h
3144 28-09-2010 05:00:12 10 C 8.93 g/m*3 10 C 0 km/h
3145 28-09-2010 05:12:12 10 C 8.93 g/m*3 10 C 0 km/h
3146 28-09-2010 05:24:12 10 C 8.93 g/m*3 10 C 0 km/h
3147 28-09-2010 05:36:12 10 C 8.93 g/m*3 10 C 0 km/h
3148 28-09-2010 05:48:12 10 C 8.93 g/m*3 10 C 0 km/h
3149 28-09-2010 06:00:12 10.1 C 8.98 g/m*3 10.1 C 0 km/h
3150 28-09-2010 06:12:12 10.1 C 8.98 g/m*3 10.1 C 0 km/h
Sensor: Nr:Datum:Temp:Abs-Feuchte:Windchill:Wind:
Aussen-T/F 3151 28-09-2010 06:24:12 10.1 C 8.98 g/m*3 10.1 C 0 km/h
3152 28-09-2010 06:36:12 10.1 C 8.98 g/m*3 10.1 C 0 km/h
3153 28-09-2010 06:48:12 10 C 8.93 g/m*3 10 C 0 km/h
3154 28-09-2010 07:00:12 10 C 8.93 g/m*3 10 C 0 km/h
3155 28-09-2010 07:12:12 10 C 8.93 g/m*3 10 C 0 km/h
3156 28-09-2010 07:24:12 10 C 8.93 g/m*3 10 C 0 km/h
3157 28-09-2010 07:36:13 10 C 8.93 g/m*3 10 C 0 km/h
3158 28-09-2010 07:48:01 10 C 8.93 g/m*3 10 C 0 km/h
3159 28-09-2010 08:00:01 10 C 8.93 g/m*3 10 C 0 km/h
3160 28-09-2010 08:12:02 10 C 8.93 g/m*3 10 C 0 km/h
3161 28-09-2010 08:24:02 10 C 8.93 g/m*3 10 C 0 km/h
3162 28-09-2010 08:36:02 10.1 C 8.98 g/m*3 10.1 C 0 km/h
3163 28-09-2010 08:48:03 10.1 C 8.98 g/m*3 10.1 C 0 km/h
3164 28-09-2010 09:00:03 10.1 C 8.98 g/m*3 10.1 C 0 km/h
3165 28-09-2010 09:12:03 10.2 C 9.04 g/m*3 10.2 C 0 km/h
3166 28-09-2010 09:24:02 10.2 C 9.04 g/m*3 10.2 C 0 km/h
3167 28-09-2010 09:36:02 10.3 C 9.1 g/m*3 10.3 C 0 km/h
3168 28-09-2010 09:48:02 10.4 C 9.16 g/m*3 10.4 C 0 km/h
3169 28-09-2010 10:00:02 10.4 C 9.16 g/m*3 10.4 C 0 km/h
3170 28-09-2010 10:12:02 10.5 C 9.21 g/m*3 10.5 C 0 km/h
3171 28-09-2010 10:24:01 10.5 C 9.21 g/m*3 10.5 C 0 km/h
3172 28-09-2010 10:36:02 10.7 C 9.33 g/m*3 10.7 C 0 km/h
3173 28-09-2010 10:48:02 10.8 C 9.39 g/m*3 10.8 C 0 km/h
3174 28-09-2010 11:00:02 11 C 9.51 g/m*3 11 C 0 km/h
3175 28-09-2010 11:12:02 11 C 9.51 g/m*3 11 C 0 km/h
Sensor: Nr:Datum:Temp:Abs-Feuchte:Windchill:Wind:
Aussen-T/F 3176 28-09-2010 11:24:02 11.2 C 9.63 g/m*3 11.2 C 0 km/h
3177 28-09-2010 11:36:02 11.3 C 9.69 g/m*3 11.3 C 0 km/h
3178 28-09-2010 11:48:02 11.4 C 9.75 g/m*3 11.4 C 0 km/h
3179 28-09-2010 12:00:02 11.4 C 9.75 g/m*3 11.4 C 0 km/h
3180 28-09-2010 12:12:02 11.4 C 9.65 g/m*3 11.4 C 0 km/h
3181 28-09-2010 12:24:02 11.4 C 9.65 g/m*3 11.4 C 0 km/h
3182 28-09-2010 12:36:02 11.5 C 9.71 g/m*3 11.5 C 0 km/h
3183 28-09-2010 12:48:02 11.7 C 9.83 g/m*3 11.7 C 0 km/h
3184 28-09-2010 13:00:02 11.6 C 9.67 g/m*3 11.6 C 0 km/h
3185 28-09-2010 13:12:02 11.6 C 9.67 g/m*3 11.6 C 0 km/h
3186 28-09-2010 13:24:03 11.8 C 9.79 g/m*3 11.8 C 0 km/h
3187 28-09-2010 13:36:02 11.8 C 9.68 g/m*3 11.8 C 0 km/h
3188 28-09-2010 13:48:03 11.9 C 9.74 g/m*3 11.9 C 0 km/h
3189 28-09-2010 14:00:03 11.9 C 9.74 g/m*3 11.9 C 0 km/h
3190 28-09-2010 14:12:02 11.8 C 9.68 g/m*3 11.8 C 0 km/h
3191 28-09-2010 14:24:02 11.7 C 9.62 g/m*3 11.7 C 0 km/h
3192 28-09-2010 14:36:02 11.7 C 9.62 g/m*3 11.7 C 0 km/h
3193 28-09-2010 14:48:02 11.7 C 9.62 g/m*3 11.7 C 0 km/h
3194 28-09-2010 15:00:02 11.7 C 9.62 g/m*3 11.7 C 0 km/h
3195 28-09-2010 15:12:02 11.7 C 9.73 g/m*3 11.7 C 0 km/h
3196 28-09-2010 15:24:02 11.7 C 9.73 g/m*3 11.7 C 0 km/h
3197 28-09-2010 15:36:02 11.8 C 9.79 g/m*3 11.8 C 0 km/h
3198 28-09-2010 15:48:02 11.8 C 9.79 g/m*3 11.8 C 0 km/h
3199 28-09-2010 16:00:02 11.8 C 9.79 g/m*3 11.8 C 0 km/h
3200 28-09-2010 16:12:01 11.8 C 9.79 g/m*3 11.8 C 0 km/h
Sensor: Nr:Datum:Temp:Abs-Feuchte:Windchill:Wind:
Aussen-T/F 3201 28-09-2010 16:24:01 11.8 C 9.79 g/m*3 11.8 C 0 km/h
3202 28-09-2010 16:36:02 11.9 C 9.96 g/m*3 11.9 C 0 km/h
3203 28-09-2010 16:48:02 11.9 C 9.96 g/m*3 11.9 C 0 km/h
3204 28-09-2010 17:00:02 11.9 C 9.96 g/m*3 11.9 C 0 km/h
3205 28-09-2010 17:12:02 12 C 10.02 g/m*3 12 C 0 km/h
3206 28-09-2010 17:24:02 12 C 10.02 g/m*3 12 C 0 km/h
3207 28-09-2010 17:36:02 12 C 10.02 g/m*3 12 C 0 km/h
3208 28-09-2010 17:48:02 12 C 10.02 g/m*3 12 C 0 km/h
3209 28-09-2010 18:00:02 11.9 C 9.96 g/m*3 11.9 C 0 km/h
3210 28-09-2010 18:12:02 11.9 C 9.96 g/m*3 11.9 C 0 km/h
3211 28-09-2010 18:24:02 11.9 C 10.06 g/m*3 11.9 C 0 km/h
3212 28-09-2010 18:36:02 11.8 C 10 g/m*3 11.8 C 0 km/h
3213 28-09-2010 18:48:01 11.8 C 10 g/m*3 11.8 C 0 km/h
3214 28-09-2010 19:00:01 11.8 C 10 g/m*3 11.8 C 0 km/h
3215 28-09-2010 19:12:02 11.7 C 9.94 g/m*3 11.7 C 0 km/h
3216 28-09-2010 19:24:01 11.7 C 9.94 g/m*3 11.7 C 0 km/h
3217 28-09-2010 19:36:01 11.7 C 9.94 g/m*3 11.7 C 0 km/h
3218 28-09-2010 19:48:01 11.7 C 9.94 g/m*3 11.7 C 0 km/h
3219 28-09-2010 20:00:01 11.6 C 9.87 g/m*3 11.6 C 0 km/h
3220 28-09-2010 20:12:02 11.6 C 9.87 g/m*3 11.6 C 0 km/h
3221 28-09-2010 20:24:02 11.6 C 9.87 g/m*3 11.6 C 0 km/h
3222 28-09-2010 20:36:01 11.6 C 9.87 g/m*3 11.6 C 0 km/h
3223 28-09-2010 20:48:01 11.6 C 9.87 g/m*3 11.6 C 0 km/h
3224 28-09-2010 21:00:01 11.6 C 9.87 g/m*3 11.6 C 0 km/h
3225 28-09-2010 21:12:01 11.6 C 9.87 g/m*3 11.6 C 0 km/h
Sensor: Nr:Datum:Temp:Abs-Feuchte:Windchill:Wind:
Aussen-T/F 3226 28-09-2010 21:24:02 11.6 C 9.87 g/m*3 11.6 C